Aviation Digital Data Service (ADDS)

Output produced by METARs form (2228 UTC 01 August 2014)
found at http://aviationweather.gov/adds/metars/
 
K01M 012215Z AUTO 02005KT 10SM CLR 28/20 A3001 RMK AO2 LTG DSNT NW T02810197
K04V 012214Z AUTO 12006KT 10SM SCT011 SCT039 BKN100 16/12 A3037 RMK AO2 P0005 LTG DSNT ALQS PWINO
K04W 012219Z AUTO 00000KT 10SM SCT060 25/17 A3005 RMK AO2
K06D 012215Z AUTO 19005KT 10SM 25/14 A3010 RMK AO2
K08D 012215Z AUTO 11003KT 10SM CLR 25/15 A3011 RMK AO2
K0A9 012215Z AUTO 09009KT 10SM FEW033 22/16 A3011 RMK
K0CO 012215Z AUTO 10018KT 3/4SM TS BR OVC001 03/03 A3071 RMK AO2 LTG DSNT SW THRU N
K0E0 012215Z AUTO 17008KT 10SM SCT039 SCT050 23/12 A3029 RMK AO2 T02290123
K0F2 012215Z AUTO 04003KT 10SM CLR 27/19 A3005 RMK AO2 T02700185
K0J4 012158Z AUTO 00000KT 10SM CLR 29/20 A2999 RMK AO2 SLP149 T02940200 $
K0R0 012215Z AUTO 00000KT 6SM -DZ CLR 25/22 A2999 RMK AO2
K0VG 012215Z AUTO 00000KT 10SM CLR 26/17 A3008 RMK AO2
K11R 012215Z AUTO 34008G14KT 10SM CLR 30/20 A2997 RMK AO2 T03000196
K12N 012154Z AUTO 00000KT 23/17 A3020 RMK AO1 SLP221 T02280172
K14Y 012218Z AUTO 36003KT 10SM SCT048 BKN050 BKN080 26/16 A3007 RMK AO2
K19A 012215Z AUTO 11004KT 10SM SCT026 26/14 A3005 RMK AO2
K1A5 012215Z AUTO 17004KT 10SM 23/17 A3011 RMK AO2 T02340167
K1A6 012215Z AUTO 01003KT 10SM SCT050 SCT065 OVC110 25/19 A3006 RMK AO2 T02540186
K1A9 012215Z AUTO 00000KT 10SM CLR 27/22 A2998 RMK AO2 T02740216
K1B7 012130Z 06005KT 10SM CLR BLW120 29/22 A2998 RMK LAST
K1F0 012215Z AUTO 07003KT 10SM BKN041 25/17 A3005 RMK AO2
K1H2 012215Z AUTO 29010G19KT 7SM +TSRA BKN060 BKN070 OVC080 21/15 A3007 RMK AO2 LTG DSNT ALQS P0001 T02050145
K1II 012215Z AUTO 21004KT 10SM CLR 27/15 A3007 RMK AO2 LTG DSNT W THRU N
K1J0 012158Z AUTO 00000KT 10SM CLR 30/20 A2996 RMK AO2 RAB43E50 SLP104 P0000 T03000200
K1M4 012156Z AUTO 00000KT 10SM CLR 27/21 A3005 RMK AO2 T02660205 SLP187
K1P1 012215Z AUTO 00000KT 10SM CLR 26/17 A3016 RMK AO2 T02590170
K1R7 012215Z AUTO 13003KT 4SM BR FEW050 23/22 A3002 RMK AO2
K1V4 012154Z AUTO 25/16 A3013 RMK AO1 SLP195 T02500161
K1V6 012210Z AUTO 35006KT 10SM SCT075 OVC090 19/14 A3031 RMK AO2
K1YT 012156Z AUTO VRB06KT 10SM FEW160 35/06 A2995 RMK AO2 SLPNO T03450062
K20V 012217Z AUTO 32004KT 10SM CLR 24/02 A3033 RMK AO2 LTG DSNT NE AND SE
K21D 012211Z AUTO 34003KT 10SM CLR 28/15 A3005 RMK AO2
K24J 012215Z AUTO 00000KT 10SM CLR 34/20 A2995 RMK AO1
K28J 012215Z AUTO 25004KT 10SM CLR 32/19 A2994 RMK AO2
K2C8 012215Z AUTO 03003KT 9SM CLR 28/15 A3006 RMK AO2
K2DP 012156Z AUTO 12008KT 12SM -SHRA FEW036 SCT048 BKN130 22/21 A3011 RMK AO2 LTG DSNT SE-S SLPNO P0002 T02190209
K2G4 012220Z AUTO 16007KT 10SM BKN120 20/17 A3020 RMK AO1
K2I0 012215Z AUTO 03005KT 10SM SCT095 31/15 A3002 RMK AO2 T03090149
K2J9 012155Z AUTO 30003KT 10SM CLR 35/20 A2996 RMK AO1
K2V5 012215Z AUTO 00000KT 10SM 31/07 A3015 RMK AO2 T03080066
K2W6 012221Z AUTO 00000KT 10SM SCT039 SCT100 21/17 A3017 RMK AO1
K2WX 012156Z AUTO VRB04KT 33/09 A2999 RMK AO1 SLP130 T03280094
K33V 012215Z AUTO 31005KT 10SM CLR 21/01 A3037 RMK AO2
K36U 012215Z AUTO 13010KT 10SM CLR 29/06 A3019 RMK AO2 LTG DSNT SW
K3I2 012215Z AUTO 00000KT 10SM BKN085 26/21 A3007 RMK AO2
K3J7 012215Z AUTO 00000KT 10SM BKN020 23/18 A3002 RMK AO2 LTG DSNT SE AND S
K3LF 012210Z AUTO 08006KT 10SM SCT065 BKN110 21/17 A3008 RMK AO2 LTG DSNT E T02050168
K3R7 012215Z AUTO 18005KT 5SM TS BR SCT036 BKN042 BKN050 27/25 A2991 RMK AO2 LTG DSNT NE THRU SW T02650249
K3T5 012215Z AUTO 01004KT 10SM CLR 32/21 A2992 RMK AO2 T03190205
K40B 012216Z AUTO 18006KT 22/16 A3015 RMK AO1 SLP202 T02220161 57004
K40J 012215Z AUTO 22006KT 10SM CLR 30/19 A2995 RMK AO2 LTG DSNT NE
K42J 012215Z AUTO 33003KT 10SM CLR 32/18 A2995 RMK AO1
K46D 012215Z AUTO 06006KT 10SM FEW055 FEW070 26/16 A3009 RMK AO2
K4A6 012215Z AUTO 00000KT 10SM FEW049 29/18 A3001 RMK AO2
K4A9 012215Z AUTO 34005KT 7SM SCT110 27/16 A3001 RMK AO2
K4BM 012212Z AUTO 06004KT 10SM DZ SCT036 OVC043 05/04 A3067 RMK AO2
K4I3 012216Z AUTO 35004KT 10SM CLR 26/19 A3009 RMK AO2
K4I7 012215Z AUTO 34003KT 7SM BKN120 25/17 A3008 RMK AO2
K4M9 012215Z AUTO 10003KT 10SM -RA CLR 28/18 A3004 RMK AO2
K4MR 012156Z AUTO 03004KT 10SM CLR 23/13 A3022 RMK AO2 SLP183 T02320125
K4O4 012215Z AUTO 01004KT 10SM BKN039 BKN044 23/19 A3003 RMK AO2
K54J 012215Z AUTO 34003KT 10SM CLR 29/19 A2997 RMK AO2 T02910191
K5C1 012215Z AUTO 00000KT 10SM SCT070 32/15 A2999 RMK AO1
K5H4 012215Z AUTO 11005KT 10SM CLR 27/16 A3008 RMK AO2
K5M9 012215Z AUTO 31004KT 10SM CLR 29/16 A3003 RMK AO2 T02910156
K5R8 012215Z AUTO 26004KT 10SM BKN060 28/23 A2992 RMK AO2 LTG DSNT E THRU S T02780227
K5SM 012215Z AUTO 03004KT 10SM SCT027 SCT045 BKN070 12/09 A3059 RMK AO2 LTG DSNT N AND SW
K5T6 011959Z 01006KT 10SM SCT030 SCT040 BNK090 23/18 A3016 RMK UNOFFICIAL
K5W8 012215Z AUTO 04006KT 10SM -RA OVC007 19/19 A3009 RMK AO2 T01920187
K65S 012210Z AUTO 20004KT 10SM CLR 31/12 A3002 RMK AO2
K6A2 012215Z AUTO 00000KT 10SM OVC023 23/20 A3005 RMK AO2 LTG DSNT SE
K6B0 012215Z AUTO 16006KT 10SM CLR 26/16 A3014 RMK AO2 T02570163
K6R3 012215Z AUTO 36005KT 10SM SCT030 SCT037 SCT048 28/22 A2995 RMK AO2 T02770222
K6R6 012153Z AUTO 08009KT 33/14 A3004 RMK AO1 SLP131 T03280144
K79J 012156Z AUTO 28003KT 10SM CLR 31/19 A2997 RMK AO2 SLP143 T03110189
K7BM 012214Z AUTO 00000KT 2SM RA BKN023 BKN028 OVC033 10/08 A3058 RMK AO2 LTG DSNT N AND S
K7L2 012215Z AUTO 18015G23KT 10SM FEW075 SCT120 27/17 A3004 RMK AO2
K7R3 012102Z 33005KT 10SM SCT027 BKN040 OVC050 27/21 29991300
K82V 012215Z AUTO 16005KT 10SM SCT120 25/07 A3025 RMK AO2
K8A0 012215Z AUTO 00000KT 10SM SCT120 28/22 A3002 RMK AO2
K8D3 012156Z AUTO 05003KT 29/15 A3005 RMK AO1 SLP159 T02890150
K8S0 012215Z 13005KT
K96D 012215Z AUTO 19003KT FEW095 26/16 RMK AO2 PWINO PNO TSNO
K9D7 012215Z AUTO 17006KT 10SM CLR 25/15 A3009 RMK AO2 PWINO PNO
K9F2 012113Z 00000KT 7SM SKC 31/22 A2997 RMK LAST
K9L2 012155Z AUTO VRB04KT 10SM CLR 39/02 A2989 RMK AO2 SLP095 T03940017 $
K9MN 012212Z AUTO 26005KT 10SM SCT050 27/11 A3007 RMK AO1 T02690112
K9V9 012215Z AUTO 13009KT 10SM CLR 32/14 A3004 RMK AO2 T03160135
KAAA 012215Z AUTO 00000KT 10SM SCT090 BKN120 24/17 A3008 RMK AO2 LTG DSNT NE AND SE T02350169
KAAF 012153Z AUTO 28009KT 10SM CLR 29/21 A2994 RMK AO2 SLP140 T02890206
KAAO 012154Z AUTO VRB05KT 10SM FEW100 33/13 A3002 RMK AO2 SLP151 T03280133
KAAT 012155Z AUTO 24005KT 10SM FEW120 34/02 A3005 RMK AO2 SLP122 T03390017
KABE 012210Z 26009KT 8SM -RA BKN049 OVC065 21/18 A3020 RMK AO2 RAB00 P0000
KABH 012156Z AUTO 16004KT 10SM CLR 22/07 A3032 RMK AO2 SLP206 T02170067 PNO $
KABI 012152Z 02005KT 10SM SCT065 32/14 A3005 RMK AO2 SLP150 T03170144
KABQ 012152Z 08012G20KT 10SM SCT055 SCT250 26/13 A3021 RMK AO2 LTG DSNT NE SLP153 VIRGA NE-E T02610133
KABR 012153Z AUTO 11006KT 10SM CLR 29/11 A3006 RMK AO2 SLP176 T02890111
KABY 012153Z 02007KT 10SM FEW033 SCT070 29/21 A2998 RMK AO2 SLP149 T02940211
KACB 012215Z AUTO 00000KT 10SM SCT080 26/14 A3005 RMK AO2 T02570137
KACJ 012215Z AUTO 03008KT 10SM BKN100 26/21 A3000 RMK AO2 LTG DSNT E
KACK 012153Z 18004KT 10SM CLR 21/17 A3024 RMK AO2 SLP240 T02110167
KACP 012215Z AUTO 23005KT 10SM CLR 31/23 A2990 RMK AO2 LTG DSNT S T03070230
KACQ 012216Z AUTO 00000KT 10SM CLR 26/13 A3009 RMK AO2
KACT 012151Z 01011KT 10SM OVC049 28/18 A3000 RMK AO2 SLP153 T02780183
KACV 012213Z AUTO 32007KT 10SM SCT005 16/12 A2999 RMK AO2 T01610117
KACY 012154Z 12004KT 10SM FEW045 SCT090 BKN110 23/17 A3019 RMK AO2 SLP223 T02330172
KADC 012215Z AUTO 35003KT 10SM CLR 27/13 A3006 RMK AO2
KADF 012156Z AUTO VRB03KT 8SM FEW012 OVC047 23/21 A3004 RMK AO2 T02270211 SLP186
KADG 012217Z AUTO 17007KT 8SM CLR 24/18 A3009 RMK AO2 LTG DSNT SE T02390178
KADH 012215Z AUTO 11004KT 10SM BKN033 26/20 A3006 RMK AO2
KADM 012155Z 02003KT 10SM SCT035 OVC041 27/19 A3005
KADS 012151Z 09007KT 13SM BKN037 26/18 A3004
KADU 012215Z AUTO 00000KT 10SM CLR 29/18 A3010 RMK AO2
KADW 012158Z AUTO 13006KT 10SM FEW034 OVC100 23/19 A3016 RMK AO2 SLP218 T02300185 $
KAEG 012150Z 20005KT 10SM BKN080 24/12 A3024 RMK TCU NE-SE
KAEJ 012155Z AUTO 30007KT 4SM RA SCT029 BKN042 OVC050 12/09 A3049 RMK AO2 LTG DSNT N AND S T01190094
KAEL 012214Z AUTO 32003KT 10SM CLR 27/12 A3008 RMK AO2
KAEX 012200Z 01006KT 7SM SCT020 BKN026 OVC032 27/24 A2990 RMK AO2 T02720239
KAFF 012158Z AUTO 18009KT 10SM FEW130 SCT190 20/08 A3034 RMK AO2 SLP206 T02010083
KAFJ 012215Z AUTO 12009KT 10SM SCT050 BKN090 OVC110 24/17 A3011 RMK AO1
KAFK 012215Z AUTO 10007KT 10SM CLR 28/14 A3008 RMK AO2 T02750140
KAFN 012152Z AUTO 22003KT 10SM CLR 24/18 A3021 RMK AO2 SLP231 T02390178
KAFO 012215Z AUTO 16007G14KT 10SM CLR 26/05 A3026 RMK AO2
KAFP 012215Z AUTO 02006KT 10SM BKN008 OVC011 22/20 A3005 RMK AO2 T02160202
KAFW 012153Z 05007G14KT 10SM SCT035 BKN049 BKN300 28/18 A3002 RMK AO2 SLP155 T02830178
KAGC 012153Z 15008KT 9SM CLR 24/16 A3010 RMK AO2 SLP192 T02440161
KAGS 012153Z 36011KT 10SM SCT050 26/21 A3001 RMK AO2 SLP161 T02610206
KAHN 012151Z 08006KT 10SM BKN023 26/18 A3005 RMK AO2 SLP171 T02610183
KAHQ 012215Z AUTO 09007KT 10SM CLR 28/16 A3008 RMK AO2 T02830163
KAIA 012153Z AUTO 13007KT 10SM CLR 30/03 A3014 RMK AO2 SLP170 T03000028
KAIB 012215Z AUTO 05010G15KT 10SM CLR 29/06 A3023 RMK AO2 LTG DSNT SW
KAID 011950Z 00000KT 10FT SCT050 28/13 A3009
KAIG 012215Z AUTO 00000KT 10SM SCT050 SCT060 BKN070 23/15 A3007 RMK AO2 T02320147
KAIK 012235Z AUTO 35008KT 10SM OVC010 22/22 A3007 RMK AO2 LTG DSNT E AND SE PNO
KAIO 012215Z AUTO 34008KT 10SM CLR 27/17 A3007 RMK AO2
KAIT 012214Z AUTO 32004KT 10SM CLR 28/14 A3004 RMK AO2
KAIZ 012215Z AUTO 36004KT 10SM 28/17 A3005 RMK AO1
KAJG 012215Z AUTO 00000KT 10SM CLR 29/16 A3004 RMK AO2
KAJO 012156Z AUTO 28011G17KT 10SM CLR 33/19 A2985 RMK AO2 T03330188 SLP099 $
KAJZ 012215Z AUTO 01008KT 7SM VCTS SCT075 26/08 A3019 RMK AO2 LTG DSNT NE T02630084
KAKH 012154Z AUTO 36007KT 4SM -RA BR OVC010 19/17 A3009 RMK AO2 RAB24 CIG 007V012 SLP184 P0000 T01940172
KAKO 012153Z AUTO 09005KT 10SM CLR 28/06 A3021 RMK AO2 SLP175 T02780056
KAKQ 012213Z AUTO 00000KT 2SM +RA BR SCT060 OVC075 21/18 A3013 RMK AO2 P0004 T02060183 TSNO
KAKR 012154Z AUTO 10003KT 10SM CLR 27/13 A3009 RMK AO2 SLP183 T02720128
KALB 012151Z 18010KT 10SM FEW050CB OVC250 27/18 A3014 RMK AO2 SLP205 CB W-NW MOV NE T02720183 $
KALI 012153Z AUTO 12008KT 10SM SCT060 SCT110 36/21 A2986 RMK AO2 SLP109 T03610211
KALK 012156Z AUTO 13007KT 10SM CLR 27/15 A3016 RMK AO2 SLP119 T02720150 TSNO
KALM 012215Z AUTO 18007KT 10SM FEW032 SCT065 BKN100 23/17 A3016 RMK AO2 LTG DSNT ALQDS
KALN 012145Z VRB04KT 10SM BKN090 25/19 A3006
KALO 012154Z VRB06KT 10SM CLR 28/14 A3005 RMK AO2 SLP173 T02780139
KALS 012207Z AUTO 28009KT 10SM OVC090 17/10 A3034 RMK AO2 LTG DSNT E AND S RAB2157E07 P0000 T01670100
KALW 012153Z VRB04KT 10SM CLR 37/09 A2991 RMK AO2 SLP115 T03670089
KALX 012215Z AUTO 09004KT 10SM CLR 29/20 A3001 RMK AO2 T02850200
KAMA 012153Z 09013G18KT 10SM CLR 29/09 A3016 RMK AO2 SLP165 T02890089
KAMG 012217Z AUTO 30015G19KT 1 1/2SM TSRA BR FEW005 BKN016 OVC030 23/22 A2999 RMK AO2 LTG DSNT N-SE TSB12 P0011 T02330222
KAMN 012215Z AUTO 17005KT 10SM CLR 23/12 A3009 RMK AO2 T02250124
KAMW 012153Z AUTO VRB03KT 10SM FEW060 28/14 A3007 RMK AO2 SLP177 T02780144
KANB 012153Z AUTO 00000KT 10SM FEW090 30/18 A3000 RMK AO2 SLP151 T03000178
KAND 012156Z AUTO 06013G19KT 10SM FEW022 23/17 A3007 RMK AO2 SLP175 T02330167
KANE 012145Z 00000KT 10SM SCT070 28/14 3004
KANJ 012155Z AUTO 31007KT 10SM CLR 22/09 A3008 RMK AO2 SLP183 T02220094
KANK 012215Z AUTO 34017G24KT 3SM SCT023 BKN032 OVC037 13/11 A3051 RMK AO1 T01310111
KANQ 012235Z AUTO 29003KT 10SM SCT110 25/16 A3008 RMK
KANW 012215Z AUTO 09011KT 10SM CLR 31/13 A3008 RMK AO2 T03060129
KAOH 012153Z AUTO VRB03KT 8SM FEW055 28/14 A3007 RMK AO2 SLP177 T02780139
KAOO 012153Z AUTO 19008KT 10SM CLR 25/16 A3016 RMK AO2 SLP206 T02500156
KAPA 012153Z 17008KT 10SM FEW080 SCT120 BKN200 24/05 A3029 RMK AO2 SLP197 T02390050
KAPC 012154Z 21010KT 10SM CLR 27/16 A2987 RMK AO2 SLP107 T02670161
KAPF 012153Z 28008KT 10SM FEW035 32/23 A2992 RMK AO2 SLP130 T03170228
KAPG 012155Z 19004KT 7SM SCT030 OVC120 26/20 A3017
KAPN 012154Z AUTO 08007KT 10SM CLR 24/13 A3008 RMK AO2 SLP185 T02440128
KAPY 012215Z AUTO 05006KT 7SM VCTS SCT070 37/17 A2985 RMK AO2 LTG DSNT W T03780172
KAQO 012215Z AUTO 06007G17KT 10SM CLR 32/16 A3002 RMK AO2 PWINO
KAQP 012214Z AUTO 33005KT 10SM CLR 30/11 A3006 RMK AO2
KAQR 012215Z AUTO 00000KT 10SM SCT026 SCT033 OVC049 27/23 A3005 RMK AO2
KAQV 012221Z AUTO VRB05KT 10SM FEW019 BKN026 27/23 A2992 RMK AO2 T02670228
KAQW 012152Z AUTO 00000KT 10SM FEW046 26/18 A3016 RMK AO2 LTG DSNT NW SLP213 T02560183
KARA 012153Z 18009KT 10SM FEW029 FEW060 29/23 A2994 RMK AO2 SLP136 T02940233
KARB 012153Z AUTO 22005KT 10SM CLR 27/15 A3007 RMK AO2 LTG DSNT S SLP180 T02670150
KARG 012215Z AUTO 00000KT 10SM SCT065 27/09 A3003 RMK AO1
KARM 012215Z AUTO 01004KT 10SM SCT042 SCT085 31/22 A2993 RMK AO2 T03100221
KARR 012217Z 12012KT 6SM -TSRA FEW033 SCT048 SCT110 23/16 A3007 RMK AO2 LTG DSNT NE AND SE AND NW RAB12 TSB11 P0000 T02280156
KART 012156Z AUTO 26004KT 10SM CLR 26/16 A3012 RMK AO2 SLP193 T02610156
KARV 012210Z AUTO 35005KT 10SM BKN060 26/11 A3009 RMK AO2 T02570106
KARW 012215Z AUTO 00000KT 10SM SCT090 27/24 A2998 RMK AO2 LTG DSNT S THRU NW
KASD 012153Z AUTO 05006KT 8SM CLR 29/21 A2997 RMK AO2 SLP147 T02890211
KASE 012153Z VRB03KT 10SM SCT045 18/08 A3037 RMK AO2 SLP177 T01830083
KASG 012148Z 04003KT 10SM FEW043 27/17 A3009
KASH 012151Z 18006KT 10SM SCT049 SCT065 25/18 A3020 RMK AO2 T02500183 LTG DSNT E AND S SLP471
KASJ 012215Z AUTO 04005KT 10SM SCT008 OVC027 19/18 A3009 RMK AO2 T01920180
KASL 012215Z AUTO 01004KT 10SM SCT015 BKN022 OVC027 24/22 A3001 RMK AO1 T02440215
KASN 012215Z AUTO 00000KT 10SM CLR 31/21 A3000 RMK AO2 T03120205
KAST 012155Z AUTO 28007KT 10SM CLR 22/15 A3001 RMK AO2 SLP163 T02170150
KASW 012215Z AUTO 00000KT 10SM CLR 24/13 A3008 RMK AO2
KASX 012153Z AUTO 34006KT 10SM CLR 24/17 A3007 RMK AO2 SLP183 T02390172
KATL 012152Z 09008KT 10SM SCT028 BKN035 26/19 A3004 RMK AO2 SLP163 T02560194
KATP 012215Z AUTO 36004KT 8SM FEW032 FEW038 29/22 A2998 RMK A01
KATS 012215Z AUTO 19004KT 10SM BKN075 22/18 A3017 RMK AO2
KATT 012151Z AUTO VRB06KT 10SM SCT050 32/18 A2998 RMK AO2 SLP138 T03170183
KATW 012145Z 23007KT 7SM BKN080 OVC120 21/13 A3006
KATY 012153Z AUTO 20004KT 10SM SCT065 28/12 A3009 RMK AO2 SLP180 T02780122
KAUG 012153Z AUTO 18006G16KT 10SM CLR 23/18 A3020 RMK AO2 SLP225 T02330183
KAUH 012215Z AUTO 04006KT 10SM CLR 28/16 A3010 RMK AO2 T02750160
KAUM 012215Z AUTO 30007KT 10SM SCT060 27/13 A3008 RMK AO2
KAUN 012215Z AUTO 21005KT 10SM CLR 38/06 A2991 RMK AO1
KAUO 012215Z 06004KT 10SM SCT026 26/19 A3005 RMK AO1
KAUS 012153Z AUTO 02011G19KT 10SM FEW050 SCT150 32/18 A2996 RMK AO2 SLP133 T03220183
KAUW 012154Z AUTO VRB03KT 7SM CLR 22/17 A3005 RMK AO2 LTG DSNT S SLP177 P0001 T02170172
KAVC 012215Z AUTO 00000KT 7SM SCT016 BKN075 BKN090 19/19 A3016 RMK AO2 P0001
KAVK 012215Z AUTO 07005KT 10SM SCT075 32/15 A3004 RMK AO2
KAVL 012154Z AUTO VRB03KT 10SM OVC044 22/16 A3013 RMK AO2 SLP182 T02170156
KAVP 012154Z 09003KT 8SM CLR 22/19 A3016 RMK AO2 RAB17E33 SLP206 P0001 T02220189
KAVX 012151Z AUTO 23008KT 10SM CLR 24/16 A2994 RMK AO2 SLP118 T02390156 $
KAWG 012215Z AUTO 35006KT 10SM SCT050 SCT060 SCT080 27/18 A3005 RMK AO2
KAWM 012153Z AUTO 01006KT 10SM OVC080 28/19 A3001 RMK AO2 SLP156 T02830189 $
KAWO 012215Z AUTO 16008KT 10SM CLR 26/15 A3002 RMK AO1
KAXA 012215Z AUTO 02004KT 10SM SCT050 SCT060 27/16 A3008 RMK AO2
KAXH 012215Z AUTO 33009KT 10SM 31/21 A2993 RMK AO2 T03100211
KAXN 012153Z AUTO 30008KT 10SM CLR 27/13 A3009 RMK AO2 SLP184 T02720128
KAXO 012209Z 00000KT 7SM BKN040 OVC070 30/24 A2996 LAST
KAXS 012215Z AUTO 22005KT 10SM CLR 29/16 A3008 RMK AO2 T02900157
KAXV 012212Z AUTO 00000KT 10SM CLR 27/12 A3008 RMK AO2
KAXX 012215Z AUTO 19004KT 10SM CLR 15/12 A3044 RMK AO2 T01510116
KAYS 012215Z AUTO 05007KT 10SM SCT045 BKN060 BKN080 29/24 A2996 RMK AO2 T02920239
KAZC 012215Z AUTO 26010G17KT 10SM CLR 35/08 A3013 RMK AO2 T03500080
KAZE 012215Z AUTO 00000KT 7SM -TSRA SCT035 SCT044 BKN050 26/25 A2997 RMK AO2 LTG DSNT S THRU N T02550249
KAZO 012153Z 34008KT 10SM -RA SCT033 OVC110 20/14 A3009 RMK AO2 RAB28 TSB2055E16B17E48 SLP188 P0000 T02000144
KBAB 012158Z AUTO VRB06KT 10SM CLR 40/10 A2980 RMK AO2 SLP164 T03970099 $
KBAC 012215Z AUTO 04007KT 10SM BKN050 27/15 A3008 RMK AO2
KBAD 012218Z AUTO 04005KT 10SM BKN007 OVC016 22/20 A2998 RMK AO2 CIG 007V015 BKN V SCT
KBAF 012225Z 17016G25KT 2 1/2SM +RA SCT018 BKN034 OVC080 22/18 A3018 RMK AO2 LTG DSNT N AND SW RAB18 P0004 T02170183
KBAK 012145Z 00000KT 10SM SKC 27/16 A3005
KBAN 012152Z AUTO 20007G17KT CLR 29/01 A3025 RMK AO2 SLP133 T02890011 $
KBAX 012215Z AUTO 07004KT 10SM CLR 24/19 A3009 RMK AO2 T02430191
KBAZ 012151Z VRB05G15KT 10SM SCT060 33/18 A2994 RMK AO2 SLP127 T03330183
KBBB 012213Z AUTO 33003KT 10SM CLR 28/16 A3006 RMK AO2
KBBD 012215Z AUTO 06007KT 10SM CLR 30/14 A3003 RMK
KBBF 012215Z AUTO 00000KT 5SM HZ CLR 32/25 A2992 RMK A01
KBBG 012151Z 12006KT 10SM SCT040 30/17 A3008
KBBP 012215Z AUTO 01007KT 10SM SCT012 SCT024 25/18 A3002 RMK AO2
KBBW 012153Z AUTO 12008KT 10SM FEW070 31/15 A3010 RMK AO2 SLP172 T03110150
KBCB 012215Z AUTO 08007KT 10SM DZ SCT049 18/18 A3021 RMK AO2
KBCE 012153Z AUTO 28014G21KT 10SM CLR 26/06 A3033 RMK AO2 SLP150 T02610061
KBCK 012215Z AUTO 27005KT 10SM CLR 27/15 A3004 RMK AO2 LTG DSNT SE T02680149
KBCT 012153Z 10010KT 10SM FEW030 SCT090 31/24 A2994 RMK LTG DSNT SW AND W
KBDE 012153Z AUTO VRB04KT 10SM CLR 26/09 A3008 RMK AO2 SLP186 T02560094 TSNO
KBDH 012215Z AUTO 25003KT 10SM CLR 28/13 A3008 RMK AO2 LTG DSNT E
KBDL 012151Z 18013G20KT 10SM FEW025 BKN032 BKN065 BKN130 24/19 A3019 RMK AO2 RAE25 TSE45 SLP220 OCNL LTGCG DSNT N CB DSNT N P0031 T02440194
KBDN 012215Z AUTO 21004KT 10SM CLR 33/05 A3005 RMK AO2
KBDR 012152Z 21007KT 10SM FEW120 25/21 A3022 RMK AO2 SLP233 T02500206
KBDU 012215Z AUTO 10003KT 10SM SCT100 25/05 A3024 RMK AO2 LTG DSNT W
KBEA 012215Z AUTO 17008KT 5SM TSHZ SCT095 31/22 A2990 RMK AO2 LTG DSNT E THRU SW T03050217
KBED 012204Z 19009KT 4SM R11/5000VP6000FT +RA BR BKN047 BKN075 OVC090 19/18 A3021 RMK AO2 P0008 T01890183
KBEH 012153Z AUTO 23007KT 10SM CLR 25/15 A3007 RMK AO2 SLP180 T02500150
KBFD 012153Z AUTO 00000KT 10SM CLR 25/13 A3015 RMK AO2 SLP201 T02500128
KBFF 012153Z AUTO 09008KT 10SM CLR 32/03 A3015 RMK AO2 SLP166 T03170033
KBFI 012153Z 35009G16KT 10SM SCT090 BKN110 27/11 A2996 RMK AO2 PRESFR SLP144 T02670111
KBFL 012154Z 32011KT 10SM CLR 41/06 A2981 RMK AO2 SLP086 T04060056
KBFM 012153Z 00000KT 10SM CLR 28/22 A2999 RMK AO2 SLP156 T02830217
KBFW 012214Z AUTO 14003KT 10SM CLR 21/13 A3006 RMK AO2
KBGD 012151Z AUTO 08005KT 10SM FEW075 30/10 A3014 RMK AO2 SLP166 T03000100
KBGE 012215Z AUTO 33004KT 10SM CLR 35/20 A2994 RMK AO2
KBGF 012215Z AUTO 16008KT 7SM FEW014 SCT030 BKN044 21/19 A3005 RMK
KBGM 012153Z 17004KT 10SM SCT055 26/16 A3016 RMK AO2 SLP204 T02560156 $
KBGR 012153Z 17010KT 10SM FEW075 FEW100 SCT250 23/17 A3019 RMK AO2 SLP221 T02330172
KBHB 012215Z 21011KT 10SM CLR 21/19 A3021 RMK AO1
KBHC 012215Z AUTO 36005KT 3SM -TSRA SCT006 SCT060 OVC090 26/25 A2997 RMK AO2 LTG DSNT ALQS
KBHK 012151Z AUTO 03008KT 10SM CLR 34/08 A3007 RMK AO2 SLP158 T03390078
KBHM 012153Z VRB03KT 10SM FEW050 BKN150 30/17 A3001 RMK AO2 SLP154 T03000172
KBID 012215Z AUTO 20006KT 10SM FEW110 23/19 A3025 RMK AO1
KBIE 012215Z AUTO 08009KT 10SM CLR 29/18 A3005 RMK AO2 T02850184
KBIF 012156Z 13007KT 5SM SHRA FEW030 SCT040 BKN050 21/19 A3018 RMK AO2A SLP168 P0016 T02080187
KBIH 012156Z AUTO 18008KT 140V220 10SM CLR 36/03 A3000 RMK AO2 SLP101 T03610028
KBIJ 012215Z AUTO 00000KT 10SM BKN050 OVC070 30/22 A2996 RMK AO2
KBIL 012153Z 00000KT 10SM SCT120 SCT220 33/01 A3012 RMK AO2 WSHFT 2116 SLP157 CB DSNT SE SW NW T03330011
KBIS 012152Z 07009KT 7SM FEW070 SCT085 30/14 A3004 RMK AO2 SLP165 T03000139
KBIV 012153Z AUTO 24008KT 10SM CLR 27/16 A3009 RMK AO2 SLP185 T02670161
KBIX 012158Z AUTO 00000KT 10SM FEW150 29/19 A2998 RMK AO2 SLP155 T02850191
KBJC 012147Z 08003KT 40SM SCT070 BKN120 27/04 A3028
KBJI 012210Z AUTO 34007KT 10SM CLR 26/12 A3007 RMK AO2 T02550121
KBJJ 012156Z AUTO 00000KT 9SM SCT110 26/18 A3009 RMK AO2 SLP186 T02610178 TSNO
KBKB 012154Z AUTO VRB04KT 10SM SCT033 SCT043 31/22 A2989 RMK AO2 SLP147 T03060217
KBKD 012215Z AUTO 08008KT 5SM HZ SCT060 31/13 A3003 RMK AO2 T03140131
KBKE 012153Z AUTO 03003KT 10SM CLR 32/07 A3006 RMK AO2 SLP150 T03220072 TSNO
KBKF 012158Z 16007G15KT 10SM FEW080 BKN180 25/08 A3028 RMK AO2A SLP188 T02450079
KBKL 012153Z 03005KT 10SM CLR 26/18 A3007 RMK AO2 SLP178 T02560183
KBKN 012215Z AUTO 16009KT 10SM CLR 29/20 A3002 RMK AO2
KBKS 012215Z AUTO 08007KT 10SM CLR 30/17 A2987 RMK AO1 T03010171
KBKV 012153Z AUTO 31008KT 10SM CLR 32/19 A2995 RMK AO2 SLP140 T03220189
KBKW 012151Z AUTO 17009KT 10SM CLR 22/13 A3016 RMK AO2 SLP187 T02220133 TSNO
KBLF 012152Z AUTO 13007KT 10SM BKN021 BKN026 OVC110 21/14 A3019 RMK AO2 SLP194 T02060139
KBLH 012152Z AUTO A2979 RMK AO2 SLPNO PWINO $
KBLI 012153Z 25005KT 10SM CLR 26/14 A3001 RMK AO2 SLP167 T02610139
KBLM 012215Z AUTO 16003KT 10SM FEW095 FEW120 23/18 A3020 RMK AO1
KBLU 012152Z AUTO 23007G15KT 10SM CLR 28/M04 A3022 RMK AO2 SLP110 T02831039
KBLV 012158Z AUTO 29005KT 10SM FEW095 28/18 A3004 RMK AO2 SLP172 T02780182 $
KBMG 012153Z 17003KT 10SM CLR 27/17 A3006 RMK AO2 RAB27E37 SLP174 P0000 T02670167
KBMI 012156Z 27003KT 10SM VCTS CLR 21/17 A3010 RMK AO2 T02050166 TSB09RAB01E19 P0000 SLP187
KBML 012152Z AUTO 19005KT 9SM FEW090 26/15 A3017 RMK AO2 SLP217 T02610150
KBMQ 012153Z AUTO 05010G16KT 10SM FEW044 29/17 A3004 RMK AO2 SLP154 T02940167
KBMT 012215Z AUTO 31008KT 10SM OVC050 28/23 A2993 RMK AO2 LTG DSNT E AND SE T02810229
KBNA 012153Z 00000KT 10SM FEW060 BKN095 BKN150 29/14 A3002 RMK AO2 SLP159 T02940139
KBNL 012215Z AUTO 36006KT 10SM CLR 30/20 A2999 RMK AO2 LTG DSNT E AND S
KBNO 012153Z AUTO 03007KT 10SM CLR 33/06 A3011 RMK AO2 SLP151 T03280056
KBNW 012215Z AUTO 00000KT 10SM CLR 26/15 A3008 RMK AO2
KBOI 012153Z 34006KT 10SM CLR 36/08 A3000 RMK AO2 SLP125 T03560078
KBOK 012156Z AUTO 17007KT 9SM CLR 18/13 A2997 RMK AO2 T01830133 SLP150
KBOS 012154Z 19012KT 10SM FEW026 SCT046 BKN055 BKN150 BKN250 26/17 A3020
KBOW 012215Z AUTO 02006KT 10SM FEW075 33/20 A2994 RMK AO2 LTG DSNT E AND SE
KBPC 012215Z AUTO 10SM SCT075 30/11 A3012 RMK AO2
KBPG 012215Z AUTO 01005KT 10SM CLR 30/10 A3009 RMK AO2 T03030102
KBPI 012153Z AUTO 26006KT 10SM CLR 26/M01 A3033 RMK AO2 SLP175 T02611006
KBPK 012153Z AUTO 15004KT 8SM SCT032 24/19 A3006 RMK AO2 SLP170 T02440189
KBPT 012153Z 31009G26KT 10SM OVC060 29/23 A2991 RMK AO2 PK WND 31026/2147 LTG DSNT SE SLP129 T02940228
KBQK 012215Z AUTO 09011KT 10SM SCT020 SCT025 BKN038 30/23 A2995 RMK AO1 LTG DSNT SE AND NW
KBQP 012215Z AUTO 06006KT 2 1/2SM -DZ OVC004 20/20 A2999 RMK AO2 T02020197
KBQX 012215Z AUTO 20006KT 9SM CLR 29/25 A2993 RMK A01
KBRD 012153Z AUTO 01003KT 7SM FEW044 26/15 A3006 RMK AO2 SLP177 T02610150
KBRL 012153Z AUTO 00000KT 10SM CLR 27/17 A3004 RMK AO2 LTG DSNT SW SLP169 T02670167
KBRO 012153Z 13013G20KT 10SM FEW037 34/23 A2989 RMK AO2 SLP121 T03390233
KBTA 012215Z AUTO 07006KT 10SM CLR 27/15 A3008 RMK AO2 T02700154
KBTL 012153Z 29009KT 10SM CLR 23/16 A3009 RMK AO2 LTG DSNT NE SLP185 T02330156
KBTM 012153Z AUTO 15006KT 10SM FEW110 29/00 A3022 RMK AO2 SLP176 T02890000
KBTP 012215Z AUTO 13008KT 10SM VCTS SCT055 26/16 A3012 RMK AO1 LTG DSNT SW TSB10
KBTR 012153Z 12006KT 10SM SCT070 BKN090 26/23 A2996 RMK AO2 SLP144 T02610228 $
KBTV 012154Z 19008KT 10SM FEW050 SCT085 BKN110 27/15 A3012 RMK AO2 SLP197 T02670150
KBUF 012154Z 24007KT 10SM FEW210 26/13 A3010 RMK AO2 SLP190 T02610133
KBUR 012153Z 12009G15KT 10SM CLR 32/17 A2987 RMK AO2 SLP100 T03170167
KBUU 012215Z AUTO 00000KT 10SM CLR 27/12 A3004 RMK AO2 T02670119
KBUY 012222Z AUTO 05004KT 4SM -RA BR BKN005 OVC010 19/18 A3010 RMK AO2 CIG 004V008 P0001 T01940178
KBVE 012151Z AUTO 06004KT 9SM CLR 29/21 A2999 RMK AO2 SLP154 T02940211
KBVI 012147Z 16005KT 10SM SCT055 27/12 A3010
KBVN 012215Z AUTO 08005KT 10SM CLR 27/12 A3011 RMK AO2 T02740122
KBVO 012153Z AUTO 12003KT 10SM BKN046 28/17 A3006 RMK AO2 SLP169 T02830172
KBVS 012155Z AUTO 26004KT 8SM CLR 26/15 A3003 RMK A01 P000
KBVU 012215Z 15014KT 10SM CLR 40/11 A2989 RMK AO2 RWY 9L/27R CLSD. USE CAUTION FOR HELICOPTER TRAFFIC CROSSING RWYS AND TWYS.
KBVX 012215Z AUTO 00000KT 9SM BKN070 27/19 A3005 RMK AO1
KBVY 012224Z AUTO 08006KT 8SM -RA BKN028 BKN041 OVC070 22/18 A3021 RMK AO2 LTG DSNT SW RAB13 P0000 T02220183
KBWD 012215Z AUTO 02007KT 10SM FEW060 30/14 A3002 RMK AO2
KBWG 012153Z AUTO 04007KT 10SM CLR 30/11 A3002 RMK AO2 SLP161 T03000111
KBWI 012154Z 17004KT 10SM FEW038 SCT070 BKN130 OVC250 25/17 A3016 RMK AO2 SLP213 T02500172
KBWP 012210Z AUTO 02006KT 10SM SCT050 BKN060 BKN075 27/14 A3006 RMK AO1
KBXA 012215Z AUTO 00000KT 10SM CLR 27/21 A3000 RMK AO2 T02720212
KBXK 012215Z AUTO 19003KT 10SM CLR 33/18 A2989 RMK AO1
KBYG 012153Z AUTO 25021G28KT 10SM CLR 25/06 A3025 RMK AO2 PK WND 26032/2107 SLP186 T02500056 $
KBYH 011850Z 08004KT 10SM SCT040 BKN090 28/16 A3006
KBYI 012153Z AUTO VRB04KT 10SM CLR 32/05 A3009 RMK AO2 SLP141 T03170050
KBYS 012155Z AUTO 09008G17KT 10SM CLR 38/06 A2992 RMK AO2 SLP063 T03840062 $
KBYY 012215Z AUTO 21004KT 10SM SCT041 SCT048 OVC055 28/23 A2993 RMK AO2 T02850237
KBZN 012223Z 12013G20KT 10SM FEW120 31/04 A3014 RMK AO2 LTG DSNT SE T03110044
KC09 012215Z AUTO 00000KT 10SM CLR 28/17 A3006 RMK AO2 LTG DSNT N E AND S T02750168
KC29 012215Z AUTO 29006KT 10SM CLR 29/11 A3005 RMK AO1 T02860114
KC35 012215Z AUTO 28008KT 10SM CLR 28/15 A3006 RMK AO2 T02800147
KC75 012215Z AUTO 19005KT 10SM CLR 22/14 A3005 RMK AO2 LTG DSNT SE THRU W T02240142
KCAD 012214Z AUTO 23007KT 10SM CLR 23/16 A3008 RMK AO2 T02390169
KCAE 012156Z 34006KT 10SM BKN015 26/21 A3002 RMK AO2 SLP161 T02560206
KCAG 012153Z AUTO 06004KT 10SM CLR 25/06 A3022 RMK AO2 SLP161 T02500056
KCAK 012151Z 05004KT 10SM SCT095 SCT250 27/15 A3010 RMK AO2 SLP184 T02670150
KCAO 012155Z AUTO 15008KT 10SM SCT060 24/09 A3024 RMK AO2 SLP179 T02440094
KCAR 012154Z AUTO 19006KT 10SM SCT070 BKN095 24/14 A3014 RMK AO2 SLP209 T02440144
KCAV 012215Z AUTO 00000KT 10SM CLR 27/14 A3008 RMK AO2
KCBE 012221Z AUTO 00000KT 10SM SCT044 25/16 A3018 RMK AO1
KCBF 012215Z AUTO 08004KT 10SM FEW060 27/18 A3008 RMK AO2
KCBG 012215Z AUTO 00000KT 10SM SCT060 24/17 A3004 RMK AO2 LTG DSNT W
KCBK 012215Z AUTO 11008KT 1 3/4SM HZ SCT100 30/10 A3014 RMK AO2
KCBM 012158Z AUTO 26004KT 10SM BKN100 27/21 A2999 RMK AO2 SLP157 T02700207 $
KCCA 012215Z AUTO 10004KT 10SM SCT032 BKN055 26/21 A3005 RMK AO2
KCCO 012215Z AUTO 13009KT 10SM SCT025 SCT030 27/22 A3003 RMK AO2 T02660220
KCCR 012153Z 32010KT 10SM CLR 35/11 A2984 RMK AO2 SLP092 T03500111
KCCU 012212Z AUTO 27005KT 10SM VCTS SCT015 SCT035 SCT050 12/07 A3066 RMK AO2 LTG DSNT E
KCCY 012215Z AUTO 34003KT 10SM CLR 26/15 A3008 RMK AO2
KCDA 012215Z AUTO 24/15 RMK AO2 T02420149 PWINO
KCDC 012153Z AUTO 01007KT 10SM CLR 31/06 A3018 RMK AO2 SLP139 T03060056
KCDD 012213Z AUTO 34004KT 10SM CLR 24/07 A3008 RMK AO2
KCDH 012215Z AUTO 08007KT 3/4SM RA BKN005 OVC012 20/18 A3003 RMK AO2
KCDJ 012152Z AUTO 00000KT 29/14 A3007 RMK AO1 SLP169 T02890139
KCDN 012215Z AUTO 01005KT 9SM FEW008 24/21 A3003 RMK AO2 TSNO
KCDR 012153Z AUTO 26011KT 10SM CLR 35/03 A3007 RMK AO2 SLP154 T03500028
KCDS 012153Z AUTO VRB04KT 10SM CLR 29/14 A3010 RMK AO2 SLP167 T02890139
KCDW 012153Z 00000KT 8SM OVC110 22/19 A3021 RMK AO2 SLP232 T02220189
KCEC 012156Z AUTO 21007KT 170V230 10SM OVC007 16/13 A2998 RMK AO2 SLP154 T01560128
KCEF 012158Z 18010KT 10SM VCTS SCT040 BKN100 OVC200 25/18 A3018 RMK AO2A LTG DSNT SW SLP225 T02470184
KCEU 012154Z AUTO 07007KT 10SM FEW024 25/17 A3008 RMK AO2 SLP177 T02500167
KCEW 012153Z AUTO 01004KT 10SM CLR 31/19 A2998 RMK AO2 SLP148 T03110189
KCEY 012215Z AUTO 27004KT 10SM CLR 29/15 A3003 RMK AO1
KCEZ 012224Z AUTO 03015G24KT 10SM VCTS BKN085 27/08 A3018 RMK AO2 LTG DSNT N-SE T02670078
KCFD 012215Z AUTO 01009KT 10SM OVC060 26/21 A2998 RMK AO2 T02600205
KCFE 012215Z AUTO 03003KT 10SM -RA SCT038 SCT050 BKN095 25/18 A3005 RMK AO2 LTG DSNT N P0001 T02500184
KCFS 012215Z AUTO 00000KT 10SM CLR 26/18 A3008 RMK AO2 T02550178
KCFV 012152Z AUTO 25006KT 10SM CLR 29/17 A3005 RMK AO2 SLP168 T02890167
KCGC 012215Z AUTO 29006KT 10SM CLR 30/20 A2995 RMK AO2 PWINO
KCGE 012221Z AUTO 09003KT 10SM CLR 23/18 A3015 RMK AO1
KCGF 012145Z 03008KT 10SM FEW035 SCT150 27/18 A3010
KCGI 012153Z AUTO 00000KT 10SM CLR 28/17 A3003 RMK AO2 SLP164 T02830172
KCGS 012220Z AUTO 15004KT 10SM SCT034 BKN050 OVC070 25/17 A3016 RMK AO1
KCGZ 012215Z AUTO 20005KT 10SM CLR 33/16 A2992 RMK AO1
KCHA 012153Z 31006KT 10SM SCT045 SCT060 BKN095 BKN150 30/17 A3001 RMK AO2 SLP155 T03000167
KCHD 012147Z 23010KT 30SM SCT120 BKN200 34/19 A2990
KCHK 012215Z AUTO 13005KT 10SM SCT050 30/18 A3005 RMK AO2
KCHO 012153Z 12005KT 10SM SCT025 23/17 A3016 RMK AO2 SLP207 T02330167
KCHS 012156Z 13006KT 10SM FEW020 SCT050 BKN150 29/23 A2998 RMK AO2 SLP151 T02890228
KCIC 012147Z 15010KT 25SM FEW100 SCT200 39/09 A2981
KCID 012152Z 00000KT 10SM SCT060 27/16 A3005 RMK AO2 RAB03E14 SLP171 P0000 T02670161
KCIN 012215Z AUTO 04005KT 10SM FEW048 27/16 A3009 RMK AO2
KCIR 012215Z AUTO 00000KT 10SM CLR 30/18 A3003 RMK AO2 LTG DSNT N T03020184
KCIU 012215Z AUTO 34008KT 10SM BKN060 22/11 A3009 RMK AO1
KCJR 012215Z AUTO 00000KT 10SM SCT029 A3016 RMK AO2
KCKB 012153Z 24003KT 10SM SCT110 25/17 A3011 RMK AO2 SLP183 T02500172 $
KCKC 012213Z AUTO 14003KT 10SM CLR 19/10 A3011 RMK AO2
KCKF 012215Z AUTO 05011KT 10SM SCT019 SCT110 29/23 A2999 RMK AO2 LTG DSNT E AND SE T02880226
KCKI 012215Z AUTO 00000KT 10SM CLR 28/25 A2998 RMK AO2 LTG DSNT SW AND NW
KCKM 012215Z AUTO 03004KT 10SM SCT090 SCT110 28/19 A3001 RMK AO1
KCKN 012215Z AUTO 33004KT 7SM CLR 26/15 A3008 RMK AO2
KCKP 012215Z AUTO 00000KT 10SM CLR 26/15 A3009 RMK AO2 T02560150
KCKV 012152Z AUTO VRB03KT 10SM FEW110 31/13 A3001 RMK AO2 SLP156 T03060128
KCLE 012151Z 36007KT 9SM FEW050 BKN200 26/17 A3010 RMK AO2 SLP188 T02610167
KCLI 012215Z AUTO 00000KT 10SM CLR 20/16 A3006 RMK AO2
KCLL 012153Z 03012KT 10SM BKN032 29/21 A2997 RMK AO2 SLP143 T02890206
KCLM 012153Z AUTO 00000KT 10SM CLR 21/11 A3004 RMK AO2 SLP172 T02110106
KCLS 012215Z AUTO 36007G13KT 320V030 10SM CLR 30/13 A2999 RMK AO2
KCLT 012152Z 35007KT 10SM OVC011 21/18 A3009 RMK AO2 SLP182 T02060178
KCMA 012155Z 24008KT 10SM CLR 25/17 A2989 RMK AO2 SLP130 T02500167 $
KCMD 012215Z AUTO 00000KT CLR 29/19 A3005 RMK AO2 T02860186 PWINO
KCMH 012151Z 09004KT 10SM SCT055 SCT250 29/14 A3005 RMK AO2 SLP171 T02940139
KCMI 012153Z 31004KT 10SM BKN060 23/17 A3009 RMK AO2 SLP186 T02280167
KCMR 012215Z AUTO 31020G25KT 10SM BKN060 OVC080 24/11 A3035 RMK AO1
KCMX 012153Z AUTO VRB06KT 10SM CLR 19/11 A3009 RMK AO2 SLP192 T01890111
KCMY 012215Z AUTO 26006KT 10SM CLR 28/13 A3006 RMK AO2 LTG DSNT NE AND E T02790134
KCNB 012213Z AUTO 22003KT 10SM SCT080 28/13 A3008 RMK AO2 T02820132
KCNC 012215Z AUTO 00000KT 10SM CLR 28/16 A3007 RMK AO2
KCNI 012215Z AUTO 00000KT 10SM SCT032 SCT038 BKN080 25/17 A3006 RMK AO2
KCNK 012155Z AUTO 02009G19KT 10SM CLR 30/14 A3005 RMK AO2 SLP160 T03000144
KCNM 012153Z AUTO 30006KT 10SM FEW055 OVC080 23/18 A3015 RMK AO2 RAB38E47 SLP160 P0000 T02280183
KCNO 012153Z 27011KT 10SM SCT120 35/17 A2987 RMK AO2 SLP106 TCU DSNT NE-SE T03500172
KCNU 012152Z AUTO 20008KT 10SM SCT050 28/17 A3005 RMK AO2 SLP165 T02830172
KCNW 012155Z 35011KT 10SM SCT034 OVC050 27/19 A3000
KCNY 012153Z AUTO 34008G15KT 10SM CLR 32/07 A3008 RMK AO2 LTG DSNT W SLP126 T03170072
KCOD 012215Z AUTO 36007KT 10SM VCTS CLR 27/06 A3021 RMK AO1 LTG DSNT SW TSB12
KCOE 012215Z AUTO 27003KT 10SM CLR 34/07 A2998 RMK AO1
KCOF 012158Z AUTO 31006KT 10SM FEW026 SCT043 27/23 A2996 RMK AO2 LTG DSNT SW-W SLP150 T02700229
KCOM 012215Z AUTO 03010G16KT 10SM SCT065 31/12 A3003 RMK AO2 T03110117
KCON 012151Z AUTO 13009KT 10SM CLR 23/19 A3018 RMK AO2 SLP221 T02330189
KCOQ 012216Z AUTO 00000KT 10SM VCTS CLR 24/16 A3006 RMK AO2 LTG DSNT N S AND SW
KCOS 012154Z VRB04KT 10SM FEW050 BKN130 BKN200 22/10 A3033 RMK AO2 SLP205 T02170100
KCOT 012153Z AUTO 06008KT 8SM FEW090 37/19 A2989 RMK AO2 SLP113 T03720189
KCOU 012154Z VRB04KT 10SM CLR 28/15 A3006 RMK AO2 SLP173 T02780150
KCPC 012215Z AUTO 15006KT 10SM BKN018 26/23 A3001 RMK AO2 T02620231
KCPK 012215Z AUTO 06009KT 5SM HZ BKN031 BKN038 OVC050 21/17 A3011 RMK AO2 LTG DSNT S
KCPR 012153Z 33009G15KT 10SM SCT110 28/01 A3020 RMK AO2 SLP162 T02830006
KCPS 012153Z 34010KT 10SM -RA FEW047 FEW070 BKN110 24/19 A3005 RMK AO2 SLP173 P0001 T02440194
KCPT 012215Z AUTO 05008KT 10SM BKN035 BKN043 BKN048 28/20 A3003 RMK AO2
KCQB 012215Z AUTO 12006KT 10SM SCT041 29/21 A3006 RMK AO2
KCQC 012153Z AUTO VRB06KT 10SM CLR 21/13 A3033 RMK AO2 SLP187 T02060133
KCQF 012215Z AUTO 31003KT 10SM CLR 27/21 A2998 RMK AO2
KCQM 012215Z AUTO 30004KT 10SM CLR 26/11 A3007 RMK AO2
KCQT 012147Z AUTO 30004KT 10SM CLR 28/18 A2987 RMK AO2 SLP113 T02780178
KCQW 012215Z AUTO 01008KT 10SM CLR 22/21 A3004 RMK AO2
KCQX 012152Z AUTO 17006KT 10SM CLR 22/18 A3025 RMK AO2 SLP243 T02220178
KCRE 012215Z 20011KT 10SM FEW017 SCT023 BKN033 27/22 A3000 RMK AO2 T02670222
KCRG 012153Z 14011KT 10SM CLR 31/23 A2993 RMK AO2 SLP136 T03060228
KCRH 012215Z AUTO 25005KT 10SM CLR 30/24 A2994 RMK A01
KCRP 012151Z 11011G17KT 10SM FEW040 FEW055 SCT150 BKN250 34/23 A2989 RMK AO2 LTG DSNT N SLP121 CB DSNT NW-NE T03440228
KCRQ 012153Z AUTO 25008KT 10SM CLR 23/17 A2991 RMK AO2 SLP124 T02280172 TSNO
KCRS 012153Z AUTO 35010KT 10SM FEW028 OVC046 27/19 A3002 RMK AO2 SLP160 T02720189
KCRW 012154Z 12006KT 10SM SCT046TCU SCT085 BKN130 28/17 A3006 RMK AO2 SLP172 TCU N-NE T02780172
KCRX 012215Z AUTO 06006KT 10SM FEW095 29/16 A3001 RMK AO2
KCSG 012151Z 04007KT 10SM CLR 28/21 A2999 RMK AO2 SLP151 T02780206
KCSM 012153Z 11003KT 10SM CLR 30/14 A3010 RMK AO2 SLP169 T03000144
KCSQ 012215Z AUTO VRB04KT 10SM SCT048 BKN060 27/16 A3008 RMK AO2
KCSV 012153Z AUTO VRB03KT 10SM SCT045 BKN060 BKN090 25/17 A3009 RMK AO2 SLP171 T02500167
KCTB 012156Z AUTO VRB05KT 10SM CLR 29/11 A3018 RMK AO2 SLP187 T02940111
KCTJ 012215Z AUTO 13003KT 10SM OVC085 26/20 A3003 RMK AO2
KCTY 012153Z AUTO 25006KT 31/21 A2995 RMK AO1 SLP140 T03060206
KCTZ 012215Z AUTO 00000KT 10SM BKN014 BKN036 OVC047 25/25 A3002 RMK AO2 T02460245
KCUB 012217Z AUTO 34005KT 10SM OVC014 25/21 A3003 RMK AO2 T02500206
KCUH 012215Z AUTO 16006KT 10SM CLR 29/21 A3005 RMK AO2
KCUL 012215Z AUTO 00000KT 10SM VCTS SCT120 29/17 A3003 RMK AO2
KCUT 012153Z AUTO 04012KT 10SM SCT110 23/08 A3025 RMK AO2 LTG DSNT NW SLP182 T02330083
KCVB 012215Z AUTO 05007KT 10SM BKN055 34/17 A2995 RMK AO2 T03360165
KCVC 012215Z AUTO 11004KT 10SM SCT026 BKN032 26/15 A3004 RMK AO2
KCVG 012152Z 05003KT 8SM FEW050 SCT110 29/14 A3005 RMK AO2 SLP166 MOD CU VC E T02890139
KCVH 012100Z AUTO 25010KT 10SM CLR 32/12 A2989 RMK AO1
KCVN 012215Z 15004KT 10SM BKN090 24/11 A3022 RMK AO1
KCVO 012215Z AUTO 36004KT 33/14 A2994 RMK AO1
KCVS 012158Z 07005KT 10SM SCT150 24/13 A3020 RMK AO2A SLP175 T02440130 $
KCVW 012215Z AUTO 28008G13KT 10SM CLR 29/25 A2993 RMK A01
KCVX 012215Z AUTO 35003KT 10SM CLR 24/12 A3010 RMK AO2 T02430119
KCWA 012145Z 00000KT 7SM SCT040 SCT050 SCT120 19/16 A3008
KCWC 012215Z AUTO 08005KT 10SM CLR 29/18 A3006 RMK AO2 T02850175
KCWF 012055Z 27006KT 10SM BKN040 32/22 A2993
KCWI 012215Z AUTO 00000KT 10SM CLR 27/16 A3008 RMK AO1
KCWN 012156Z AUTO 16005KT 10SM FEW070 BKN095 18/08 A3036 RMK AO2 LTG DSNT S SLP214 T01800079
KCWV 012215Z AUTO 07004KT 7SM SCT019 SCT050 SCT095 25/25 A3000 RMK AO2 LTG DSNT NE SE AND SW
KCXO 012153Z 34010KT 10SM FEW032 BKN049 28/21 A2996 RMK AO2 SLP141 T02830206
KCXP 012215Z AUTO 28013G19KT 10SM CLR 34/01 A3010 RMK AO2
KCXY 012156Z 19005KT 10SM BKN120 24/18 A3016 RMK AO2 SLP214 T02390183 $
KCYS 012153Z 20013KT 10SM FEW075 25/07 A3030 RMK AO2 SLP184 T02500067
KCZT 012215Z AUTO 09004KT 7SM VCTSRA SCT038 BKN060 OVC085 32/22 A2990 RMK AO2 LTG DSNT SW THRU N
KCZZ 012152Z AUTO 33010G20KT 24/17 A2998 RMK AO1 PK WND 32035/2059 WSHFT 2047 SLP122 P0013 T02390172
KD07 012156Z AUTO 10005KT 33/07 A3001 RMK AO1 SLP144 T03280072
KD25 012215Z AUTO 35008KT 10SM SCT055 23/12 A3009 RMK AO2 T02310121
KD39 012212Z AUTO 30006KT 10SM CLR 28/13 A3007 RMK AO2 T02760131
KD50 012215Z AUTO 12007KT CLR 27/15 A3009 RMK AO2
KD55 012215Z AUTO 21003KT 10SM FEW050 28/13 A3009 RMK AO2
KD57 012215Z AUTO VRB05KT 10SM CLR 29/14 A3004 RMK AO2
KD60 012215Z AUTO 10007KT 10SM CLR 26/14 A3014 RMK AO2
KD95 012213Z AUTO 36005KT 10SM SCT075 SCT085 24/17 A3010 RMK AO2 T02390173
KDAA 012158Z AUTO 15007KT 10SM FEW025 SCT060 BKN080 BKN130 23/17 A3017 RMK AO2 SLP219 T02260165
KDAB 012153Z VRB03KT 10SM -RA FEW035CB SCT047 BKN080 BKN150 28/25 A2995 RMK AO2 SLP141 CB S-SW MOV E P0003 T02830250
KDAG 012210Z AUTO 12009G16KT 10SM VCTS CLR 40/09 A2985 RMK AO2 LTG DSNT SW T04000094
KDAL 012153Z 06007KT 020V200 10SM FEW029 SCT035 BKN250 27/19 A3003 RMK AO2 SLP161 T02720189
KDAN 012153Z AUTO 08008KT 7SM -RA SCT025 BKN036 OVC043 20/18 A3013 RMK AO2 SLP192 P0007 T02000178
KDAW 012151Z AUTO 17003KT 10SM CLR 21/18 A3020 RMK AO2 LTG DSNT SE AND S SLP222 T02110183
KDAY 012156Z COR 15005KT 10SM SCT055CB BKN070 BKN085 28/15 A3008 RMK AO2 SLP177 CB SE MOV N T02780150
KDBN 012215Z AUTO 01006KT 10SM OVC075 26/22 A3000 RMK AO2 LTG DSNT S
KDBQ 012153Z 31006KT 10SM CLR 27/15 A3007 RMK AO2 SLP177 T02720150
KDCA 012152Z 14012G16KT 10SM BKN037 BKN110 OVC200 26/18 A3016 RMK AO2 SLP212 T02610178
KDCM 012215Z AUTO 36008KT 7SM OVC009 22/21 A3007 RMK AO2 LTG DSNT SE SW AND NW
KDCU 012153Z AUTO 00000KT 10SM FEW080 SCT110 29/19 A3002 RMK AO2 SLP159 T02940189
KDCY 012215Z AUTO 00000KT 10SM CLR 28/17 A3003 RMK AO2 LTG DSNT W T02840166
KDDC 012152Z AUTO 05008KT 10SM CLR 32/10 A3011 RMK AO2 SLP165 T03170100
KDDH 012154Z AUTO 00000KT 10SM CLR 27/18 A3017 RMK AO2 LTG DSNT NW SLP212 T02670178
KDEC 012154Z 28004KT 8SM FEW110 19/17 A3010 RMK AO2 SLP192 T01940172
KDED 012215Z AUTO 09007KT 10SM FEW048 30/24 A2995 RMK AO1
KDEH 012215Z AUTO 00000KT 10SM CLR 26/15 A3006 RMK AO2
KDEN 012200Z 14011G16KT 10SM SCT080 SCT170 BKN220 27/04 A3026 RMK AO2 T02670044 $
KDEQ 012153Z AUTO 10005KT 7SM BKN042 OVC050 24/19 A3001 RMK AO2 SLP159 T02440194
KDET 012153Z 17009KT 10SM CLR 28/16 A3007 RMK AO2 SLP178 T02780156
KDEW 012153Z AUTO 00000KT 10SM CLR 34/03 A3001 RMK AO2 SLP147 T03390028
KDFI 012153Z AUTO 31005KT 8SM BKN060 28/15 A3007 RMK AO2 LTG DSNT NE RAE2058 SLP177 P0000 T02780150
KDFW 012153Z 05007KT 10SM SCT033 BKN040 BKN050 BKN200 27/18 A3003 RMK AO2 SLP160 T02670183
KDGW 012153Z AUTO 23007KT 10SM CLR 32/02 A3019 RMK AO2 SLP163 T03170017
KDHN 012153Z 35005KT 10SM CLR 29/21 A3000 RMK AO2 SLP152 T02890211
KDHT 012153Z AUTO 12007KT 10SM BKN085 28/09 A3019 RMK AO2 SLP167 T02830089
KDIJ 012156Z AUTO 19011KT 10SM FEW100 26/07 A3030 RMK AO2 T02550072 LTG DSNT NE SLP178
KDIK 012156Z AUTO 08008KT 10SM FEW055 SCT075 28/16 A3006 RMK AO2 SLP165 T02830156
KDKB 012215Z AUTO 00000KT 10SM SCT050 BKN100 26/16 A3007 RMK AO2 LTG DSNT N AND SW T02570155
KDKK 012153Z AUTO 30009KT 10SM CLR 26/17 A3011 RMK AO2 SLP192 T02560167
KDKR 012215Z AUTO 35006KT 10SM BKN023 OVC028 26/22 A3001 RMK AO2
KDLF 012158Z AUTO 03005KT 10SM CLR 35/19 A2995 RMK AO2 LTG DSNT E CIG 060 RWY31 SLP126 T03500194 $
KDLH 012217Z 12007KT 8SM TS FEW050CB SCT090 BKN110 22/12 A3007 RMK AO2 TSB17 OCNL LTGICCC N TS N MOV SE T02170117
KDLL 012215Z AUTO 09009KT 10SM BKN050 BKN065 OVC075 21/11 A3007 RMK AO2 LTG DSNT N THRU SE T02100108
KDLN 012153Z AUTO 14022G28KT 10SM CLR 30/03 A3020 RMK AO2 PK WND 14029/2133 WSHFT 2123 SLP166 T03000033
KDLP 012215Z AUTO 00000KT 10SM CLR 33/21 A2997 RMK A01
KDLS 012153Z AUTO 33010KT 10SM CLR 37/14 A2984 RMK AO2 SLP101 T03670144
KDLZ 012217Z AUTO 00000KT 10SM CLR 26/13 A3008 RMK AO2
KDMA 012158Z AUTO 27005KT 10SM FEW150 31/16 A2998 RMK AO2 LTG DSNT SE SLP107 T03130164 $
KDMH 012154Z AUTO 27/17 A3017 RMK AO1 SLP215 T02670167
KDMN 012153Z AUTO 17007KT 10SM CLR 25/17 A3013 RMK AO2 SLP136 T02500172
KDMO 012153Z AUTO 04005KT 7SM FEW120 29/16 A3007 RMK AO2 SLP176 T02890161
KDMW 012220Z AUTO 17004KT 10SM BKN070 24/18 A3018 RMK AO2
KDNL 012153Z AUTO 36010KT 10SM CLR 24/20 A3004 RMK AO2 SLP168 T02440200
KDNN 012215Z AUTO 00000KT 10SM CLR 27/18 A3002 RMK AO2
KDNS 012215Z AUTO 05005KT 10SM SCT065 26/16 A3008 RMK AO2
KDNV 012215Z AUTO 01006KT 7SM -RA SCT035 SCT045 OVC110 20/18 A3007 RMK AO2 T02030176
KDOV 012211Z AUTO 12005KT 10SM -DZ FEW012 23/22 A3016 RMK AO2 RAE2204DZB2204E2206
KDPA 012213Z 13008KT 10SM TS SCT055 SCT090 24/13 A3007 RMK AO2 LTG DSNT SE-W TSB07 T02390133
KDPL 012215Z AUTO 14003KT 10SM SCT012 BKN025 OVC065 24/23 A3003 RMK AO2 T02400227
KDQH 012215Z AUTO 04011KT 10SM VCTS BKN080 OVC100 25/20 A2998 RMK AO2 LTG DSNT N THRU E
KDRA 012152Z AUTO 26014G20KT 240V300 10SM CLR 39/04 A2996 RMK AO2 SLP085 T03940039
KDRI 012215Z AUTO 00000KT 7SM SCT031 SCT039 SCT045 30/22 A2994 RMK AO2 LTG DSNT SE T02950215
KDRM 012214Z AUTO 00000KT 10SM SCT080 OVC100 22/15 A3008 RMK AO2 T02220151
KDRO 012202Z AUTO 01014G21KT 10SM CLR 24/10 A3025 RMK AO2 LTG DSNT SE AND NW T02390100
KDRT 012153Z AUTO VRB04KT 10SM CLR 34/19 A2994 RMK AO2 SLP121 T03440189
KDSM 012154Z 09003KT 9SM SCT050TCU SCT075 BKN100 28/14 A3006 RMK AO2 SLP174 TCU ALQDS T02780144
KDSV 012154Z AUTO 31008KT 10SM BKN070 BKN110 25/17 A3011 RMK AO2 LTG DSNT NW SLP201 T02500167
KDTL 012214Z AUTO 01003KT 10SM CLR 26/11 A3009 RMK AO2
KDTN 012153Z AUTO 04007KT 10SM BKN012 OVC020 22/19 A2999 RMK AO2 SLP153 T02170189
KDTO 012153Z AUTO 03008KT 10SM FEW036 OVC045 27/19 A3003 RMK AO2 SLP162 T02670189 TSNO
KDTS 012153Z AUTO VRB04KT 10SM CLR 30/19 A2996 RMK AO2 SLP143 T03000194 TSNO
KDTW 012153Z 18005KT 8SM FEW050 BKN180 27/15 A3007 RMK AO2 SLP179 T02670150
KDUA 012215Z AUTO 03005KT 10SM OVC048 27/20 A3005 RMK AO2
KDUB 012215Z AUTO 30011G17KT 10SM BKN110 17/03 A3041 RMK AO2 LTG DSNT N
KDUC 012215Z AUTO 00000KT 10SM CLR 28/18 A3005 RMK AO2 PWINO TSNO
KDUG 012156Z AUTO 19007KT 10SM CLR 26/18 A3012 RMK AO2 LTG DSNT NE AND E SLP136 T02610178
KDUH 012215Z AUTO 00000KT 10SM CLR 24/16 A3008 RMK AO2
KDUJ 012153Z AUTO 16005KT 10SM FEW075 25/16 A3014 RMK AO2 SLP197 T02500156
KDUX 012215Z AUTO 12005KT 10SM SCT080 SCT090 28/11 A3017 RMK AO2 T02810108
KDVK 012215Z AUTO 05003KT 10SM SCT070 27/17 A3006 RMK AO2
KDVL 012215Z AUTO 15007KT 10SM CLR 27/13 A3008 RMK AO1
KDVN 012152Z AUTO 28004KT 10SM CLR 28/16 A3006 RMK AO2 LTG DSNT S AND SW SLP174 T02780161
KDVO 012215Z AUTO 08009KT 10SM CLR 32/15 A2987 RMK AO2
KDVP 012214Z AUTO 00000KT 10SM CLR 27/12 A3011 RMK AO2 T02660123
KDVT 012153Z VRB06KT 10SM CLR 36/14 A2988 RMK AO2 SLP091 T03560139
KDWH 012153Z 31007KT 10SM FEW045 29/22 A2994 RMK AO2 SLP137 T02940217
KDWX 012215Z AUTO 18006KT 10SM CLR 29/M02 A3025 RMK AO2 T02911020
KDXR 012153Z 17008KT 8SM CLR 24/19 A3023 RMK AO2 LTG DSNT NE SLP232 T02390189
KDXX 012213Z AUTO 00000KT 10SM CLR 29/16 A3007 RMK AO2
KDYA 012215Z AUTO 20005KT 10SM CLR 29/18 A2997 RMK AO2 T02930176
KDYB 012215Z AUTO 00000KT 10SM -RA SCT033 SCT041 SCT055 26/25 A2999 RMK AO1 LTG DSNT ALQS
KDYL 012154Z AUTO 17003KT 10SM OVC100 20/19 A3020 RMK AO2 RAE27 SLP223 P0001 T02000194
KDYR 012215Z 00000KT 10SM FEW100 28/14 A3003 RMK AO1
KDYS 012158Z AUTO 06003KT 10SM CLR 30/13 A3004 RMK AO2 SLP131 T03010132 $
KDYT 012213Z AUTO 05009KT 10SM CLR 18/13 A3007 RMK AO2 LTG DSNT N
KDZB 012215Z AUTO 04005G15KT 10SM SCT055 32/15 A2999 RMK AO2 T03150152
KE11 012215Z AUTO 11007KT 10SM CLR 27/13 A3013 RMK AO2 T02680130
KE16 012215Z AUTO 35012G17KT 10SM CLR 36/08 A2987 RMK AO2
KE38 012215Z AUTO 04007KT 10SM BKN110 26/14 A3023 RMK AO2 T02590140
KE80 012215Z AUTO 13007KT 10SM CLR 27/12 A3018 RMK AO2 T02680119
KEAR 012215Z AUTO 02008KT 10SM CLR 29/14 A3011 RMK AO1
KEAT 012155Z AUTO 12008KT 10SM CLR 34/07 A2993 RMK AO2 SLP122 T03390072
KEAU 012156Z 36006KT 10SM CLR 28/16 A3004 RMK AO2 LTG DSNT SW SLP166 T02780161
KEBG 012215Z AUTO 08004KT 10SM SCT070 38/17 A2985 RMK AO2 T03780167
KEBS 012215Z AUTO 23003KT 10SM CLR 27/14 A3008 RMK AO2
KECG 012154Z 11006KT 10SM BKN009 BKN015 OVC020 23/22 A3010 RMK AO2 RAE25 CIG 007V013 SLP191 P0003 T02280217
KECP 012153Z 23007KT 10SM CLR 31/18 A2994 RMK AO2 SLP150 T03060178
KECS 012215Z AUTO 33009G16KT 10SM VCTS CLR 27/03 A3016 RMK AO2
KECU 012210Z AUTO 08007KT 10SM CLR 32/14 A3004 RMK AO2
KEDC 012215Z AUTO 35008KT 10SM BKN046 31/19 A2998 RMK AO2
KEDE 012215Z AUTO 05004KT 10SM SCT011 OVC019 22/21 A3008 RMK AO2 T02160211
KEDJ 012210Z AUTO 01004KT 10SM CLR 26/17 A3006 RMK A01 P000
KEDU 012215Z AUTO 20007KT 10SM CLR 38/11 A2981 RMK AO1
KEDW 012158Z 20009KT 30SM FEW120 40/02 A2989 RMK AO2A CB DSNT NE-E MOV SLWLY NE SLP090 T04020020
KEED 012156Z AUTO 19004KT 10SM CLR 42/11 A2981 RMK AO2 SLP055 T04220111
KEEN 012215Z AUTO 21008KT 10SM SCT060 26/15 A3018 RMK AO1 LTG DSNT SW
KEEO 012213Z AUTO 23010KT 10SM CLR 25/08 A3025 RMK AO2 WSHFT 2153 T02500083
KEET 012153Z AUTO 00000KT 8SM CLR 28/19 A2999 RMK AO2 SLP149 T02830194
KEFD 012150Z 31008KT 10SM BKN040 BKN250 30/21 A2995
KEFK 012215Z AUTO 00000KT 10SM CLR 24/17 A3015 RMK AO2 T02380167
KEFT 012215Z AUTO 00000KT 10SM CLR 28/12 A3005 RMK AO2 LTG DSNT NE AND E
KEGE 012150Z 27004KT 10SM VCSH SCT060 BKN100 23/09 A3030
KEGI 012155Z 33005KT 10SM FEW050 SCT140 BKN180 BKN250 31/19 A2996 RMK AO2A SLP144 T03060190 $
KEGV 012215Z AUTO 35005KT 10SM CLR 24/10 A3008 RMK AO2 T02350095
KEHA 012208Z AUTO 15003KT 30/12 RMK AO1 PK WND 09 000 T03000117
KEHC 012215Z AUTO 00000KT 10SM CLR 30/24 A2993 RMK A01
KEHO 012215Z AUTO 01007KT 2SM BR BKN006 OVC010 18/17 A3009 RMK AO2 T01770172
KEHR 012215Z AUTO 10SM CLR RMK AO1
KEHY 012215Z AUTO 07012G19KT 10SM SCT010 OVC018 25/M03 A3032 RMK AO2
KEIK 012215Z AUTO 12009KT 10SM SCT090 27/03 A3023 RMK AO2 T02650028
KEIR 012215Z AUTO 00000KT 10SM 29/25 A2996 RMK A01
KEKM 012150Z 00000KT 10SM CLR 22/15 A3008 RMK A02
KEKN 012151Z AUTO 16008KT 10SM BKN045 BKN070 BKN110 25/14 A3015 RMK AO2 SLP203 T02500144 TSNO
KEKO 012156Z AUTO VRB03KT 10SM CLR 32/M01 A3016 RMK AO2 SLP154 T03221006
KEKQ 012156Z AUTO VRB04KT 10SM CLR 30/18 A3006 RMK AO2 T03000183 SLP175
KELD 012153Z AUTO 02005KT 2SM -RA BR BKN008 OVC013 21/20 A3001 RMK AO2 RAB18E26B43 CIG 005V010 SLP159 P0000 T02060200
KELM 012153Z 18006KT 9SM SCT065 BKN100 29/15 A3011 RMK AO2 SLP191 T02890150
KELN 012153Z AUTO 00000KT 10SM CLR 34/11 A2997 RMK AO2 SLP135 T03440111
KELO 012213Z AUTO 35003KT 10SM CLR 24/09 A3006 RMK AO2
KELP 012151Z 12006KT 7SM -RA BKN025 BKN060 OVC095 21/18 A3014 RMK AO2 SLP151 MTNS OBSCD SW-NW P0008 T02110183
KELY 012153Z AUTO VRB03KT 10SM CLR 31/01 A3023 RMK AO2 SLP140 T03060011
KELZ 012156Z AUTO 19007KT 10SM CLR 26/13 A3018 RMK AO2 SLP208 T02560128
KEMM 012215Z AUTO 08004KT 10SM CLR A3034 RMK AO2
KEMP 012153Z AUTO 15010KT 10SM BKN075 OVC095 28/17 A3001 RMK AO2 SLP154 T02830172
KEMT 012149Z 20009KT 10SM CLR 32/18 A2987
KEMV 012215Z AUTO 00000KT 4SM SN SCT036 OVC060 18/17 A3014 RMK AO2 P0002
KEND 012158Z 19005KT 10SM FEW040 SCT150 SCT200 30/19 A3005 RMK AO2A SLP167
KENL 012215Z AUTO 00000KT 10SM SCT065 31/14 A3004 RMK AO2 T03060143 TSNO
KENV 012215Z 13009G15KT 10SM CLR 32/04 A3012 RMK AO1
KENW 012153Z 15012KT 10SM CLR 27/16 A3006 RMK AO2 LTG DSNT N SLP176 T02670156
KEOE 012215Z AUTO 36006KT 10SM OVC006 21/21 A3009 RMK AO2 LTG DSNT SE
KEOK 012215Z AUTO 22003KT 10SM CLR 28/18 A3004 RMK AO2
KEPH 012153Z AUTO 07003KT 10SM CLR 36/04 A2993 RMK AO2 SLP125 T03560044
KEQY 012153Z AUTO 05008KT 10SM OVC009 22/19 A3007 RMK AO2 RAE2055 CIG 006V010 SLP183 P0000 T02170194
KERI 012151Z 35004KT 10SM CLR 26/15 A3010 RMK AO2 SLP187 T02610150
KERV 012215Z AUTO 02010KT 10SM CLR 33/14 A3000 RMK AO2 T03310142
KERY 012215Z AUTO 36008KT 7SM CLR 22/11 A3008 RMK AO2 T02200108
KESC 012215Z AUTO 12007KT 10SM CLR 22/13 A3006 RMK AO1
KESF 012153Z AUTO 10006KT 10SM SCT012 BKN032 OVC040 28/24 A2992 RMK AO2 SLP130 T02830244
KESN 012150Z 00000KT 6SM -RA SCT022 SCT030 OVC080 24/23 A3020
KEST 012210Z AUTO 36004KT 10SM FEW002 27/14 A3009 RMK AO2 T02670139
KETB 012215Z AUTO 14004KT 10SM CLR 22/10 A3007 RMK AO2
KETC 012215Z AUTO 05006KT 5SM -RA OVC008 20/19 A3008 RMK AO2 T02020189
KETH 012216Z AUTO 30006KT 10SM CLR 27/16 A3008 RMK AO2
KEUF 012158Z AUTO 01003KT 10SM CLR 29/21 A2997 RMK AO2 SLP146 T02890211 $
KEUG 012154Z 01009G16KT 10SM FEW070 SCT170 32/12 A2994 RMK AO2 SLP137 CB DSNT E T03220117
KEUL 012215Z AUTO 00000KT 10SM CLR 34/11 A3001 RMK AO1
KEVB 012147Z 13010KT 10SM SCT040 31/25 A2996
KEVM 012212Z AUTO 07004KT 10SM SCT065 BKN075 BKN090 25/12 A3006 RMK AO2 LTG DSNT SE
KEVV 012154Z 15004KT 10SM CLR 29/14 A3003 RMK AO2 SLP166 T02940139
KEVW 012153Z AUTO VRB06KT 10SM CLR 27/M02 A3032 RMK AO2 SLP162 T02721022
KEWB 012153Z 19011KT 10SM CLR 24/18 A3022 RMK AO2 SLP232 T02390183
KEWK 012215Z AUTO 35010G19KT 10SM FEW090 32/09 A3006 RMK AO1
KEWN 012217Z 10007KT 10SM BKN013 BKN026 OVC080 25/23 A3006 RMK AO2 RAE2157 P0000
KEWR 012151Z 17005KT 10SM -RA FEW020 SCT050 BKN100 OVC150 24/20 A3020 RMK AO2 RAB20 SLP224 P0000 T02440200
KEXX 012215Z AUTO 00000KT 7SM BKN010 BKN017 OVC024 20/20 A3009 RMK AO2 T02020202
KEYE 012217Z AUTO 28008KT 8SM -TSRA SCT055 BKN090 OVC110 21/16 A3009 RMK AO2 LTG DSNT NW TSB15 P0000 T02110156
KEYF 012215Z AUTO 13003KT 10SM SCT018 BKN028 OVC041 26/24 A3001 RMK AO2 T02550240
KEYW 012153Z 26006KT 10SM FEW032 SCT075 BKN100 31/23 A2992 RMK AO2 SLP131 T03110233
KEZF 012215Z AUTO 34003KT 10SM CLR 24/19 A3014 RMK AO2 T02410194
KEZM 012215Z AUTO 03008KT 10SM TS SCT025 SCT030 BKN050 29/24 A3001 RMK AO2 LTG DSNT SE AND S T02850238
KEZS 012215Z AUTO 24005KT 10SM CLR 24/16 A3006 RMK AO2 LTG DSNT S AND SW T02420161
KF05 012215Z AUTO 00000KT 10SM CLR 29/16 A3007 RMK AO1 T02900161
KF44 012215Z AUTO 01008KT 10SM SCT017 BKN026 OVC031 23/20 A3000 RMK AO2
KF46 012215Z AUTO 02007KT 10SM OVC035 25/20 A3002 RMK AO2 T02450196
KF70 012215Z AUTO 18014KT 10SM CLR 34/15 A2991 RMK AO1
KFAF 012158Z AUTO 08004KT 10SM -DZ FEW042 SCT085 23/19 A3010 RMK AO2 DZB2144 SLP196 P0000 T02320188 $
KFAM 012215Z AUTO 16006KT 10SM CLR 28/14 A3006 RMK AO1
KFAR 012153Z 04008KT 10SM CLR 28/13 A3006 RMK AO2 SLP177 T02830133
KFAT 012153Z 33006KT 10SM CLR 42/09 A2981 RMK AO2 SLP088 MTNS OBSC FU HZ DSNT N-E-S T04170089
KFAY 012153Z 01010KT 9SM OVC005 22/21 A3002 RMK AO2 SLP159 T02220206
KFBG 012218Z AUTO 02006KT 10SM OVC004 21/20 A3004 RMK AO2
KFBL 012214Z AUTO 21004KT 10SM CLR 29/11 A3007 RMK AO2
KFBR 012215Z AUTO 00000KT CLR 27/M01 A3033 RMK AO2 T02731010 PWINO
KFCI 012155Z AUTO 10005KT 5SM FEW025 BKN032 OVC075 A3016 RMK AO1 P0001
KFCM 012153Z VRB03KT 7SM CLR 29/14 A3004 RMK AO2 SLP167 T02940144
KFCS 012158Z AUTO 18005KT 10SM BKN130 21/11 A3031 RMK AO2 SLP226 T02090111
KFDK 012145Z 24004KT 10SM SCT080 26/20 A3019
KFDR 012153Z AUTO 12004KT 10SM CLR 29/17 A3003 RMK AO2 SLP155 T02940172 $
KFDW 012215Z AUTO 35004KT 10SM OVC007 22/21 A3004 RMK AO1
KFDY 012153Z AUTO VRB03KT 10SM BKN050 28/14 A3006 RMK AO2 SLP170 T02830144
KFEP 012215Z AUTO 28005KT 10SM SCT060 SCT065 SCT075 27/16 A3007 RMK AO2 LTG DSNT NE T02680160
KFET 012215Z AUTO 07008KT 10SM SCT049 BKN070 28/16 A3008 RMK AO2 T02800155
KFEW 012156Z AUTO 19009G14KT 10SM CLR 25/05 A3027 RMK AO2 SLP185 T02520046
KFFA 012215Z AUTO 12005KT 5SM -RA SCT019 SCT028 SCT036 22/21 A3009 RMK AO2 T02210214
KFFC 012153Z AUTO 15007KT 10SM BKN032 BKN039 26/21 A3004 RMK AO2 SLP166 T02560206
KFFL 012215Z AUTO 02003KT 10SM FEW049 27/16 A3006 RMK AO2
KFFM 012214Z AUTO 33008KT 10SM CLR 27/11 A3005 RMK AO2
KFFO 012158Z 10001KT 10SM SCT055 BKN100 27/16 A3006 RMK AO2A SLP178 T02680162
KFFT 012153Z AUTO VRB03KT 10SM BKN065 BKN080 OVC090 29/13 A3004 RMK AO2 SLP164 T02940133
KFFX 012214Z AUTO 27006KT 10SM CLR 26/13 A3007 RMK AO2 T02600134
KFFZ 012047Z 20005KT 35SM FEW060 SCT130 BKN160 25/16 A2991
KFGN 012214Z AUTO 00000KT 10SM CLR 26/08 A3005 RMK AO2
KFGX 012215Z AUTO 04006KT 10SM BKN100 28/15 A3006 RMK AO2 T02840149
KFHB 012215Z AUTO 13010KT 10SM CLR 31/23 A2993 RMK AO1 LTG DSNT E AND NW
KFHR 012153Z AUTO 00000KT 10SM CLR 19/13 A3003 RMK AO2 SLP169 T01940128
KFHU 012155Z VRB03KT 10SM FEW040 FEW140 SCT240 28/14 A3015 RMK CB DSNT NW SLP145
KFIG 012154Z AUTO VRB04KT 10SM FEW047 FEW060 SCT085 24/16 A3014 RMK AO2 SLP201 T02440161
KFIT 012152Z AUTO VRB03KT 10SM CLR 26/18 A3020 RMK AO2 SLP227 T02610178
KFKA 012211Z AUTO 29006KT 10SM CLR 26/18 A3008 RMK AO2 T02570175
KFKL 012215Z AUTO 14005KT 10SM CLR 26/14 A3013 RMK AO1
KFKN 012215Z AUTO 05009KT 1 3/4SM SCT009 BKN020 OVC029 19/19 A3010 RMK AO1
KFKS 012216Z AUTO 26004KT 7SM CLR 22/16 A3007 RMK AO2 T02170162
KFLD 012153Z AUTO 26004KT 10SM CLR 24/17 A3005 RMK AO2 LTG DSNT SE RAE2059 SLP174 P0001 T02390167
KFLG 012157Z 21003KT 10SM TSRA FEW070 FEW090 OVC110 15/13 A3033 RMK AO2 SLP191 P0003 T01500128
KFLL 012153Z 09010KT 10SM FEW027 SCT036 BKN250 31/24 A2993 RMK AO2 SLP134 T03060239
KFLO 012219Z 08004KT 10SM FEW020 SCT045 BKN060 25/22 A3000 RMK AO2 T02500217
KFLP 012215Z AUTO 06003KT 10SM CLR 27/18 A3006 RMK AO1
KFLY 012215Z AUTO 16004KT 10SM SCT120 20/08 A3038 RMK AO2 T01950077
KFME 012221Z AUTO 15004KT 10SM SCT038 SCT045 SCT120 23/17 A3018 RMK AO1
KFMH 012215Z AUTO 19007KT 10SM CLR 23/18 A3024 RMK AO2
KFMM 012155Z AUTO 00000KT 10SM CLR 28/06 A3021 RMK AO2 T02800063 PWINO
KFMN 012153Z VRB06KT 10SM CLR 30/09 A3014 RMK AO2 SLP139 T03000089
KFMY 012153Z 00000KT 10SM OVC095 31/23 A2992 RMK AO2 LTG DSNT E RAE2059 SLP133 P0000 T03060233
KFNB 012153Z AUTO 09009KT 10SM CLR 29/17 A3005 RMK AO2 SLP166 T02940167
KFNL 012215Z AUTO 11006KT 10SM CLR 27/08 A3022 RMK AO1
KFNT 012153Z 25004KT 10SM CLR 24/17 A3009 RMK AO2 LTG DSNT W AND NW SLP186 T02390172
KFOA 012215Z AUTO 16004KT 10SM VCTS CLR 27/17 A3005 RMK AO2 LTG DSNT NW T02700170
KFOD 012215Z AUTO 00000KT 10SM CLR 27/14 A3009 RMK AO1
KFOE 012153Z 15009KT 10SM CLR 32/14 A3002 RMK AO2 SLP153 T03170144
KFOK 012153Z 19005KT 10SM BKN110 24/19 A3024 RMK AO2 SLP239 T02390189
KFOT 012215Z AUTO 31015G19KT 10SM CLR 17/13 A3000 RMK AO1
KFOZ 012201Z AUTO 02002KT 7SM CLR A3007 RMK AO2
KFPK 012214Z AUTO 00000KT 7SM -RA BKN043 BKN055 OVC085 19/17 A3007 RMK AO2 P0003 T01940166
KFPR 012153Z 11012KT 10SM CLR 31/24 A2994 RMK AO2 SLP138 T03060239
KFQD 012215Z AUTO 03007KT 10SM SCT012 OVC033 20/17 A3011 RMK AO2 T01950171
KFRG 012153Z 21009KT 10SM CLR 24/19 A3021 RMK AO2 SLP231 T02390194
KFRI 012158Z AUTO VRB05KT 9SM FEW075 32/12 A3000 RMK AO2 SLP148 T03180124
KFRM 012215Z AUTO 00000KT 10SM CLR 28/07 A3008 RMK AO1
KFSD 012156Z 09004KT 10SM FEW060 28/15 A3009 RMK AO2 SLP183 T02780150
KFSE 012215Z AUTO 36004KT 7SM SCT055 27/14 A3008 RMK AO2
KFSI 012158Z AUTO 04005KT 10SM CLR 29/17 A3004 RMK AO2 SLP165 T02940170
KFSM 012153Z 10005KT 10SM OVC060 27/18 A3004 RMK AO2 SLP166 T02670183
KFSO 012215Z AUTO 17004KT 10SM CLR 27/18 A3010 RMK AO2 T02650176
KFST 012153Z AUTO 07009KT 10SM FEW037 26/16 A3012 RMK AO2 SLP155 T02610161
KFSW 012215Z AUTO 00000KT 10SM SCT060 SCT085 SCT110 28/17 A3006 RMK AO2
KFTG 011955Z 13010KT 20SM SCT080 BKN140 26/05 A3028
KFTK 012158Z AUTO 01004KT 10SM CLR 28/14 A3003 RMK AO2 SLP167 T02830141
KFTN 012255Z AUTO 04004KT 10SM FEW085 35/19 A2990 RMK AO1
KFTW 012153Z 03009G14KT 10SM FEW036 BKN055 29/18 A3002 RMK AO2 SLP156 T02890183
KFTY 012153Z 05007KT 10SM FEW034 28/19 A3002 RMK AO2 SLP157 T02830194
KFUL 012153Z 20005KT 10SM CLR 29/18 A2986 RMK AO2 SLP111 T02940178
KFVE 012153Z AUTO 21009KT 10SM CLR 23/13 A3014 RMK AO2 SLP205 T02280128
KFVX 012215Z AUTO 00000KT 5SM RA SCT023 BKN029 OVC039 21/21 A3012 RMK AO2 P0002
KFWA 012154Z 35012KT 10SM FEW050 SCT240 26/14 A3008 RMK AO2 SLP182 CB DSNT N-NE MOV NE T02560144
KFWB 012215Z AUTO 11004KT 10SM FEW048 27/16 A3007 RMK AO2
KFWC 012215Z AUTO 00000KT 10SM VCTS SCT110 29/19 A3004 RMK AO2
KFWN 012153Z AUTO 15006KT 10SM CLR 24/17 A3020 RMK AO2 LTG DSNT N AND NW TSE03 SLP224 T02440172
KFWS 012157Z 03006KT 10SM BKN035 28/18 A3004
KFWZ 012215Z AUTO 36007KT 10SM SCT085 OVC120 21/M01 A3038 RMK AO2
KFXE 012153Z 09008KT 10SM SCT027 30/24 A2993 RMK AO2 SLP136 T03000244
KFXY 012215Z AUTO 28005KT 10SM SCT050 BKN070 27/16 A3008 RMK AO2
KFYG 012215Z AUTO 00000KT 7SM FEW055 BKN090 22/ A3007 RMK AO2
KFYJ 012215Z AUTO 00000KT 10SM SCT044 BKN080 OVC110 23/20 A3015 RMK AO2 T02310195
KFYM 012215Z AUTO 17008KT 10SM FEW095 27/18 A3003 RMK
KFYV 012153Z 00000KT 10SM CLR 27/17 A3007 RMK AO2 SLP168 T02670172
KFZG 012215Z AUTO 10005KT 7SM -RA SCT026 BKN033 OVC040 25/23 A3001 RMK AO2 LTG DSNT NE AND E T02470232
KFZY 012154Z AUTO 00000KT 10SM BKN120 26/20 A3011 RMK AO2 SLP195 T02610200
KGAD 012215Z 00000KT 10SM CLR 29/17 A3000 RMK AO1
KGAF 012215Z AUTO 03005KT 10SM CLR 27/15 A3006 RMK AO2
KGAG 012153Z AUTO 01008KT 10SM CLR 32/13 A3008 RMK AO2 SLP159 T03170133
KGAI 012215Z AUTO 00000KT 10SM FEW065 BKN120 23/17 A3020 RMK AO1
KGBD 012215Z AUTO 03008KT 10SM 32/12 A3004 RMK AO1
KGBG 012215Z AUTO 31004KT 10SM CLR 30/17 A3006 RMK AO2 LTG DSNT NE AND E T02990167
KGBK 012215Z AUTO 00000KT 10SM CLR 31/23 A2997 RMK A01
KGCC 012153Z AUTO 03006G15KT 10SM CLR 31/03 A3015 RMK AO2 PK WND 33031/2112 SLP158 T03060033
KGCD 012215Z AUTO 33004KT 10SM CLR 32/06 A3006 RMK AO2 T03200061
KGCK 012154Z 00000KT 10SM CLR 30/11 A3012 RMK AO2 SLP170 T03000106
KGCM 012215Z AUTO 00000KT 10SM CLR 27/17 A3008 RMK AO2
KGCN 012154Z 34005KT 10SM CLR 26/09 A3027 RMK AO2 LTG DSNT SE SLP150 T02560094
KGDB 012214Z AUTO 05005KT 10SM SCT030 SCT047 OVC100 24/19 A3008 RMK AO2 T02390187
KGDJ 012215Z AUTO 01004KT 10SM SCT043 SCT055 29/17 A3003 RMK AO2 T02900170
KGDP 012151Z AUTO 05018KT 9SM FEW011 OVC040 19/16 A3025 RMK AO2 SLP176 T01940156
KGDV 012215Z AUTO 06011G16KT 10SM SCT090 31/12 A3008 RMK AO1
KGED 012154Z AUTO 12005KT 10SM OVC110 24/19 A3018 RMK AO2 SLP219 T02390194
KGEG 012153Z VRB03KT 10SM FEW100 BKN140 BKN180 34/03 A3002 RMK AO2 SLP142 VIRGA ACC ALQDS T03390028
KGEU 012147Z 13006KT 20SM FEW100 SCT180 BKN250 35/16 A2989 RMK TCU DSNT N-NE
KGEV 012215Z AUTO 08006KT 7SM OVC007 16/14 A3020 RMK AO2 T01570140
KGEY 012153Z AUTO 09010KT 10SM BKN110 32/05 A3011 RMK AO2 SLP158 T03170050
KGEZ 012153Z AUTO 00000KT 10SM CLR 28/16 A3006 RMK AO2 LTG DSNT W SLP173 T02780161
KGFA 012156Z AUTO 02007KT 10SM CLR 32/05 A3013 RMK AO2 SLP178 T03200048
KGFK 012153Z 00000KT 10SM FEW050 SCT250 28/14 A3006 RMK AO2 SLP176 T02780144
KGFL 012153Z AUTO 17005KT 10SM CLR 27/18 A3014 RMK AO2 LTG DSNT S SLP205 T02670178
KGGE 012215Z AUTO 15004KT 10SM CLR 26/23 A3001 RMK AO2 LTG DSNT SE
KGGG 012224Z 35006KT 10SM OVC015 23/19 A3000 RMK AO2
KGGI 012215Z AUTO 00000KT 10SM SCT050 27/15 A3008 RMK AO2 T02650154
KGGP 012215Z AUTO 05004KT 10SM CLR 22/15 A3010 RMK AO2
KGGW 012225Z AUTO 17007KT 140V220 10SM VCTS BKN095 BKN110 32/11 A3004 RMK AO2 T03170106
KGHB 012215Z AUTO 00000KT 10SM CLR 31/24 A2995 RMK A01
KGHG 012210Z AUTO 20006KT 10SM CLR 24/19 A3023 RMK AO2
KGHW 012215Z AUTO 31007KT 10SM CLR 28/14 A3009 RMK AO2
KGIC 012215Z AUTO 03008KT 350V050 10SM CLR 34/03 A3009 RMK AO1 T03360030
KGIF 012153Z AUTO 36010KT 10SM FEW050 OVC090 33/21 A2994 RMK AO2 SLP134 T03330206 TSNO
KGJT 012204Z 04020G23KT 10SM BKN085 27/07 A3014 RMK AO2 WSHFT 2150 LTG DSNT E T02720072
KGKJ 012153Z AUTO VRB03KT 10SM CLR 27/14 A3012 RMK AO2 SLP191 T02670144 TSNO
KGKY 012153Z 04010KT 10SM OVC049 27/18 A3002 RMK AO2 SLP159 T02670183
KGLD 012153Z AUTO 12009KT 10SM CLR 30/08 A3016 RMK AO2 SLP173 T03000083
KGLE 012215Z AUTO 04006KT 10SM SCT033 OVC044 26/19 A3007 RMK AO2 T02630194
KGLH 012153Z AUTO 09005KT 8SM FEW055 OVC085 26/18 A2999 RMK AO2 SLP161 T02610183
KGLR 012153Z AUTO 00000KT 10SM SCT075 25/09 A3009 RMK AO2 SLP186 T02500094
KGLS 012152Z 24007KT 9SM -RA FEW048 SCT055 BKN070 31/24 A2993 RMK AO2 RAB02E15B52 SLP134 P0000 T03110244
KGLW 012215Z AUTO 04003KT 10SM CLR 30/10 A3003 RMK AO2 T03000103
KGLY 012215Z AUTO 36005KT 10SM FEW048 28/17 A3005 RMK AO2
KGMJ 012215Z AUTO 28004KT 10SM SCT047 SCT050 29/17 A3006 RMK AO2
KGMU 012153Z 06011KT 10SM BKN021 OVC025 21/16 A3010 RMK AO2 SLP188 T02060161
KGNA 012156Z AUTO 17/11 A3009 RMK AO1 SLP187 T01670106 $
KGNC 012215Z AUTO 05007KT 020V120 10SM CLR 29/11 A3014 RMK AO2 T02910110
KGNF 012215Z AUTO 14004KT 10SM CLR 28/15 A3000 RMK AO2
KGNR 012156Z AUTO 18005KT 22/14 A3018 RMK AO1 SLP219 T02220144
KGNV 012153Z 33011KT 10SM SCT060 32/18 A2994 RMK AO2 SLP135 T03220183
KGOK 012153Z AUTO 12006KT 10SM FEW043 29/18 A3005 RMK AO2 SLP167 T02890183
KGON 012156Z 18005KT 9SM CLR 22/21 A3022 RMK AO2 SLP234 T02220206
KGOO 011900Z AUTO 00000KT 10SM CLR 33/03 A3005 RMK AO1
KGOP 012215Z AUTO 03004KT 5SM HZ FEW040 SCT050 28/18 A3003 RMK AO2
KGOV 012215Z AUTO 02003KT 10SM SCT065 SCT080 25/10 A3008 RMK AO2 T02520097
KGPH 012215Z AUTO 05004KT 10SM SCT090 27/14 A3005 RMK AO2
KGPI 012155Z VRB04KT 10SM CLR 33/06 A3004 RMK AO2 SLP155 T03280061
KGPM 012150Z 35008KT 10SM SCT040 BKN045 26/18 A3005
KGPT 012153Z 01003KT 9SM FEW045 SCT110 30/19 A2998 RMK AO2 SLP151 T03000194
KGPZ 012215Z AUTO 27006KT 10SM FEW080 26/12 A3006 RMK AO1
KGRB 012153Z 34003KT 7SM CLR 24/18 A3004 RMK AO2 LTG DSNT SE SLP172 T02440178 $
KGRD 012156Z AUTO 03006KT 10SM OVC018 22/17 A3008 RMK AO2 SLP181 T02220172
KGRF 012203Z AUTO 34007G15KT 10SM FEW180 27/11 A3000 RMK AO2
KGRI 012153Z 05010G15KT 020V080 10SM CLR 28/13 A3011 RMK AO2 SLP183 T02830133
KGRK 012155Z 03009KT 7SM BKN045 29/18 A3001 RMK SLP158
KGRR 012153Z 25011KT 10SM SCT060 28/14 A3007 RMK AO2 LTG DSNT E AND SE SLP177 T02830144
KGRY 012215Z AUTO 00000KT 10SM CLR 32/22 A2997 RMK A01
KGSB 012222Z AUTO 21006G21KT 4SM -RA BR OVC008 22/22 A3002 RMK AO2 CIG 005V008
KGSH 012153Z AUTO 00000KT 10SM FEW110 23/16 A3007 RMK AO2 SLP181 T02330156
KGSO 012213Z 07009KT 1 1/2SM -RA BR OVC009 19/19 A3010 RMK AO2 SFC VIS 2 P0004
KGSP 012153Z 04010KT 10SM OVC020 21/17 A3009 RMK AO2 SLP180 T02110167
KGTB 012158Z AUTO 27007KT 9SM CLR 26/15 A3013 RMK AO2 SLP201 T02570148
KGTF 012153Z 08006KT 10SM CLR 33/05 A3013 RMK AO2 SLP168 T03280050
KGTR 012145Z 34005KT 10SM BKN100 28/19 A3000
KGTU 012152Z 02009KT 10SM BKN042 29/18 A3000
KGUC 012215Z AUTO 01008KT 10SM CLR 17/08 A3038 RMK AO1
KGUL 012215Z AUTO 8SM CLR 32/23 A2995 RMK A01
KGUP 012153Z AUTO 02016G23KT 10SM FEW120 27/09 A3025 RMK AO2 LTG DSNT SE SLP073 T02670094
KGUS 012207Z 02010KT 10SM -RA FEW055 OVC250 23/16 A3008 RMK AO2A
KGUY 012153Z AUTO 10SM CLR 31/09 A3013 RMK AO2 SLP157 T03110089
KGVL 012153Z AUTO 11005KT 10SM FEW027 26/18 A3008 RMK AO2 SLP170 T02610183
KGVT 012215Z AUTO 35005KT 10SM SCT017 BKN026 OVC031 23/19 A3003 RMK AO2
KGVX 012215Z AUTO 23004KT 9SM CLR 30/25 A2994 RMK A01
KGWB 012215Z AUTO 29006KT 10SM CLR 25/12 A3009 RMK AO2
KGWO 012153Z AUTO 19003KT 10SM CLR 27/19 A3000 RMK AO2 RAE2058 SLP156 P0000 T02670194 TSNO
KGWR 012215Z AUTO 00000KT SCT080 28/15 A3008 RMK A01 P000
KGWW 012215Z AUTO 04009KT 3SM +RA OVC004 20/20 A3004 RMK AO2 P0007 T02030201
KGXF 012155Z 06007KT 10SM BKN150 35/15 A2989 RMK SLP101
KGXY 012215Z AUTO 10007KT 10SM CLR 27/08 A3022 RMK AO1
KGYB 012215Z AUTO 01006KT 10SM CLR 31/18 A2999 RMK AO2 T03070175
KGYH 012147Z 04011KTS 10SM BKN020 22/18 A3009
KGYI 012215Z AUTO 04003KT 10SM OVC045 25/19 A3006 RMK AO2 T02520186
KGYL 012214Z AUTO 24003KT 10SM CLR 27/15 A3005 RMK AO2 T02700149
KGYR 012155Z 24006KT 10SM SCT080 SCT180 BKN250 33/18 A2989
KGYY 012145Z 13008KT 10SM BKN130 25/14 A3007
KGZH 012153Z AUTO 00000KT 10SM CLR 31/20 A2998 RMK AO2 SLP147 T03060200
KGZL 012215Z AUTO 13005KT 10SM SCT035 27/16 A3004 RMK AO2
KH21 012215Z AUTO 02004KT 10SM CLR 28/17 A3006 RMK AO2
KHAE 012215Z AUTO 00000KT 10SM CLR 28/13 A3006 RMK AO2 LTG DSNT SE
KHAF 012215Z AUTO 30010KT 7SM SCT008 17/14 A2995 RMK AO2
KHAI 012214Z AUTO 21005KT 10SM CLR 24/17 A3009 RMK AO2 T02350165
KHAO 012153Z AUTO 00000KT 10SM CLR 28/15 A3006 RMK AO2 SLP174 T02830150
KHBG 012153Z AUTO 00000KT 10SM -RA SCT047 BKN070 BKN110 27/19 A3001 RMK AO2 RAB2054E03B34 SLP159 P0000 T02720194
KHBI 012215Z AUTO 06005KT 10SM BKN010 OVC014 20/19 A3011 RMK AO2 T01950187
KHBR 012153Z AUTO VRB04KT 10SM CLR 29/12 A3007 RMK AO2 SLP168 T02890117 $
KHBV 012215Z AUTO 09009KT 040V110 10SM CLR 37/17 A2988 RMK AO2 T03670168
KHCD 012212Z AUTO 27005KT 10SM CLR 28/17 A3007 RMK AO2 T02820165
KHCO 012213Z AUTO 03005KT 10SM CLR 27/16 A3005 RMK AO2
KHDC 012215Z AUTO 12004KT 10SM SCT100 29/20 A2998 RMK AO2
KHDE 012215Z AUTO 07003KT 10SM CLR 29/13 A3010 RMK AO2 T02920134
KHDN 012215Z AUTO 12006KT 10SM CLR 27/03 A3024 RMK AO1
KHDO 012151Z AUTO 06007KT 10SM FEW060 SCT110 34/20 A2996 RMK AO2 SLP129 T03440200 $
KHEF 012155Z 13003KT 10SM CLR 24/19 A3016
KHEI 012153Z AUTO VRB06KT 10SM CLR 31/11 A3005 RMK AO2 SLP161 T03110111
KHEQ 012215Z AUTO 12006KT 10SM CLR 31/06 A3016 RMK AO2
KHEY 012153Z AUTO 36008KT 10SM BKN050 OVC075 30/19 A2996 RMK AO2 SLP034 T03000189
KHEZ 012215Z AUTO 13009KT 7SM FEW010 OVC025 23/21 A2997 RMK AO1
KHFD 012153Z 17015G19KT 10SM SCT029 25/18 A3020 RMK AO2 LTG DSNT W-N SLP225 T02500183
KHFF 012205Z AUTO 04008KT 12SM OVC006 21/20 A3006 RMK AO2 LTG DSNT E
KHFJ 012215Z AUTO 10005KT 10SM CLR 27/15 A3006 RMK AO2
KHGR 012153Z 17006KT 10SM CLR 24/17 A3016 RMK AO2 SLP219 T02390167
KHHF 012215Z AUTO 05003KT 10SM SCT080 31/13 A3009 RMK AO2 T03090133
KHHG 012215Z AUTO 36006KT 10SM CLR 23/14 A3008 RMK AO2 LTG DSNT SW T02300137
KHHR 012153Z 25009KT 10SM CLR 26/18 A2989 RMK AO2 SLP119 T02560183
KHHV 012215Z AUTO 00000KT 9SM CLR 29/23 A2995 RMK A01
KHHW 012215Z AUTO 06003KT 10SM OVC049 25/19 A3004 RMK AO2 T02460189
KHIB 012153Z AUTO VRB03KT 10SM FEW055 27/13 A3005 RMK AO2 SLP177 T02720133
KHIE 012152Z AUTO 25004KT 9SM CLR 26/14 A3017 RMK AO2 SLP217 T02610144
KHIF 012158Z AUTO 28007KT 10SM CLR 30/12 A3015 RMK AO2 SLP150 T02960116
KHII 012210Z AUTO 15009KT 10SM CLR 42/12 A2980 RMK AO2
KHIO 012153Z VRB04KT 10SM CLR 32/13 A2993 RMK AO2 SLP130 T03220128
KHJH 012215Z AUTO 03010G14KT 10SM CLR 29/14 A3006 RMK AO2 T02880140
KHJO 012153Z AUTO 32010KT 10SM BKN110 41/04 A2980 RMK AO2 SLP091 T04060044
KHKA 012153Z AUTO VRB05KT 10SM FEW110 29/17 A3003 RMK AO2 SLP165 T02940172 $
KHKS 012153Z 11005KT 10SM OVC060 26/18 A3000 RMK AO2 SLP152 T02610178
KHKY 012153Z AUTO 01006KT 1SM -RA BR OVC003 17/17 A3013 RMK AO2 SLP185 P0008 T01720167 TSNO
KHLC 012153Z AUTO 07010KT 10SM FEW095 33/09 A3009 RMK AO2 SLP165 T03330089
KHLG 012153Z 10004KT 10SM BKN120 27/14 A3009 RMK AO2 SLP185 T02720144
KHLN 012153Z 04010G14KT 10SM CLR 34/03 A3010 RMK AO2 SLP169 T03440028
KHLR 012156Z 01005KT 10SM FEW039 OVC049 29/18 A3001 RMK AO2 SLPNO T02940183 $
KHLX 012215Z AUTO 08006KT 10SM -DZ SCT006 BKN030 OVC035 17/15 A3019 RMK AO2 T01730149
KHMN 012158Z AUTO 20006KT 10SM FEW030 SCT036 25/18 A3013 RMK AO2 SLP141
KHND 012156Z AUTO 26004KT 10SM CLR 39/11 A2991 RMK AO2 TSNO T03940111 SLP095
KHNR 012215Z AUTO 00000KT 7SM CLR 27/16 A3012 RMK AO2
KHNZ 012215Z AUTO 04008KT 4SM +RA SCT009 BKN019 OVC050 17/16 A3010 RMK AO2 T01730161
KHOB 012150Z 02008KT 10SM SCT050 27/13 A3016
KHOE 012215Z AUTO 03004KT 4SM RA SCT028 BKN050 OVC060 27/25 A2996 RMK AO2 LTG DSNT NE AND E
KHON 012155Z AUTO 12006KT 10SM CLR 29/13 A3005 RMK AO2 SLP170 T02940133
KHOP 012158Z AUTO 33004KT 10SM FEW090 31/12 A3001 RMK AO2 SLP159 T03070121
KHOT 012153Z AUTO 18006KT 9SM FEW015 BKN049 OVC055 22/19 A3005 RMK AO2 SLP171 T02220194
KHOU 012153Z 31010KT 10SM FEW035 BKN050 OVC180 31/21 A2993 RMK AO2 SLP139 T03060211
KHPN 012156Z 16008KT 8SM SCT040 SCT065 BKN090 23/20 A3020 RMK AO2 RAB37E42 SLP221 P0000 T02330200
KHQI 012215Z AUTO 26006KT 9SM CLR 31/25 A2994 RMK A01
KHQM 012153Z AUTO 24011KT 5SM HZ CLR 23/16 A3003 RMK AO2 SLP171 T02280156
KHQU 012215Z AUTO 03007KT 10SM SCT015 24/23 A3008 RMK AO1 T02380225
KHQZ 012150Z 33008KT 10SM SCT027 OVC034 24/19 A3003
KHRI 012153Z AUTO 35006KT 10SM CLR 38/11 A2987 RMK AO2 SLP107 T03780111
KHRJ 012215Z AUTO 03008KT 10SM OVC007 21/20 A3005 RMK AO2 T02050202
KHRL 012152Z 14013G20KT 10SM SCT060 37/22 A2985 RMK AO2 SLP109 T03670222
KHRO 012153Z AUTO VRB05KT 10SM FEW034 26/17 A3008 RMK AO2 SLP173 T02560172
KHRT 012158Z AUTO 22005KT 10SM CLR 30/19 A2995 RMK AO2 SLP144 T02970190 $
KHRX 012215Z AUTO 16005KT 10SM CLR 26/13 A3019 RMK AO2 T02630129
KHSA 012055Z VRB04KT 7SM CLR A2999
KHSB 012215Z AUTO 00000KT 10SM CLR 28/17 A3005 RMK AO2 T02830173
KHSE 012151Z AUTO 12010KT 4SM RA BR BKN100 BKN120 23/23 A3010 RMK AO2 SLP193 P0012 T02330228 TSNO
KHSI 012153Z AUTO 04011KT 10SM CLR 28/12 A3010 RMK AO2 SLP180 T02830117
KHSP 012215Z AUTO 13006KT 10SM SCT021 OVC034 17/12 A3026 RMK AO2 T01660115
KHST 012158Z AUTO 30002KT 10SM FEW038 31/23 A2994 RMK AO2 LTG DSNT NW SLP142 T03100230
KHSV 012153Z 00000KT 10SM SCT045 SCT085 BKN150 31/18 A3001 RMK AO2 SLP155 T03110183
KHTL 012153Z AUTO 18004KT 10SM CLR 26/13 A3008 RMK AO2 SLP185 T02560128
KHTO 012158Z 19006KT 10SM OVC100 23/21 A3024
KHTS 012151Z 02005KT 10SM SCT046 SCT060 26/18 A3004 RMK AO2 SLP168 T02560183
KHUA 011955Z 00000KT 7SM SCT041 BKN062 29/18 A3005 RMK LAST
KHUF 012153Z 00000KT 10SM BKN100 27/17 A3006 RMK AO2 SLP175 T02670167 $
KHUL 012153Z AUTO 21008KT 10SM CLR 26/12 A3015 RMK AO2 SLP210 T02560122
KHUM 012147Z 00000KT 7SM OVC100 28/20 A2996 RMK ATIS Q VA RY18 MS
KHUT 012152Z 36010KT 10SM CLR 33/11 A3003 RMK AO2 SLP147 T03330111
KHVN 012153Z 19007KT 10SM SCT060 OVC200 26/20 A3022 RMK AO2 SLP234 T02560200
KHVR 012153Z AUTO 34008G15KT 10SM CLR 34/10 A3007 RMK AO2 SLP163 T03390100
KHVS 012215Z AUTO 36007KT 10SM BKN011 26/16 A3003 RMK AO2 LTG DSNT S
KHWD 012154Z 30009KT 10SM CLR 25/15 A2990 RMK AO2 SLP132 T02500150
KHWO 012153Z 30005KT 10SM SCT031 SCT047 BKN055 29/23 A2995 RMK AO2 LTG DSNT SW AND W SLP141 T02890228
KHWV 012156Z AUTO 19005KT 10SM FEW090 BKN120 24/20 A3023 RMK AO2 SLP234 T02390200 TSNO
KHWY 012215Z AUTO 13004KT 10SM SCT025 SCT039 25/22 A3016 RMK AO2 T02460216
KHXD 012150Z 11003KT 10SM FEW035 BKN140 28/23 A2999
KHYA 012156Z 20008KT 10SM CLR 23/17 A3023 RMK AO2 SLP237 T02280172
KHYI 012147Z 05008G16KT 10SM SCT060 33/18 A2996
KHYR 012153Z AUTO VRB03KT 8SM CLR 26/12 A3006 RMK AO2 SLP178 T02560122
KHYS 012215Z 03008KT 10SM CLR 32/11 A3007 RMK AO1
KHYW 012215Z AUTO 16005KT SCT016 26/23 A3000 RMK AO2 LTG DSNT SE PWINO
KHYX 012213Z AUTO 22004KT 10SM SCT055 SCT065 26/15 A3007 RMK AO2
KHZE 012215Z AUTO 09004KT 10SM CLR 26/15 A3006 RMK AO2
KHZL 012215Z AUTO 15005KT 10SM SCT028 SCT080 BKN120 20/16 A3023 RMK AO2
KHZR 012215Z AUTO 11007KT 10SM SCT015 BKN041 OVC055 28/23 A2994 RMK AO2 LTG DSNT SW T02760234
KHZX 012207Z AUTO 24006KT 10SM BKN050 BKN060 BKN075 26/16 A3005 RMK AO2
KHZY 012153Z AUTO 36004KT 10SM CLR 26/17 A3010 RMK AO2 SLP189 T02560172
KI16 012215Z AUTO 10SM OVC120 26/17 A3016 RMK AO2 T02620172
KI35 012215Z AUTO 10SM SCT039 SCT048 SCT120 26/16 A3007 RMK AO1
KI39 012215Z AUTO 00000KT 10SM SCT110 27/16 A3004 RMK AO2
KI69 012214Z AUTO 17003KT 10SM CLR 28/15 A3005 RMK AO1
KI75 012215Z AUTO 00000KT 10SM SCT095 28/16 A3007 RMK AO2 T02840155
KIAB 012158Z AUTO 14009KT 10SM FEW075 30/16 A3003 RMK AO2 SLP160 T02960158 $
KIAD 012152Z 17004KT 10SM FEW030 BKN130 OVC200 24/16 A3016 RMK AO2 SLP209 TCU DSNT SE T02440161
KIAG 012153Z 23006KT 10SM FEW043 FEW250 26/14 A3009 RMK AO2 SLP187 T02610144
KIAH 012153Z 36010KT 10SM SCT038 BKN050 BKN180 30/21 A2994 RMK AO2 SLP137 T03000206
KIBM 012215Z AUTO 18004KT 10SM SCT100 28/05 A3021 RMK AO2 T02840046
KICL 012215Z AUTO 00000KT 10SM CLR 27/17 A3008 RMK AO2
KICR 012153Z AUTO 14006KT 10SM CLR 34/10 A3004 RMK AO2 SLP152 T03390100
KICT 012153Z 01008KT 10SM FEW080 SCT100 SCT250 32/12 A3002 RMK AO2 SLP150 T03220122
KIDA 012153Z 11016G22KT 10SM SCT120TCU 32/04 A3015 RMK AO2 SLP163 SHRA ALQDS MOV NE T03220039
KIDI 012215Z AUTO 15005KT 10SM FEW046 BKN060 OVC100 25/17 A3016 RMK A01
KIDP 012215Z AUTO 20007KT 10SM CLR 28/17 A3005 RMK AO2
KIEN 012215Z AUTO 05016G28KT 8SM CLR 28/07 A3010 RMK AO2 PK WND 02028/2159 WSHFT 2148 LTG DSNT E T02830072
KIFA 012215Z AUTO 00000KT 7SM CLR 27/14 A3009 RMK AO2 T02700137
KIFP 012215Z AUTO 17014G18KT 10SM CLR 41/13 A2979 RMK AO2
KIGM 012151Z AUTO 19016G21KT 10SM CLR 36/10 A3004 RMK AO2 SLP090 T03560100
KIGQ 012215Z AUTO 17004KT 10SM CLR 23/14 A3008 RMK AO2 LTG DSNT SW AND W T02330140
KIGX 012156Z AUTO 05007KT 4SM -RA BR BKN006 BKN027 OVC035 18/17 A3010 RMK AO2 CIG 004V010 SLP190 P0010 T01830172 $
KIIB 012215Z AUTO 31004KT 10SM CLR 27/15 A3006 RMK AO2
KIIY 012215Z AUTO 04004KT 10SM OVC021 25/23 A3005 RMK AO2 LTG DSNT S
KIJD 012152Z AUTO 19010KT 10SM FEW110 24/19 A3022 RMK AO2 LTG DSNT NW SLP230 T02390189
KIJX 012215Z AUTO 12005KT 10SM SCT110 24/19 A3008 RMK AO2 LTG DSNT SE T02380188
KIKK 012215Z AUTO 06008G16KT 10SM -DZ BKN050 BKN070 OVC100 21/16 A3010 RMK AO2 LTG DSNT ALQS T02080164
KIKT 012215Z AUTO 02005KT 10SM CLR 29/19 A2996 RMK A01
KIKV 012215Z AUTO 02003KT 10SM CLR 28/15 A3006 RMK AO2
KIKW 012214Z AUTO 00000KT 10SM CLR 27/13 A3006 RMK AO2 T02650134
KILE 012215Z AUTO 34007KT 10SM OVC050 28/17 A3001 RMK AO1
KILG 012151Z 10005KT 10SM CLR 22/20 A3019 RMK AO2 SLP224 T02220200
KILM 012153Z 18006KT 10SM FEW060 26/22 A3003 RMK AO2 SLP167 T02610217 $
KILN 012154Z AUTO 00000KT 10SM CLR 27/16 A3007 RMK AO2 SLP175 T02670156
KIML 012153Z AUTO 04005KT 10SM CLR 32/05 A3013 RMK AO2 SLP171 T03170050
KIMM 012215Z AUTO 03007KT 8SM CLR 31/26 A2993 RMK A01 P000
KIMT 012154Z AUTO 29007KT 10SM CLR 27/09 A3005 RMK AO2 SLP173 T02670089 TSNO
KIND 012154Z COR 32009KT 10SM TS SCT050CB BKN090 BKN250 22/16 A3007 RMK AO2 WSHFT 2127 TSB51 SLP179 OCNL LTGCG VC W-NW TS W-NW MOV NE T02220156
KINF 012215Z AUTO 33005KT 7SM SCT060 31/17 A2995 RMK AO2
KINJ 012215Z AUTO 02008KT 10SM OVC046 26/19 A3002 RMK AO2 T02580185
KINK 012153Z AUTO 10009G15KT 10SM FEW050 30/14 A3009 RMK AO2 SLP143 T03000144
KINL 012155Z AUTO VRB03KT 10SM CLR 26/09 A3006 RMK AO2 SLP180 T02560094
KINS 012158Z AUTO 12003KT 10SM CLR 38/07 A2997 RMK AO2 LTG DSNT NW SLP091 T03770071 $
KINT 012220Z 08005KT 8SM -RA OVC008 19/18 A3012 RMK AO2 CIG 005V012 P0000 T01940183
KINW 012156Z AUTO 28007KT 10SM FEW090 33/08 A3011 RMK AO2 SLP112 T03280078
KIOB 012215Z AUTO 08006KT 10SM SCT050 28/16 A3006 RMK AO2
KIOW 012152Z AUTO 23006KT 10SM CLR 27/16 A3006 RMK AO2 SLP175 T02670156
KIPJ 012215Z AUTO 36003KT 10SM OVC013 18/16 A3010 RMK AO2 T01800163
KIPL 012153Z AUTO 19008G19KT 10SM CLR 42/14 A2976 RMK AO2 SLP077 T04220144
KIPN 012215Z AUTO 00000KT 10SM FEW032 30/21 A2997 RMK A01
KIPT 012154Z 18012G22KT 10SM FEW037 26/18 A3011 RMK AO2 LTG DSNT SE SLP193 T02610178
KIRK 012155Z AUTO 01005KT 10SM CLR 29/15 A3007 RMK AO2 SLP179 T02890150
KIRS 012214Z AUTO 30004KT 10SM CLR 22/16 A3009 RMK AO2
KISM 012150Z 08008KT 10SM BKN050 29/24 A2995
KISN 012152Z AUTO VRB03KT 10SM CLR 29/12 A3009 RMK AO2 SLP177 T02940117
KISO 012156Z AUTO 00000KT 10SM OVC005 24/23 A3005 RMK AO2
KISP 012156Z 19006KT 10SM FEW038 SCT090 BKN130 OVC250 25/18 A3021 RMK AO2 RAE29 SLP228 P0000 T02500178
KISQ 012215Z AUTO 18004KT 10SM CLR 23/11 A3007 RMK AO2 T02260107
KISW 012216Z AUTO 19012G18KT 10SM FEW045 SCT075 BKN095 19/14 A3010 RMK AO2 LTG DSNT ALQDS RAB2156E05 TSE11 P0000 T01940139
KITH 012156Z 18005KT 10SM CLR 27/17 A3014 RMK AO2 T02720166 SLP203
KITR 012153Z AUTO VRB03KT 10SM FEW090 30/06 A3019 RMK AO2 SLP172 T03000056
KIWA 012150Z VRB05KT 45SM SCT250 35/17 A2992 RMK CB DSNT NE
KIWD 012055Z AUTO 36004KT 10SM CLR 23/11 A3006 RMK AO1
KIWI 012153Z AUTO 18006KT 10SM CLR 22/18 A3022 RMK AO2 SLP234 T02220183
KIXA 012215Z AUTO 02008KT 4SM +DZ SCT003 BKN014 OVC022 18/18 A3009 RMK AO2 P0001
KIXD 012153Z 13003KT 10SM FEW065 SCT075 BKN110 28/15 A3005 RMK AO2 SLP166 T02830150
KIYA 012215Z AUTO 16007KT 10SM SCT070 SCT075 28/23 A2992 RMK AO2 LTG DSNT W T02840227
KIZG 012154Z AUTO 17006KT 10SM CLR 26/19 A3018 RMK AO2 SLP219 T02610194
KJAC 012158Z 03011KT 10SM BKN120 24/04 A3031
KJAN 012154Z 13003KT 10SM BKN065 OVC095 26/19 A3000 RMK AO2 SLP154 T02610194
KJAS 012215Z AUTO 34010G14KT 4SM HZ BKN016 BKN023 BKN030 25/21 A2998 RMK AO2 T02540214
KJAX 012156Z 05012KT 10SM FEW036 SCT049 BKN250 31/24 A2993 RMK AO2 SLP134 T03110239
KJBR 012153Z AUTO 07005KT 10SM SCT042 BKN100 28/18 A3003 RMK AO2 SLP165 T02780178
KJCT 012151Z AUTO 06007G16KT 10SM FEW065 32/14 A3001 RMK AO2 SLP124 T03220144
KJDD 012215Z AUTO 00000KT 10SM BKN018 BKN024 OVC039 23/21 A3003 RMK AO2
KJDN 012148Z AUTO 02010G17KT 340V040 34/07 A3007 RMK AO1 SLP164 T03390067
KJEF 012153Z 00000KT 10SM CLR 28/15 A3005 RMK AO2 SLP162 T02780150
KJER 012153Z AUTO VRB05KT 10SM CLR 32/07 A3010 RMK AO2 SLP150 T03220072
KJES 012215Z AUTO 05005KT 10SM CLR 27/25 A2997 RMK AO2
KJFK 012151Z 19009KT 10SM FEW011 SCT042 BKN100 OVC180 24/21 A3022 RMK AO2 SLP232 T02390211 $
KJFX 012215Z AUTO 00000KT 10SM CLR 31/20 A3000 RMK A02 P-128
KJFZ 012215Z AUTO 13005KT 10SM CLR 23/15 A3017 RMK AO2 T02270148
KJGG 012215Z AUTO 04003KT 3SM SCT014 SCT021 SCT045 22/20 A3013 RMK AO1 P0002
KJHW 012215Z AUTO 23004KT 10SM FEW100 25/12 A3013 RMK AO1
KJKA 012215Z AUTO 27005KT 10SM CLR 28/22 A2997 RMK AO2 T02820216
KJKJ 012215Z AUTO 01007KT 10SM CLR 27/12 A3007 RMK AO2
KJKL 012153Z AUTO 00000KT 10SM SCT045 26/16 A3006 RMK AO2 SLP166 T02610161
KJLN 012153Z 00000KT 10SM SCT055 29/14 A3006 RMK AO2 SLP168 T02890144
KJMR 012213Z AUTO 31003KT 10SM CLR 26/15 A3007 RMK AO2
KJMS 012156Z AUTO 13003KT 10SM CLR 28/14 A3007 RMK AO2 SLP179 T02780139
KJNX 012215Z AUTO 04006KT 10SM OVC006 21/20 A3005 RMK AO2 LTG DSNT SE
KJOT 012215Z AUTO 12011G15KT 10SM VCTS OVC050 27/13 A3008 RMK AO2 LTG DSNT NW THRU SE T02700127
KJQF 012155Z 02006KT 5SM BR OVC016 21/19 A3012
KJSO 012215Z AUTO 36006KT 10SM SCT013 OVC021 22/20 A3003 RMK AO2 T02280199
KJST 012154Z AUTO 15011G16KT 10SM CLR 22/14 A3017 RMK AO2 SLP206 T02220139
KJSV 012215Z AUTO 11005KT 10SM SCT033 28/18 A3004 RMK AO2
KJTC 012215Z AUTO 00000KT 10SM CLR 23/09 A3030 RMK AO2 LTG DSNT S
KJVL 012145Z 30005KT 10SM SCT120 29/09 A3004
KJVW 012215Z AUTO 10005KT 10SM CLR 25/22 A2999 RMK AO2
KJWG 012215Z AUTO 08003KT 10SM CLR 30/19 A3007 RMK AO2 T03000186
KJWY 012215Z AUTO 36007KT 10SM SCT039 OVC046 25/18 A3003 RMK AO2 T02500176
KJXI 012215Z AUTO 34005KT 10SM BKN015 BKN022 OVC033 23/21 A3003 RMK AO2
KJXN 012156Z 26005KT 10SM CLR 25/16 A3008 RMK AO2 LTG DSNT NW SLP182 T02500156
KJYG 012215Z AUTO 00000KT 10SM CLR 30/13 A3008 RMK AO2
KJYL 012215Z AUTO 11006KT 7SM -VCTSRA SCT035 BKN070 OVC090 24/23 A3001 RMK AO2 LTG DSNT NE THRU SW T02360230
KJYM 012215Z AUTO 29003KT 10SM CLR 25/16 A3010 RMK AO2 T02500160
KJYO 012215Z AUTO 00000KT 10SM SCT065 SCT110 24/20 A3016 RMK AO2
KJYR 012215Z AUTO 02005KT 10SM FEW039 27/17 A3010 RMK AO2
KJZI 012235Z AUTO 00000KT 10SM BKN017 27/19 A2999 RMK A02 LTG DSNT SE AND S P000
KKLS 012215Z AUTO 34007KT 260V360 10SM CLR 31/13 A2998 RMK AO1
KL18 012215Z AUTO 20006KT 10SM CLR 28/17 A2991 RMK AO2
KL35 012215Z AUTO 00000KT 10SM SCT090 21/10 A3031 RMK AO2
KL38 012215Z AUTO 00000KT 10SM SCT006 SCT040 27/25 A2995 RMK AO2 LTG DSNT W T02660253
KLAA 012153Z AUTO 10010KT 10SM FEW080 29/11 A3015 RMK AO2 SLP165 T02940106
KLAF 012154Z 36004KT 10SM FEW033 SCT090 20/17 A3007 RMK AO2 LTG DSNT E-SW RAE50 TSE11 SLP179 P0004 T02000167 $
KLAL 012156Z 33005KT 12SM SCT049 33/20 A2993
KLAM 012215Z AUTO 17003KT 10SM CLR 20/11 A3033 RMK AO2 T02030105
KLAN 012153Z 03009KT 4SM -RA SCT060 SCT110 18/14 A3010 RMK AO2 PK WND 29026/2123 WSHFT 2132 RAB2058 SLP190 VC LTG N P0074 T01830139
KLAR 012153Z AUTO 14010G18KT 10SM CLR 23/02 A3035 RMK AO2 SLP179 T02280022
KLAS 012156Z 07007KT 030V110 10SM FEW110 SCT160 SCT220 41/10 A2985 RMK AO2 SLP073 CB DSNT N AND S AND NW T04110100
KLAW 012153Z 16003KT 10SM CLR 31/15 A3004 RMK AO2 SLP161 T03060150
KLAX 012153Z 27012G18KT 10SM FEW050 SCT250 23/17 A2989 RMK AO2 SLP121 T02330172
KLBB 012153Z 03006KT 10SM BKN120 27/10 A3015 RMK AO2 SLP165 T02670100
KLBE 012145Z 15007KT 10SM FEW085 BKN120 25/18 A3012
KLBF 012153Z AUTO 00000KT 10SM FEW120 31/09 A3010 RMK AO2 RAE29 SLP170 P0000 T03060094
KLBL 012215Z AUTO 07004KT 10SM SCT080 31/12 A3014 RMK AO1
KLBR 012215Z AUTO 36005KT 3SM SCT017 SCT022 BKN041 25/21 A3003 RMK AO1 T02460209
KLBT 012221Z AUTO 36010KT 10SM OVC007 24/22 A3001 RMK AO2 T02390217
KLBX 012153Z AUTO 22004KT 10SM -RA OVC060 29/25 A2993 RMK AO2 RAB49 SLP135 P0000 T02890250
KLCG 012215Z AUTO 13005KT 10SM CLR 28/16 A3009 RMK AO2 T02810162
KLCH 012223Z 32008KT 8SM FEW030 SCT035 BKN047 30/23 A2991 RMK AO2 LTG DSNT E-S T03000233
KLCI 012215Z AUTO 18009KT 10SM 26/17 A3017 RMK AO1
KLCK 012215Z AUTO 15003KT 10SM CLR 29/12 A3005 RMK AO2 T02910115
KLDJ 012215Z AUTO 17004KT 10SM CLR 26/22 A3021 RMK AO2 T02580215
KLDM 012215Z AUTO 24005KT 10SM CLR 24/16 A3007 RMK AO2 T02360158
KLEB 012153Z 17005KT 10SM CLR 27/18 A3015 RMK AO2 SLP201 T02670178
KLEE 012153Z AUTO 00000KT 10SM SCT049 33/21 A2994 RMK AO2 SLP138 T03330206
KLEW 012215Z AUTO 17008KT 10SM CLR 22/18 A3020 RMK AO1
KLEX 012154Z 00000KT 10SM FEW065 30/14 A3005 RMK AO2 SLP167 T03000144
KLFI 012223Z AUTO 08013KT 1 1/2SM RA BR FEW022 OVC050 23/22 A3010 RMK AO2 VIS 1 1/2V2 1/2 $
KLFK 012222Z AUTO 35005KT 10SM OVC016 24/21 A2998 RMK AO2 T02440206
KLFT 012200Z 12004KT 10SM SCT037 BKN060 29/23 A2992 RMK AO2 LTG DSNT N T02940233
KLGA 012151Z 17009KT 10SM FEW030 BKN130 OVC250 26/19 A3019 RMK AO2 SLP224 T02560189
KLGB 012153Z 18004KT 10SM CLR 26/18 A2987 RMK AO2 SLP115 TCU DSNT E T02610183
KLGC 012215Z AUTO 08003KT 10SM SCT029 BKN043 OVC090 29/23 A3001 RMK AO2 T02940230
KLGD 012215Z AUTO 00000KT 10SM CLR 31/09 A3002 RMK AO1
KLGU 012151Z AUTO 24007KT 10SM CLR 32/07 A3011 RMK AO2 SLP144 T03220072
KLHB 012215Z AUTO 02007KT 10SM OVC060 27/20 A2999 RMK AO2 T02710201
KLHM 012215Z AUTO 26005KT 10SM CLR 41/00 A2980 RMK AO1
KLHQ 012153Z AUTO 13007KT 070V180 10SM BKN060 28/17 A3007 RMK AO2 SLP175 T02830167
KLHW 012158Z AUTO 05005KT 10SM CLR 27/25 A2997 RMK AO2 LTG DSNT N AND SW SLP151 T02690248
KLHX 012153Z AUTO 09008KT 10SM CLR 27/12 A3019 RMK AO2 SLP166 T02670122
KLHZ 012215Z AUTO 04008G14KT 5SM RA OVC009 17/17 A3010 RMK AO2 P0001
KLIC 012155Z AUTO 16010G17KT 130V190 10SM CLR 27/04 A3027 RMK AO2 SLP183 T02670044
KLIT 012153Z 05005KT 10SM FEW045 OVC060 26/19 A3003 RMK AO2 SLP170 T02560189
KLJF 012213Z AUTO 24003KT 10SM CLR 28/16 A3007 RMK AO2
KLKR 012215Z AUTO 04004KT 10SM -RA BKN008 BKN012 OVC019 23/23 A3005 RMK AO2
KLKU 012215Z AUTO 00000KT 10SM SCT050 22/19 A3015 RMK AO2
KLKV 012215Z AUTO 00000KT 9SM CLR 32/03 A3011 RMK AO1
KLLJ 012155Z AUTO 35005KT 6SM -RA FEW055 BKN090 OVC110 24/10 A3017 RMK AO2 LTG DSNT N RAB44 SLP155 P0005 T02440100
KLLQ 012153Z AUTO 00000KT 5SM -RA BR SCT047 OVC070 22/21 A3001 RMK AO2 SLP160 P0008 T02220206
KLMO 012214Z AUTO 10003KT 10SM SCT090 27/05 A3025 RMK AO2 T02700053
KLMT 012153Z 12004KT 10SM FU CLR 32/00 A3006 RMK AO2 SLP125 T03220000
KLNC 012215Z AUTO 02006KT 10SM OVC035 26/18 A3004 RMK AO2 T02550178
KLND 012153Z AUTO 01007KT 10SM CLR 31/M01 A3022 RMK AO2 SLP160 T03061006 TSNO
KLNK 012154Z 10007KT 10SM FEW045 28/16 A3008 RMK AO2 SLP175 T02830161
KLNL 012215Z AUTO 32004KT 10SM BKN050 23/10 A3010 RMK AO2 T02270104
KLNP 012215Z AUTO 16003KT 10SM SCT026 SCT033 24/15 A3015 RMK AO2
KLNR 012156Z AUTO 30006KT 10SM CLR 29/16 A3003 RMK AO2 SLP162 T02940156
KLNS 012153Z 14009KT 9SM FEW034 OVC110 22/19 A3018 RMK AO2 RAB07E16 SLP218 P0000 T02220194
KLOL 012153Z AUTO VRB06KT 10SM CLR 34/05 A3004 RMK AO2 SLP124 T03440050
KLOM 012215Z AUTO 00000KT 10SM OVC100 22/19 A3019 RMK AO1
KLOR 012153Z AUTO 03004KT 10SM FEW060 31/19 A2995 RMK AO2 SLP138 T03060194 $
KLOT 012215Z AUTO 10007G10KT 10SM BKN039 BKN049 OVC055 24/16 A3008 RMK AO2 T02370155 TSNO
KLOU 012153Z 10005KT 10SM CLR 29/12 A3003 RMK AO2 SLP165 T02940117
KLOZ 012153Z AUTO 00000KT 10SM FEW049 BKN080 28/16 A3005 RMK AO2 SLP165 T02780161
KLPC 012215Z AUTO 26014KT 10SM CLR 22/14 A2994 RMK AO1
KLPR 012153Z AUTO 03006KT 9SM CLR 29/17 A3008 RMK AO2 SLP182 T02890172 TSNO
KLQK 012215Z AUTO 06007KT 030V100 10SM BKN024 22/22 A3008 RMK AO2 T02210223
KLRD 012156Z VRB06KT 10SM CLR 38/18 A2989 RMK AO2 T03830183 SLP108
KLRF 012158Z AUTO 02004KT 10SM BKN060 25/21 A3004 RMK AO2 SLP173 T02510207
KLRJ 012215Z AUTO 00000KT 10SM OVC055 28/15 A3009 RMK AO2
KLRO 012215Z AUTO 11003KT 9SM CLR 27/24 A2998 RMK AO2
KLRU 012215Z AUTO 16005KT 10SM CLR 25/16 A3016 RMK AO2 T02540161 PWINO
KLSB 012215Z AUTO 19007KT 10SM CLR 24/14 A3011 RMK AO2 LTG DSNT ALQS
KLSE 012153Z 26008KT 10SM CLR 29/15 A3004 RMK AO2 SLP161 T02940150
KLSF 012158Z AUTO 03004KT 10SM CLR 28/21 A2998 RMK AO2 SLP153 T02810205
KLSV 012158Z AUTO VRB05KT 10SM CLR 40/12 A2986 RMK AO2 SLP081 T04010120 $
KLTS 012158Z 22004KT 10SM CLR 29/17 A3007 RMK AO2A SLP170 T02850171 RVRNO $
KLUA 012215Z AUTO 14003KT 10SM OVC065 23/15 A3017 RMK AO2
KLUD 012215Z AUTO 05008KT 10SM SCT047 27/18 A3004 RMK AO2 T02730180
KLUF 012158Z VRB05KT 10SM FEW150 BKN250 35/17 A2987 RMK AO2A SLP101 T03520165 $
KLUK 012153Z 07003KT 10SM FEW085 BKN110 28/16 A3004 RMK AO2 SLP170 T02830161
KLUM 012215Z AUTO 29006KT 10SM CLR 28/13 A3004 RMK AO2 T02820133
KLUX 012215Z AUTO 02007KT 10SM OVC011 21/21 A3008 RMK AO2
KLVJ 012153Z AUTO 33011KT 10SM OVC060 31/22 A2994 RMK AO2 SLP138 T03110217
KLVK 012153Z 29011KT 10SM CLR 38/02 A2985 RMK AO2 SLP102 T03780022
KLVM 012211Z AUTO 06010G17KT 10SM CLR 34/01 A3015 RMK AO2 WSHFT 2151 LTG DSNT SW T03390006
KLVN 012213Z AUTO 24003KT 10SM CLR 27/16 A3005 RMK AO2
KLVS 012153Z AUTO 18011KT 10SM -RA SCT029 BKN050 OVC060 18/13 A3034 RMK AO2 RAB34 SLP188 P0000 T01830133
KLWA 012216Z AUTO 28004KT 10SM CLR 25/16 A3007 RMK AO2 T02510159
KLWB 012215Z AUTO 09005KT 10SM SCT044 22/13 A3019 RMK AO2 T02210131
KLWC 012152Z AUTO 12007KT 10SM CLR 30/17 A3003 RMK AO2 SLP161 T03000167
KLWD 012153Z AUTO VRB04KT 10SM FEW050 27/16 A3007 RMK AO2 SLP175 T02720161
KLWM 012121Z 01024G35KT 1/2SM +TSRA FG SCT019 BKN030 OVC046 21/18 A3021 RMK AO2 PK WND 01035/2121 LTG DSNT N AND NE AND SW RAB11 TSE03B13 P0036 T02060183
KLWS 012156Z AUTO 09005KT 10SM CLR 37/06 A2993 RMK AO2 SLP118 T03670061
KLWT 012154Z AUTO 27004KT 10SM CLR 31/02 A3017 RMK AO2 SLP174 T03110022
KLWV 012153Z AUTO 18005KT 9SM CLR 28/16 A3004 RMK AO2 SLP169 T02780161
KLXL 012218Z AUTO 00000KT 10SM SCT055 25/15 A3006 RMK AO2
KLXN 012215Z AUTO 15010KT 10SM CLR 31/14 A3010 RMK AO2 T03060137
KLXT 012153Z AUTO VRB05KT 10SM FEW050 FEW060 SCT100 28/16 A3006 RMK AO2 SLP172 T02780156
KLXV 012153Z AUTO 17011KT 10SM BKN048 BKN060 09/07 A3053 RMK AO2 RAE53 SLP201 P0000 T00940067
KLXY 012215Z AUTO 02004KT 10SM SCT027 BKN032 OVC044 25/20 A3000 RMK AO2 T02450200
KLYH 012154Z 02006KT 10SM -RA BKN032 BKN050 OVC075 21/18 A3017 RMK AO2 RAB37 SLP208 P0000 T02060183
KLYV 012215Z AUTO 15003KT 10SM CLR 27/12 A3010 RMK AO2
KLZU 012145Z 08008KT 10SM BKN031 27/17 A3005 RMK ATIS N RWY 7 JW
KLZZ 012215Z AUTO 36009KT 10SM SCT046 BKN050 28/19 A3001 RMK AO2 T02840186
KM19 012156Z AUTO 07006KT 10SM FEW030 OVC075 27/20 A3005 RMK AO2 T02720200 SLP171
KM25 012215Z AUTO 32006KT 10SM SCT095 29/16 A3003 RMK AO2
KM30 012215Z AUTO 23003KT 10SM CLR 30/13 A3002 RMK AO2 LTG DSNT N T02960127
KM40 012235Z AUTO 23003KT 8SM CLR 31/21 A2999 RMK AO2
KM63 012156Z AUTO 08008G16KT 5SM FEW037 SCT200 24/16 A3015 RMK AO2 LTG DSNT S SLP149 P0001 T02380158
KMAE 012153Z AUTO 31012KT 10SM FEW110 41/06 A2981 RMK AO2 SLP091 T04060061
KMAF 012153Z 04007KT 10SM -RA BKN033 27/16 A3010 RMK AO2 RAB45 SLP149 P0000 T02720156
KMAI 012153Z AUTO 31007KT 10SM CLR 31/21 A2994 RMK AO2 SLP136 T03110206
KMAN 012215Z AUTO 15003KT 10SM CLR 35/08 A2998 RMK AO1
KMAO 012215Z AUTO 00000KT 10SM SCT029 A3000 RMK AO2 LTG DSNT W AND NW
KMBG 012152Z AUTO 14011KT 10SM FEW036 FEW049 SCT100 31/16 A3000 RMK AO2 RAB35E46 SLP147 P0000 T03110156
KMBL 012215Z AUTO 28006KT 10SM CLR 24/14 A3007 RMK AO1 LTG DSNT SE
KMBS 012153Z 25005KT 10SM CLR 27/16 A3007 RMK AO2 LTG DSNT S SLP179 T02720156
KMCB 012223Z AUTO VRB04KT 3SM -RA BR SCT031 BKN042 OVC090 23/22 A2999 RMK AO2 P0004 T02330217
KMCC 012210Z AUTO 28006KT 190V300 CLR 40/05 A2982 RMK AO2
KMCD 012218Z AUTO 10006KT 10SM CLR 21/13 A3008 RMK AO2 T02050125
KMCE 012153Z AUTO 33011KT 10SM CLR 41/07 A2980 RMK AO2 SLP089 T04060067
KMCF 012158Z AUTO 30007KT 270V330 10SM CLR 33/22 A2993 RMK AO2 SLP138 T03270223
KMCI 012153Z 06005KT 10SM BKN085 29/16 A3005 RMK AO2 SLP167 T02890161
KMCJ 012215Z AUTO 30006KT 10SM FEW039 BKN050 30/20 A2990 RMK AO1
KMCK 012153Z AUTO 15004KT 10SM CLR 32/09 A3010 RMK AO2 SLP171 T03220089
KMCN 012153Z 01007KT 10SM BKN018 26/22 A3002 RMK AO2 SLP161 T02610217
KMCO 012153Z 10008KT 10SM SCT031 BKN065 BKN120 OVC250 28/24 A2994 RMK AO2 RAB2059E42 SLP138 CB DSNT SE-S MOV SW P0003 T02780244
KMCW 012153Z AUTO 01005KT 10SM BKN048 BKN060 28/17 A3009 RMK AO2 LTG DSNT SE SLP180 T02780172
KMCX 012215Z AUTO 00000KT 10SM CLR 22/15 A3008 RMK AO2 T02180146
KMDD 012215Z AUTO 06005KT 10SM -RA CLR 28/13 A3010 RMK AO2 T02800130
KMDH 012152Z AUTO 15005KT 10SM FEW050 SCT085 BKN100 28/17 A3003 RMK AO2 SLP165 T02780172
KMDJ 012215Z AUTO 00000KT 10SM CLR 29/20 A3000 RMK A01
KMDQ 012215Z AUTO 00000KT 10SM CLR 27/15 A3002 RMK AO2
KMDS 012210Z AUTO 12004KT 10SM CLR 26/13 A3010 RMK AO2
KMDT 012156Z 14003KT 10SM SCT100 BKN120 OVC250 24/19 A3016 RMK AO2 SLP212 T02440194
KMDW 012151Z 14009KT 10SM FEW039 SCT055 BKN110 BKN250 24/17 A3006 RMK AO2 SLP170 CBMAM OHD AND N MOV S CB DSNT S-W T02440167
KMDZ 012215Z AUTO 31003KT 10SM CLR 25/15 A3007 RMK AO2 LTG DSNT S T02480145
KMEB 012152Z AUTO 04009KT 10SM OVC009 23/21 A3003 RMK AO2 SLP168 T02330206 TSNO
KMEH 012156Z AUTO VRB03KT 10SM FEW100 32/06 A3008 RMK AO2 SLP154 T03170061
KMEI 012158Z AUTO 25004KT 10SM FEW055 27/19 A3000 RMK AO2 SLP155 T02720194 TSNO
KMEM 012154Z 06007KT 10SM FEW055 SCT070 BKN250 29/16 A3002 RMK AO2 SLP160 T02890156 $
KMER 012155Z 33014KT 10SM SKC 41/04 A2981
KMEZ 012215Z AUTO 36004KT 10SM SCT024 OVC034 24/20 A3006 RMK AO2
KMFD 012152Z 32006KT 7SM SCT042 BKN050 OVC110 19/17 A3012 RMK AO2 TSE29RAE41 SLP196 P0015 T01940167
KMFE 012153Z 10010KT 10SM CLR 38/20 A2985 RMK AO2 SLP105 T03830200
KMFI 012154Z AUTO 21006KT 6SM HZ FEW045 SCT110 18/14 A3008 RMK AO2 LTG DSNT E-S RAB14E49 TSB10E45 SLP185 P0002 T01780139
KMFR 012153Z AUTO VRB04KT 10SM CLR 37/10 A2988 RMK AO2 SLP102 T03670100
KMFV 012215Z AUTO 07008KT 10SM 23/18 A3012 RMK AO2
KMGC 012215Z AUTO 25004KT 10SM CLR 23/12 A3008 RMK AO2
KMGE 012158Z 10007KT 10SM SCT035 27/20 A3004 RMK AO2A SLP165 T02690202 $
KMGG 012219Z AUTO 31005KT 10SM CLR 25/16 A3006 RMK AO2 LTG DSNT NE T02510160
KMGJ 012154Z AUTO 14004KT 10SM SCT065 OVC110 23/17 A3020 RMK AO2 RAB06E33 SLP225 P0000 T02280172 TSNO
KMGM 012153Z 03006KT 10SM CLR 29/21 A2998 RMK AO2 SLP149 T02890206
KMGN 012215Z AUTO 00000KT 10SM SCT070 23/13 A3008 RMK AO2 T02310131
KMGR 012215Z AUTO 32003KT 10SM SCT075 SCT090 31/20 A2995 RMK AO2 LTG DSNT NE AND E
KMGW 012153Z 16007KT 10SM FEW100 26/17 A3012 RMK AO2 SLP192 T02560167
KMGY 012153Z AUTO 00000KT 10SM FEW120 27/16 A3006 RMK AO2 SLP171 T02670161
KMHE 012153Z AUTO VRB06KT 10SM CLR 28/13 A3008 RMK AO2 SLP178 T02830133
KMHK 012152Z VRB04KT 10SM SCT070 SCT095 32/14 A3000 RMK AO2 SLP148 T03170144
KMHR 012145Z 29007KT 10SM FEW200 40/04 A2981
KMHS 012156Z AUTO VRB03KT 10SM CLR 36/03 A3001 RMK AO2 SLP139 T03610033
KMHT 012153Z 11008KT 10SM FEW050 SCT100 BKN250 25/19 A3017 RMK AO2 SLP226 T02500194
KMHV 012215Z AUTO 24008KT 10SM CLR 39/05 A2994 RMK AO1
KMIA 012153Z COR 11006KT 10SM SCT0357 SCT060 BKN300 31/23 A2995
KMIB 012158Z AUTO 09005KT 10SM CLR 27/15 A3007 RMK AO2 SLP184 T02700151 $
KMIC 012153Z 27006KT 7SM FEW065 29/14 A3003 RMK AO2 SLP162 T02940139
KMIE 012153Z 11011KT 8SM -RA FEW055 SCT070 OVC090 22/15 A3008 RMK AO2 RAB21 SLP178 P0002 T02220150
KMIS 012215Z AUTO 00000KT 10SM CLR 29/20 A2998 RMK A01
KMIV 012154Z AUTO 14004KT 10SM -RA SCT110 24/18 A3019 RMK AO2 RAB54 SLP220 P0000 T02440183
KMIW 012153Z AUTO 00000KT 10SM FEW050 28/16 A3007 RMK AO2 SLP178 T02780156
KMJQ 012214Z AUTO 00000KT 10SM CLR 26/12 A3010 RMK AO2
KMJX 012215Z AUTO 00000KT 10SM OVC110 23/21 A3020 RMK AO1
KMKC 012154Z 09006KT 10SM FEW060 BKN095 30/16 A3003 RMK AO2 SLP162 T03000161
KMKE 012219Z 14007KT 10SM -RA SCT049CB BKN065 BKN095 24/18 A3004 RMK AO2 TSE13 CB N MOV E P0002 T02440178
KMKG 012155Z 22007KT 10SM CLR 24/14 A3007 RMK AO2 SLP181 T02440144
KMKJ 012215Z AUTO 10006KT 10SM SCT028 OVC110 20/14 A3020 RMK AO2 T01970138
KMKL 012153Z 11005KT 10SM CLR 29/16 A3002 RMK AO2 SLP162 T02890161
KMKN 012215Z AUTO 06007KT SCT060 29/14 A3004 RMK AO2 T02890137 PWINO
KMKO 012153Z AUTO VRB04KT 10SM CLR 28/18 A3005 RMK AO2 SLP169 T02780178
KMKT 012215Z AUTO 23003KT 10SM FEW050 27/14 A3007 RMK AO1
KMKY 012215Z AUTO 29006KT 10SM FEW042 32/23 A2992 RMK AO1
KMLB 012200Z 33008KT 10SM SCT015 BKN022 OVC044 27/23 A2995 RMK AO2 LTG DSNT SW-NW T02670228
KMLC 012153Z AUTO VRB03KT 10SM CLR 27/18 A3005 RMK AO2 SLP167 T02720183
KMLE 012215Z AUTO 09004KT 10SM SCT050 27/16 A3007 RMK AO2 T02710164
KMLF 012152Z AUTO 34011KT 10SM CLR 32/06 A3013 RMK AO2 SLP135 T03220056
KMLI 012152Z 00000KT 10SM CLR 28/15 A3004 RMK AO2 SLP170 T02830150
KMLJ 012215Z AUTO 09004KT 10SM SCT018 SCT090 18/13 A3003 RMK AO2 LTG DSNT S
KMLP 012153Z AUTO VRB03KT 10SM CLR 24/07 A3027 RMK AO2 SLP134 T02440067
KMLS 012153Z AUTO 33010G20KT 10SM CLR 35/03 A3004 RMK AO2 SLP148 T03500028
KMLT 012153Z AUTO 00000KT 10SM CLR 26/14 A3018 RMK AO2 SLP222 T02560144
KMLU 012219Z 05005KT 1 3/4SM BR OVC003 22/21 A2998 RMK AO2 RAE03 P0000
KMMH 012215Z AUTO 27019G24KT 4SM HZ SCT019 BKN025 OVC031 27/04 A3028 RMK AO1
KMMI 012215Z AUTO 00000KT 10SM FEW110 29/17 A3003 RMK
KMMK 012153Z AUTO 18012KT 10SM SCT022 SCT029 25/19 A3022 RMK AO2 SLP230 T02500194 TSNO
KMML 012215Z AUTO 28003KT 10SM SCT060 28/13 A3007 RMK AO1
KMMT 012158Z 34007KT 10SM FEW018 FEW035 BKN140 OVC250 27/22 A3002 RMK AO2A SLP166 T02690219
KMMU 012145Z 00000KT 7SM BKN110 22/20 A3021
KMMV 012153Z AUTO 00000KT 10SM CLR 32/12 A2993 RMK AO2 SLP135 T03220117
KMNE 012214Z AUTO 04004KT 10SM 21/19 A2999 RMK AO2
KMNH 012213Z AUTO 14010KT 10SM CLR 20/07 A3037 RMK AO2
KMNI 012215Z AUTO 32005KT 7SM TS SCT024 SCT032 OVC038 25/23 A3000 RMK AO2 LTG DSNT W THRU NE
KMNM 012215Z AUTO 11009KT 10SM CLR 24/18 A3003 RMK AO1
KMNN 012153Z AUTO 33005KT 7SM BKN095 24/14 A3009 RMK AO2 RAB08E22 SLP187 P0000 T02440144 TSNO
KMNZ 012215Z AUTO 01008G16KT 320V030 10SM SCT047 BKN050 29/16 A3004 RMK AO2 T02880160
KMOB 012156Z 32003KT 10SM FEW100 SCT200 28/21 A3000 RMK AO2 SLP155 T02780206
KMOD 012153Z 32012KT 10SM CLR 40/07 A2980 RMK AO2 SLP092 T04000072
KMOP 012216Z AUTO 25004KT 10SM CLR 26/17 A3007 RMK AO2 T02590165
KMOT 012154Z 06006KT 10SM CLR 26/16 A3007 RMK AO2 SLP177 T02610161
KMOX 012208Z AUTO 05005KT 10SM CLR 25/17 A3006 RMK AO2
KMPO 012153Z AUTO 15013G19KT 10SM FEW023 FEW041 SCT090 21/17 A3023 RMK AO2 LTG DSNT N AND NE SLP229 T02110167
KMPV 012151Z AUTO 21006KT 10SM CLR 26/14 A3019 RMK AO2 SLP222 T02610139
KMPZ 012215Z AUTO 00000KT 10SM SCT075 SCT085 28/15 A3005 RMK AO2 T02750154
KMQB 012215Z AUTO 31003KT 10SM CLR 27/17 A3007 RMK AO2 LTG DSNT W T02700166
KMQE 012154Z AUTO 18015G21KT 24/18 A3021 RMK AO1 SLP239 T02390178
KMQJ 012216Z AUTO 30003KT 10SM CLR 25/19 A3008 RMK AO1
KMQS 012215Z AUTO 00000KT 6SM BR FEW080 FEW090 20/20 A3021 RMK AO2
KMQY 012156Z 08004KT 10SM SCT090 30/17 A3003 RMK AO2 T03000172 SLP172
KMRB 012153Z 18006KT 10SM FEW095 24/16 A3016 RMK AO2 SLP211 T02440156
KMRC 012215Z AUTO 00000KT 10SM FEW110 29/18 A3002 RMK
KMRF 012215Z AUTO 11004KT 10SM OVC050 25/16 A3021 RMK AO1
KMRH 012158Z AUTO 10009KT 10SM FEW008 SCT012 BKN033 24/23 A3006 RMK AO2 SLP181 T02440228 TSNO
KMRJ 012215Z AUTO 30003KT 10SM CLR 27/12 A3006 RMK AO2
KMRN 012215Z AUTO 03008KT 010V070 10SM BKN012 BKN023 OVC050 20/17 A3017 RMK AO2 T01950170
KMRT 012213Z AUTO 00000KT 10SM CLR 26/14 A3008 RMK AO2 T02630139
KMRY 012154Z 30010KT 9SM CLR 20/14 A2994 RMK AO2 SLP149 T02000144
KMSL 012153Z AUTO 00000KT 10SM BKN100 29/18 A3002 RMK AO2 SLP160 T02890178
KMSN 012213Z 05035G45KT 7SM -TSRA SQ BKN055CB 24/15 A3006 RMK AO2 PK WND 03045/2212 WSHFT 2157 RAB12 FRQ LTGICCC N-NE TS N-NE MOV SE P0000 T02390150
KMSO 012153Z AUTO 14004KT 10SM CLR 35/M01 A3002 RMK AO2 SLP138 T03501011 TSNO
KMSP 012153Z 00000KT 8SM SCT070 29/13 A3003 RMK AO2 SLP166 T02940128
KMSS 012153Z AUTO 20008KT 10SM CLR 26/17 A3010 RMK AO2 SLP193 T02610167
KMSV 012215Z AUTO 05009KT 2 1/2SM SCT009 BKN015 OVC036 18/18 A3025 RMK AO1 TSE06
KMSY 012153Z 17007KT 9SM FEW040 BKN140 OVC250 30/19 A2996 RMK AO2 SLP147 T03000189
KMTC 012155Z 19001KT 10SM FEW050 FEW090 FEW120 FEW210 24/16 A3006 RMK SLP186 T02440159
KMTH 012153Z AUTO 15003KT 10SM BKN032 BKN060 32/24 A2992 RMK AO2 SLP130 T03170244
KMTJ 012153Z AUTO 33010KT 10SM -RA SCT090 BKN110 26/10 A3023 RMK AO2 LTG DSNT N AND S RAB52 SLP149 P0000 T02610100
KMTN 012145Z 20005KT 10SM BKN040 BKN075 OVC120 26/21 A3018
KMTO 012209Z AUTO 30009KT 7SM -RA OVC100 21/18 A3008 RMK AO2 LTG DSNT SW P0001 T02060183
KMTP 012154Z AUTO 17005KT 23/21 A3025 RMK AO1 SLP241 T02330206
KMTV 012215Z AUTO 03004KT 4SM DZ BKN016 OVC022 20/19 A3015 RMK AO2 T02000190
KMTW 012156Z AUTO 14005KT 10SM BKN055 BKN080 22/17 A3005 RMK AO2 LTG DSNT S TSB34E51 SLPNO T02220167
KMUI 012158Z AUTO VRB01KT 10SM FEW140 22/21 A3017 RMK AO2 SLP218 T02200208 $
KMUO 012158Z AUTO VRB05KT 10SM CLR 35/06 A3001 RMK AO2 SLP133 T03500060 $
KMUT 012215Z AUTO 03006KT 10SM CLR 28/17 A3005 RMK AO2
KMVE 012214Z AUTO 00000KT 10SM CLR 31/16 A3007 RMK AO2
KMVN 012215Z AUTO 13004KT 10SM CLR 28/18 A3005 RMK AO1
KMVY 012153Z 17007KT 10SM CLR 22/19 A3024 RMK AO2 SLP238 T02170189
KMWA 012147Z 04006KT 20SM SCT055 BKN080 29/17 A3004
KMWC 012210Z 33015G23KT 1 1/2 +TSRA BKN040CB OVC080 24/13 A3006 RMK TSB10, TS N MOV S
KMWH 012152Z 00000KT 10SM SCT100 BKN150 BKN200 36/07 A2993 RMK AO2 SLP127 T03610067
KMWK 012215Z AUTO 32004KT 4SM RA SCT025 BKN048 OVC065 19/17 A3012 RMK AO2 P0001 T01860171
KMWL 012153Z AUTO 06008KT 10SM BKN048 29/17 A3002 RMK AO2 SLP154 T02890167
KMWM 012214Z AUTO 00000KT 10SM CLR 27/13 A3009 RMK AO2
KMWN 012147Z 24013KT 8SM FEW/// BKN020 BKN030 BKN200 BKN220 13/08 RMK BBLO FEW N HZ VC ALQDS
KMWO 012215Z AUTO 00000KT 10SM CLR 28/12 A3007 RMK AO2 T02820122
KMWS 012200Z 23008G12KT 29/09 RMK SNOW DEPTH M
KMWT 012153Z AUTO 00000KT 9SM OVC036 23/19 A3004 RMK AO2 SLP163 T02330194
KMXF 012158Z AUTO 06005KT 10SM CLR 28/21 A2998 RMK AO2 SLP153 T02810211
KMXO 012215Z AUTO 04003KT 10SM BKN055 BKN070 28/16 A3005 RMK AO2
KMYF 012153Z 26007KT 220V290 10SM CLR 27/17 A2991 RMK AO2 SLP124 T02670172
KMYL 012151Z AUTO 22004KT 10SM BKN090 28/06 A3016 RMK AO2 LTG DSNT NE SLP162 T02780056
KMYP 012224Z AUTO 06016KT 10SM SCT005 BKN070 OVC080 07/04 A3074 RMK AO2 LTG DSNT E
KMYR 012145Z 18010KT 10SM BKN019 BKN030 27/22 A3000
KMYV 012153Z AUTO VRB03KT 10SM CLR 41/04 A2980 RMK AO2 SLP094 T04060039
KMYZ 012215Z AUTO 06009KT 10SM SCT070 SCT075 SCT085 31/15 A3001 RMK AO2
KMZG 012215Z AUTO 00000KT 10SM CLR 31/25 A2992 RMK A01
KMZH 012214Z AUTO 21008KT 10SM CLR 26/15 A3003 RMK AO2 LTG DSNT NE
KMZZ 012215Z AUTO 30004KT CLR 25/16 A3008 RMK AO2 T02480162 PWINO
KN03 012215Z AUTO 19004KT 10SM CLR 26/16 A3015 RMK AO2
KN38 012215Z AUTO 18010KT 10SM CLR 25/14 A3017 RMK AO2
KN60 012152Z AUTO 14003KT 25/18 A3006 RMK AO1 SLP174 T02500178
KNAK 012202Z AUTO 18009KT 9SM FEW025 BKN055 OVC120 24/18 A3016 RMK AO2 T02440183
KNBC 012156Z 00000KT 10SM FEW025 SCT150 BKN250 27/23 A2999 RMK AO2 SLP155 T02720228
KNBG 012155Z 18004KT 10SM SCT040 BKN120 BKN150 BKN250 29/18 A2996 RMK AO2 SLP144 T02940183 $
KNBT 012113Z AUTO 12013G18KT 10SM SCT007 SCT010 BKN050 23/23 A3008 RMK AO2 RAE07 T02330233 PNO
KNCA 012219Z 12005KT 10SM FEW008 SCT015 BKN023 25/24 A3004 RMK AO2 T02500239
KNDZ 012156Z 30005KT 10SM FEW050 BKN150 BKN200 29/19 A2996 RMK AO2 SLP132 T02940194 $
KNEW 012153Z AUTO 10007KT 7SM FEW038 SCT048 BKN070 29/21 A2997 RMK AO2 SLP142 T02890211 TSNO
KNFE 012215Z AUTO 06007KT 10SM FEW019 BKN025 OVC045 22/17 A3011 RMK AO2 RAE07 P0000 T02220172
KNFG 012154Z 23008G14KT 7SM FEW010 SCT070 SCT200 25/17 A2990 RMK AO2 SLP122 TCU DSNT N MOV W T02500172 $
KNFL 012156Z 32006KT 10SM SCT060 SCT150 BKN250 35/06 A3003 RMK AO2 SLP138 CB DSNT SW TCU DSNT E T03500056
KNFW 012152Z VRB06KT 10SM FEW038 BKN055 30/17 A3006 RMK AO2 SLP162 T03000167 CHINO N VISNO N $
KNGP 012156Z 13015KT 10SM FEW025CB SCT120 OVC250 32/26 A2991 RMK AO2 SLP127 CB DSNT NE T03170256
KNGU 012205Z 08012KT 2 1/2SM RA SCT055 BKN070 OVC090 23/20 A3012 RMK AO2 P0001 T02330200
KNHK 012152Z 11008KT 9SM -RA FEW020 BKN090 OVC110 23/16 A3015 RMK AO2 SLP210 RAB39 P0001 T02280156 $
KNID 012156Z AUTO 16012G17KT 10SM CLR 42/03 A2988 RMK AO2 SLP089 T04170033
KNIP 012153Z COR 19007KT 10SM SCT055 BKN250 34/18 A2994 RMK AO2 SLP133 T2 SET T03390178
KNJK 012156Z 09006KT 10SM FEW070 FEW110 SCT250 42/14 A2976 RMK AO2 SLP092 CB DSNT SW AND W T04220144 $
KNJM 012157Z 13009KT 10SM FEW012 SCT016 BKN032 26/22 A3006 RMK AO2 SLP181 T02560222
KNKT 012216Z 11010KT 10SM SCT010 BKN025 BKN050 24/23 A3006 RMK AO2 T02440228 $
KNKX 012155Z 30010KT 10SM FEW015 FEW070 SCT150 27/17 A2991 RMK AO2 SLP120 TCU DSNT E T02670167
KNLC 012156Z 32009KT 10SM FEW070 FEW200 42/05 A2980 RMK AO2 SLP089 TCU DSNT E RH/11 T04170050
KNMM 012156Z 25006KT 10SM BKN150 29/19 A2998 RMK AO2 SLP161 T02890194 $
KNOG 012156Z AUTO 14006KT 10SM FEW065 37/21 A2988 RMK AO2 SLP099 T03720206
KNPA 012156Z 23004KT 10SM SCT090 BKN140 OVC200 28/21 A2996 RMK AO2 SLP146 T02780211
KNQA 012150Z VRB04KT 10SM SCT042 BKN110 BKN250 29/21 A3002
KNQI 012156Z 14011KT 10SM FEW042CB SCT055 BKN130 OVC250 34/25 A2989 RMK AO2 SLP117 CB DSNT NW-NE T03440250
KNQX 012153Z VRB03KT 10SM SCT025 SCT150 BKN250 32/24 A2992 RMK AO2 SLP129 T2 SET T03170239 $
KNRB 012152Z 13011KT 10SM SCT045 BKN250 31/23 A2994 RMK AO2 SLP137 T2 SET T03110233 $
KNRS 012156Z 28010KT 10SM FEW013 FEW060 SCT200 24/18 A2992 RMK AO2 SLP130 T02390178 $
KNSE 012156Z 31005KT 9SM FEW060 BKN150 BKN250 29/19 A2996 RMK AO2 SLP132 T02890194 $
KNSI 012157Z 28013KT 10SM FEW006 BKN009 20/15 A2992 RMK AO2 SLP130 T02000150 $
KNTD 012156Z 25008KT 10SM SCT010 SCT080 24/17 A2991 RMK AO2 SLP128 T02390172 $
KNTU 012156Z 12012G18KT 7SM -RA FEW029 BKN065 OVC080 22/16 A3012 RMK AO2 RAB25 CIG 038 RWY 05R PRESRR SLP203 T2 SET P0001 T02170161
KNUC 012156Z 27013KT 10SM OVC011 22/17 A2993 RMK SLP131 T02170167
KNUI 012153Z AUTO 06003KT 9SM -RA BKN110 22/17 A3014 RMK AO2 RAB27 SLP206 P0001 T02220167
KNUQ 012156Z 34010KT 10SM CLR 25/16 A2990 RMK AO2 SLP127 T02500156
KNUW 012156Z 26003KT 10SM FEW045 SCT150 BKN250 17/11 A3003 RMK AO2 SLP174 T01720111 $
KNXF 012156Z AUTO 26010KT 7SM SCT010 24/17 A2991 RMK AO2 SLP211 T02440172 $
KNXP 012218Z COR 21008KT 10SM SCT070 BKN180 38/14 A2996 RMK AO2 T03830144
KNYC 012151Z AUTO VRB03KT 8SM FEW023 SCT027 BKN110 24/19 A3023 RMK AO2 SLP225 T02440189
KNYG 012156Z AUTO 11006KT 10SM BKN060 24/18 A3016 RMK AO2 SLP215 T02390183
KNYL 012157Z 21008KT 190V250 10SM SCT120 BKN200 42/14 A2978 RMK AO2 SLP080 T04170139
KNZY 012152Z 28009KT 10SM FEW015 FEW060 SCT120 BKN220 24/18 A2990 RMK AO2 SLP124 CB DSNT NE-SE T02440178
KO22 012215Z AUTO 25011G17KT 200V260 10SM CLR 39/M01 A2994 RMK AO1
KO54 012215Z AUTO 21006KT 160V230 10SM CLR 38/M03 A2992 RMK AO1
KO69 012215Z AUTO 31009KT 10SM CLR 26/15 A2991 RMK AO1
KO86 012215Z AUTO 26006KT 10SM CLR 38/M06 A2993 RMK AO1
KOAJ 012215Z AUTO 16006KT 10SM FEW014 BKN060 26/22 A3004 RMK AO1
KOAK 012153Z 29015KT 10SM FEW008 22/13 A2991 RMK AO2 SLP127 T02170133
KOBE 012215Z AUTO 10SM CLR 32/23 A2993 RMK AO2 LTG DSNT SW THRU N
KOCF 012150Z 30004KT 10SM FEW060 32/18 A2996
KOCH 012215Z AUTO 35006KT 10SM BKN010 OVC017 22/21 A2999 RMK AO1
KOCQ 012215Z AUTO 16003KT 10SM CLR 24/17 A3004 RMK AO1 T02400169
KOCW 012215Z AUTO 13004KT 10SM SCT005 SCT012 SCT026 23/22 A3006 RMK AO2 P0001 T02320221
KODO 012153Z AUTO 10012G17KT 10SM CLR 28/14 A3012 RMK AO2 SLP153 T02830144
KODX 012153Z AUTO 12006KT 10SM CLR 29/13 A3009 RMK AO2 SLP180 T02890128
KOEB 012214Z AUTO 29004KT 10SM CLR 25/16 A3009 RMK AO2 T02450162
KOEO 012215Z AUTO 00000KT 10SM CLR 28/14 A3007 RMK AO2 T02760138
KOFF 012158Z AUTO 06006KT 10SM FEW047 28/18 A3007 RMK AO2 SLP180 T02830178 $
KOFK 012156Z AUTO 14005KT 10SM CLR 27/13 A3009 RMK AO2 SLP180 T02720128
KOFP 012154Z AUTO 07004KT 3SM -RA BR FEW023 SCT085 BKN110 22/19 A3017 RMK AO2 SLP213 P0006 T02170194
KOGA 012215Z AUTO 18006KT 10SM CLR 31/09 A3012 RMK AO2 T03050088
KOGB 012153Z AUTO 02008KT 10SM FEW026 SCT031 BKN039 28/22 A3000 RMK AO2 LTG DSNT E AND SW SLP154 T02830217
KOGD 012153Z AUTO 30006KT 10SM CLR 31/11 A3012 RMK AO2 SLP140 T03060106
KOJA 012215Z AUTO 06003KT 10SM CLR M16/M43 A3006 RMK AO2
KOJC 012153Z VRB03KT 10SM FEW050 FEW070 SCT090 28/16 A3005 RMK AO2 SLP164 T02830156
KOKB 012152Z AUTO 24010KT 9SM CLR 24/18 A2990 RMK AO2 SLP124 T02440178
KOKC 012152Z 14006KT 10SM FEW043 BKN250 30/17 A3005 RMK AO2 SLP162 T03000172 $
KOKK 012215Z AUTO 24003KT 10SM FEW120 26/17 A3008 RMK AO1 LTG DSNT W
KOKM 012215Z AUTO 00000KT 10SM SCT040 27/18 A3004 RMK AO2 T02740181
KOKV 012215Z AUTO 15006KT 10SM CLR 23/16 A3017 RMK AO2
KOKZ 012215Z AUTO 02005KT 10SM OVC100 25/21 A3003 RMK AO2 LTG DSNT S T02530206
KOLE 012215Z AUTO 22003KT 10SM CLR 23/15 A3016 RMK AO2
KOLF 012153Z AUTO 12005KT 10SM SCT090 33/08 A3005 RMK AO2 SLP163 T03280083
KOLM 012154Z 02009KT 10SM CLR 27/11 A3001 RMK AO2 SLP161 T02670106
KOLS 012154Z AUTO 23007KT 10SM CLR 32/14 A3008 RMK AO2 LTG DSNT NE AND W SLP112 T03170144
KOLU 012215Z AUTO 13006KT 10SM CLR 27/16 A3009 RMK AO1
KOLV 012150Z 10005KT 10SM FEW045 BKN100 BKN250 28/18 A3003
KOLY 012215Z AUTO 00000KT 10SM VCTS CLR 27/18 A3005 RMK AO2 LTG DSNT NW
KOLZ 012215Z AUTO 29005KT 10SM CLR 27/15 A3007 RMK AO2
KOMA 012152Z 06009KT 10SM SCT049 SCT095 28/16 A3008 RMK AO2 SLP177 T02830161
KOMH 012215Z AUTO 06003KT 10SM SCT029 SCT035 23/17 A3017 RMK AO2
KOMK 012153Z AUTO 15007KT 10SM CLR 37/03 A2995 RMK AO2 SLP130 T03670028
KOMN 012050Z 12010KT 7SM BKN060 29/24 A2997
KONA 012216Z AUTO 28003KT 10SM SCT055 28/13 A3004 RMK AO2
KONL 012215Z AUTO 10006KT 10SM CLR 29/14 A3010 RMK AO2 T02930137
KONM 012215Z AUTO 17005KT 10SM CLR 27/12 A3016 RMK AO2 T02730123
KONO 012153Z AUTO 00000KT 10SM CLR 33/11 A2999 RMK AO2 SLP139 T03280111
KONP 012215Z AUTO 34012G19KT 7SM OVC005 16/14 A3006 RMK AO2
KONT 012153Z 26012KT 10SM FEW090 FEW300 37/16 A2987 RMK AO2 SLP092 CB DSNT NE-SE T03670161
KONX 012215Z AUTO 09003KT 10SM BKN008 OVC014 23/21 A3011 RMK AO2 P0001 T02310211
KONZ 012214Z AUTO 00000KT 10SM CLR 24/17 A3006 RMK AO2
KOOA 012215Z AUTO 34003KT 10SM CLR 27/16 A3006 RMK AO2 T02730161
KOPF 012153Z 13007KT 10SM SCT033 BKN060 31/23 A2994 RMK AO2 LTG DSNT SW AND W SLP139 T03060233
KOPL 012215Z AUTO 17006KT 10SM SCT021 OVC033 27/24 A2992 RMK AO2 LTG DSNT SW AND W T02720244
KOPM 012215Z AUTO 12013KT 7SM CLR 29/26 A2990 RMK A01
KOPN 012215Z AUTO 07004KT 10SM OVC018 25/22 A3004 RMK AO2
KOQT 012153Z AUTO VRB03KT 10SM CLR 29/17 A3004 RMK AO2 SLP158 T02890167
KOQU 012150Z 22014KT 12SM FEW025 OVC150 24/17 A3022
KORB 012213Z AUTO 00000KT 10SM CLR 26/09 A3005 RMK AO2
KORC 012215Z AUTO 00000KT 10SM SCT060 28/11 A3010 RMK AO2
KORD 012151Z 17008KT 10SM FEW040CB SCT110 BKN200 26/14 A3005 RMK AO2 SLP173 CB SW MOV S CBMAM OHD T02560144
KORE 012152Z AUTO 18007KT 10SM FEW042 SCT055 BKN110 26/19 A3018 RMK AO2 SLP219 T02610189
KORF 012222Z AUTO 08011KT 6SM -RA SCT023 BKN031 OVC055 22/18 A3011 RMK AO2 P0007 T02170178 TSNO
KORG 012215Z AUTO 27005KT 10SM VCTS OVC060 28/23 A2993 RMK AO2 LTG DSNT E AND SE T02810225
KORH 012154Z 22010KT 10SM CLR 22/17 A3023 RMK AO2 SLP234 T02220172
KORL 012153Z 10006KT 10SM BKN055 BKN070 30/24 A2994 RMK AO2 SLP140 T03000239
KORS 012215Z AUTO 10SM CLR 22/15 A3000 RMK AO2
KOSA 012215Z AUTO 04003KT 10SM SCT021 OVC034 24/20 A3003 RMK AO1 T02370203
KOSC 012214Z AUTO 10006KT 10SM CLR 21/15 A3009 RMK AO2 T02150153
KOSH 012153Z 27005KT 9SM CLR 24/17 A3005 RMK AO2 SLP168 T02440172
KOSU 012153Z 00000KT 10SM FEW070 28/15 A3007 RMK AO2 SLP176 T02780150
KOTG 012215Z AUTO 08004KT 10SM CLR 26/13 A3012 RMK AO1
KOTH 012215Z 35017G22KT 10SM OVC009 17/15 A3004 RMK AO1
KOTM 012153Z AUTO 34005KT 10SM CLR 28/16 A3004 RMK AO2 SLP168 T02780161
KOUN 012215Z AUTO 00000KT 10SM CLR 27/18 A3006 RMK AO2
KOVE 012153Z AUTO 21005KT 10SM CLR 38/13 A2982 RMK AO2 SLP099 T03830133
KOVL 012213Z AUTO 33008KT 10SM CLR 28/14 A3007 RMK AO2
KOVS 012153Z AUTO 31007KT 10SM CLR 31/15 A3004 RMK AO2 SLP172 T03060150
KOWA 012215Z AUTO 25003KT 10SM CLR 27/14 A3007 RMK AO2
KOWB 012156Z 05006KT 10SM SCT075 29/15 A3003 RMK AO2 T02940150 SLP164
KOWD 012153Z 20009G17KT 10SM CLR 25/18 A3020 RMK AO2 SLP227 T02500183
KOWP 012215Z AUTO 07003KT 10SM SCT042 29/17 A3006 RMK AO2 T02940165
KOXB 012153Z AUTO 08006KT 10SM BKN110 24/21 A3016 RMK AO2 SLP213 T02390206 TSNO
KOXC 012152Z 20010G15KT 7SM SCT017 BKN026 23/19 A3025
KOXI 012215Z AUTO 00000KT 10SM SCT120 21/15 A3007 RMK AO1 T02130145
KOXR 012151Z 26009KT 10SM CLR 22/17 A2990 RMK AO2 SLP124 T02170167
KOXV 012215Z AUTO VRB05KT 10SM FEW047 27/16 A3005 RMK AO2
KOZA 012215Z AUTO 05006KT 10SM CLR 29/12 A3008 RMK AO2
KOZR 012158Z AUTO 28004KT 10SM SCT055 30/20 A2996 RMK AO2 SLP145 T02960195
KOZW 012214Z AUTO 00000KT 10SM CLR 25/12 A3009 RMK AO2 T02510120
KP28 012156Z AUTO 06008KT 33/14 A3002 RMK AO1 SLP152 T03280144
KP53 012156Z AUTO 04011KT 18/13 A3009 RMK AO1 SLP190 T01830128
KP58 012151Z AUTO 08005KT 22/18 A3008 RMK AO1 SLP182 T02170178
KP59 012151Z AUTO VRB06KT 19/11 A3008 RMK AO1 SLP185 T01940106
KP60 012156Z AUTO 17/05 A3046 RMK AO1 SLP257 T01720050
KP68 012153Z AUTO VRB03G16KT 31/01 A3019 RMK AO1 SLP142 T03110011
KP69 012152Z AUTO 00000KT 31/17 A2992 RMK AO1 SLP105 T03060167
KP92 012153Z AUTO 13005KT 29/25 A2994 RMK AO1 SLP139 T02940250
KPAE 012153Z 23006KT 10SM CLR 23/12 A3005 RMK AO2 SLP172 T02280122
KPAH 012153Z 00000KT 10SM SCT110 31/17 A3002 RMK AO2 SLP162 T03060167
KPAM 012158Z AUTO 29009KT 10SM -DZ CLR 30/19 A2996 RMK AO2 SLP148 P0000 T03040188 $
KPAN 012215Z AUTO 34004G10KT 10SM CLR 29/12 A3016 RMK AO2 LTG DSNT SE AND S
KPAO 012147Z 34010KT 30SM FEW150 25/ A2990
KPBF 012153Z AUTO 27004KT 10SM OVC046 22/20 A3003 RMK AO2 RAB07E18 SLP167 P0000 T02220200
KPBG 012153Z AUTO 18004KT 10SM -RA FEW055 BKN090 BKN110 25/18 A3010 RMK AO2 RAB51 SLP194 P0000 T02500183
KPBH 012215Z AUTO 36007KT 10SM CLR 24/13 A3008 RMK AO2 T02350131
KPBI 012153Z 12009KT 10SM SCT027 BKN250 31/24 A2994 RMK AO2 SLP137 CB DSNT SW-NW T03110244
KPCW 012213Z AUTO 11004KT 10SM CLR 27/20 A3006 RMK AO2 $
KPCZ 012215Z AUTO 27003KT 10SM SCT120 24/17 A3005 RMK AO2 T02360170
KPDC 012213Z AUTO 29004KT 10SM CLR 28/11 A3004 RMK AO2
KPDK 012153Z VRB06KT 10SM SCT033 27/18 A3004 RMK AO2 SLP158 T02670183
KPDT 012153Z 31005KT 10SM CLR 37/08 A2991 RMK AO2 SLP109 T03670083
KPDX 012153Z 29007KT 10SM FEW050 FEW150 SCT250 29/14 A2993 RMK AO2 SLP135 TCU DSNT NE ACC E S AND W T02940144
KPEA 012215Z AUTO 36003KT 10SM CLR 28/15 A3007 RMK AO2 T02840152
KPEO 012153Z AUTO 16005KT 8SM CLR 28/14 A3012 RMK AO2 SLP193 T02780144
KPEQ 012215Z AUTO 10009G17KT 10SM CLR 30/13 A3009 RMK AO2 LTG DSNT SW T03000127
KPEX 012214Z AUTO 00000KT 7SM CLR 26/11 A3006 RMK AO2 T02630108
KPEZ 012215Z AUTO 36007KT 10SM SCT080 SCT120 34/19 A2992 RMK AO2 T03430186
KPGA 012153Z AUTO VRB03KT 10SM CLR 34/07 A3005 RMK AO2 SLP103 T03440072
KPGD 012153Z AUTO 30006KT 10SM BKN080 OVC095 29/23 A2995 RMK AO2 LTG DSNT N SLP142 T02940233
KPGV 012215Z AUTO 07005KT 10SM BKN005 OVC010 21/21 A3007 RMK AO2 P0003
KPHD 012153Z AUTO 14005KT 10SM FEW055 FEW100 26/17 A3008 RMK AO2 SLP184 T02610167
KPHF 012154Z AUTO 09009KT 9SM -RA OVC080 24/17 A3012 RMK AO2 RAB25 SLP198 P0000 T02390172 TSNO
KPHL 012154Z 12005KT 10SM SCT095 BKN110 23/19 A3019 RMK AO2 RAE37 SLP223 P0001 T02280194
KPHN 012216Z AUTO 25003KT 10SM CLR 25/16 A3008 RMK AO2
KPHP 012219Z AUTO 04006KT 10SM -TSRA OVC120 28/11 A3000 RMK AO2 LTG DSNT NW RAB11 TSB19 P0000 T02780106
KPHT 012215Z AUTO 00000KT 10SM CLR 27/18 A3003 RMK
KPHX 012151Z VRB03KT 10SM FEW060 SCT150 BKN180 BKN250 35/16 A2987 RMK AO2 SLP093 T03500156
KPIA 012225Z 22007G22KT 1SM R13/2200VP6000FT VCTS +RA SCT034 BKN050 OVC120 19/16 A3007 RMK AO2 LTG DSNT SW-N RAB2156 TSB06E25 PRESFR P0020 T01940161
KPIB 012215Z AUTO 00000KT 10SM FEW095 26/19 A3002 RMK AO1
KPIE 012153Z 31008KT 10SM CLR 31/20 A2993 RMK AO2 SLP136 T03110200
KPIH 012153Z 32008KT 10SM SCT100 33/06 A3012 RMK AO2 SLP148 T03330056
KPIL 012153Z AUTO 12020G26KT 7SM CLR 33/24 A2988 RMK AO2 PK WND 13026/2153 SLP118 T03280239
KPIR 012153Z AUTO 10015KT 10SM CLR 33/13 A2999 RMK AO2 SLP140 T03280133
KPIT 012151Z 10004KT 10SM FEW055 FEW095 SCT250 28/13 A3009 RMK AO2 SLP189 MDT CU T02780128
KPKB 012153Z 09007KT 10SM BKN035 A3011 RMK AO2 LTG DSNT SW AND W SLPNO $
KPKD 012153Z AUTO 02007KT 8SM CLR 27/09 A3007 RMK AO2 SLP179 T02670089 TSNO
KPKV 012215Z AUTO 17004KT 7SM SCT055 SCT070 31/25 A2990 RMK AO2 T03100250
KPLN 012154Z AUTO 26005KT 10SM CLR 26/09 A3007 RMK AO2 SLP183 T02560094
KPLU 012215Z AUTO 00000KT 10SM CLR 28/12 A3001 RMK AO2
KPMD 012153Z AUTO 25011KT 10SM CLR 39/06 A2994 RMK AO2 SLP098 T03890056 TSNO
KPMP 012153Z AUTO 10SM A2993 RMK AO2 LTG DSNT SW SLP138 $
KPMV 012215Z AUTO 00000KT 10SM CLR 28/15 A3008 RMK AO2 T02820149
KPNA 012215Z AUTO 11003KT 10SM BKN120 24/M01 A3034 RMK AO2
KPNC 012153Z AUTO VRB04KT 10SM FEW046 28/18 A3004 RMK AO2 SLP162 T02830178
KPNE 012154Z 10003KT 10SM OVC110 23/18 A3020 RMK AO2 RAE54 SLP227 P0000 T02280183
KPNM 012215Z AUTO 00000KT 10SM CLR 27/16 A3005 RMK AO2 LTG DSNT SW AND W
KPNS 012153Z 31003KT 10SM CLR 29/18 A2996 RMK AO2 SLP145 T02890178
KPNT 012215Z AUTO 19008KT 10SM -TSRA SCT017 BKN025 BKN032 19/16 A3011 RMK AO2 P0003 LTG DSNT SE THRU SW
KPOB 012223Z AUTO 04006KT 10SM OVC006 20/19 A3005 RMK AO2
KPOC 012047Z 26010KT 10SM CLR 33/17 A2993
KPOE 012155Z AUTO 30008KT 10SM SCT030 SCT035 SCT065 30/22 A2992 RMK AO2 SLP132 T03000222
KPOF 012153Z AUTO 20004KT 10SM CLR 28/17 A3002 RMK AO2 SLP163 T02830167
KPOU 012153Z 17003KT 10SM BKN100 21/19 A3019 RMK AO2 RAE25 SLP219 P0000 T02110189
KPOV 012217Z AUTO 00000KT 7SM CLR 26/16 A3010 RMK AO2 T02550163
KPPA 012215Z AUTO 12009KT 10SM SCT070 30/09 A3016 RMK AO2 T02960093
KPPF 012152Z AUTO 22007KT 10SM FEW060 29/18 A3006 RMK AO2 SLP170 T02940178
KPPO 012215Z AUTO 12004KT 10SM CLR 21/14 A3009 RMK AO2 T02090144
KPPQ 012215Z AUTO 15003KT 10SM SCT034 SCT048 BKN110 25/18 A3008 RMK AO2 LTG DSNT SE AND SW T02500182
KPQI 012215Z AUTO 20006KT 10SM CLR 25/12 A3014 RMK AO1
KPQL 012153Z 36004KT 10SM CLR 29/20 A2998 RMK AO2 SLP155 T02940200
KPQN 012215Z AUTO 00000KT 10SM CLR 27/14 A3011 RMK AO2
KPRB 012153Z AUTO 21014KT 10SM CLR 40/05 A2984 RMK AO2 SLP095 T04000050
KPRC 012153Z 00000KT 10SM SCT080TCU 31/09 A3015 RMK AO2 SLP119 TCU ALQDS T03110089
KPRG 012215Z AUTO 00000KT 10SM SCT120 23/18 A3008 RMK AO2 LTG DSNT SW AND NW T02300184
KPRN 012156Z AUTO 05004KT 9SM CLR 29/21 A2998 RMK AO2 SLP144 T02940211
KPRO 012215Z AUTO 00000KT 10SM CLR 27/16 A3008 RMK AO2 T02730160
KPRS 012215Z AUTO 12005KT 10SM CLR 30/15 A3004 RMK AO2 T03010153
KPRX 012215Z 03006KT 10SM FEW037 OVC047 23/18 A3004 RMK AO1
KPSC 012153Z VRB05KT 10SM CLR 37/12 A2987 RMK AO2 SLP110 T03720122
KPSF 012154Z AUTO 19008G17KT 10SM SCT039 SCT100 23/18 A3019 RMK AO2 SLP202 T02330178
KPSK 012215Z AUTO 10006KT 10SM OVC016 20/16 A3019 RMK AO2 T01950162
KPSM 012217Z 18007KT 5SM VCSH BR FEW045 BKN090 19/17 A3020 RMK AO2A LTG DSNT E-SE
KPSO 012215Z AUTO 00000KT 10SM SCT110 18/11 A3036 RMK AO2 LTG DSNT SE S AND NW T01800111
KPSP 012153Z 15007KT 10SM CLR 38/18 A2984 RMK AO2 SLP098 T03830178
KPSX 012218Z AUTO 11005KT 5SM RA BR BKN060 OVC080 27/25 A2992 RMK AO2 P0005 T02670250
KPTB 012215Z 00000KT 4SM SCT020 BKN026 OVC035 23/21 A3013 RMK AO2 P0004 PWINO
KPTK 012153Z 26006KT 10SM SCT060 BKN250 27/13 A3008 RMK AO2 SLP181 T02670128
KPTN 012215Z AUTO 15005KT 10SM FEW080 29/25 A2998 RMK AO1
KPTS 012215Z AUTO 17003KT 10SM CLR 29/16 A3004 RMK AO2 T02890157
KPTT 012215Z AUTO 01009KT 10SM CLR 31/11 A3008 RMK AO2
KPTV 012215Z AUTO 31009KT 10SM CLR 39/07 A2983 RMK AO1
KPTW 012154Z AUTO 00000KT 10SM FEW041 OVC100 22/18 A3022 RMK AO2 RAE46 SLP229 P0000 T02170183
KPUB 012153Z AUTO 26014KT 10SM -RA FEW055 BKN090 OVC110 19/17 A3025 RMK AO2 WSHFT 2136 RAB30 SLP197 P0000 T01890172
KPUC 012153Z AUTO 25006KT 10SM SCT120 28/06 A3022 RMK AO2 LTG DSNT S SLP154 T02830061
KPUJ 012215Z AUTO 13004KT 10SM CLR 29/21 A3004 RMK AO2
KPUW 012153Z AUTO 10005KT 10SM CLR 34/04 A3003 RMK AO2 SLP145 T03440039
KPVB 012215Z AUTO 25003KT 10SM CLR 27/14 A3007 RMK AO1 T02730142
KPVC 012215Z 20008KT 10SM CLR 22/18 A3024 RMK AO1
KPVD 012151Z 19010KT 10SM FEW023 SCT160 OVC200 24/18 A3022 RMK AO2 SLP233 T02440183
KPVE 012215Z AUTO 00000KT 10SM FEW100 28/18 A3002 RMK
KPVF 012215Z AUTO 29007G14KT 250V310 10SM CLR 37/M02 A3000 RMK AO1
KPVG 012215Z AUTO 08007KT 5SM FEW022 BKN028 OVC046 21/18 A3012 RMK AO1 P0001
KPVJ 012215Z AUTO 12005KT 10SM BKN032 26/19 A3005 RMK AO2 T02630188
KPVU 012155Z 24003KT 15SM FEW070 FEW100 29/09 A3013
KPVW 012215Z AUTO 10007KT 10SM SCT085 25/07 A3015 RMK AO2 T02530065
KPWA 012153Z 13005KT 10SM CLR 29/18 A3005 RMK AO2 SLP162 T02890178
KPWC 012214Z AUTO 27003KT 10SM CLR 26/14 A3009 RMK AO2
KPWG 012215Z AUTO 03008KT 10SM OVC050 28/18 A3002 RMK AO1 LTG DSNT SE
KPWK 012152Z 14008KT 10SM CLR 26/17 A3007 RMK AO2 LTG DSNT S AND SW SLP178 T02610167
KPWM 012151Z 19007KT 160V220 10SM FEW020 SCT085 BKN200 21/18 A3020 RMK AO2 SLP227 T02110183
KPWT 012215Z 22005KT 10SM CLR 24/15 A3004 RMK AO1
KPYM 012152Z AUTO 20008KT 10SM CLR 23/17 A3024 RMK AO2 SLP238 T02330172
KPYX 012215Z AUTO 06004KT 10SM BKN100 29/10 A3012 RMK AO2 T02930098
KPZQ 012214Z AUTO 06004KT 10SM CLR 22/14 A3009 RMK AO2 T02230139
KQA4 012155Z 34023G30KT 9999 CLR 24/M08 A2972 RMK SLP981 WND DATA ESTMD ALSTG/SLP ESTMD Q1006
KQAR 012155Z AUTO 32008G14KT 9999 CLR 22/M06 A2986 RMK AO2 SLP053 T02231062
KQAY 012155Z AUTO 00000KT 8000 CLR 37/04 A2948 RMK AO2 SLP978 T03670044 $
KQAZ 011830Z AUTO 34004KT 9999 CLR 30/18 A2986 RMK CDP03565 CLR
KQBF 012155Z AUTO 22003KT 9999 FEW190 25/21 A2999 RMK AO2 SLP140 T02500207
KQBL 012156Z AUTO VRB02KT 10SM CLR 29/20 A2997 RMK AO2 SLP155 T02880200
KQCC 012155Z AUTO VRB01KT 9999 CLR 26/19 A2970 RMK AO2 SLP999 T02620193 $
KQCL 012155Z AUTO 34001KT 4000 BR FEW002 23/22 A2982 RMK AO2 SLP013 T02290216
KQEA 012155Z AUTO 04004KT 9999 CLR 26/22 A2981 RMK AO2 SLP093 T02590221
KQEB 012155Z AUTO 00000KT 9999 FEW012 SCT017 BKN021 OVC055 16/13 Q1025 RMK AO2 SLP194 T01600130
KQFG 012155Z AUTO 07005KT 9999 BKN170 30/19 A2963 RMK AO2 SLP982 T03000187
KQFQ 012155Z AUTO VRB04KT 10SM FEW110 26/22 A2966 RMK AO2 SHRAB2047E2059 SLP040 T02610222 $
KQGV 012155Z 31009KT 9999 CLR 35/04 A2950 RMK SLPNO QNH999MB PA +856
KQGX 012158Z AUTO 09002KT 9999 CLR 30/21 A2944 RMK AO2 SLPNO T03020210 $
KQHY 012156Z AUTO 23005KT 10SM CLR 29/23 A2998 RMK AO2 SLP159 T02940225
KQIR 012158Z AUTO 22002KT 9999 CLR 32/24 A2945 RMK AO2 SLP973 T03160239 $
KQL5 012155Z 27001KT 9999 FEW045 29/22 A2959 RMK SLP975 T02910218
KQLQ 012155Z 16010G16KT 9999 CLR 19/13 A3003 RMK AO2A SLP027 WND DATA ESTMD ALTSG/SLP DATA ESTMD T01940127
KQND 012155Z AUTO VRB03KT 2400 BR FEW075 SCT100 BKN130 24/21 A2991 RMK AO2 SLP115 T02400206 $
KQQS 012155Z AUTO 09002KT 9999 CLR 18/07 A3002 RMK AO2 SLP000 T01800067 $
KQQY 012155Z AUTO 19005KT 9999 CLR 29/20 A2992 RMK AO2 SLP115 T02870197
KQRH 012155Z AUTO 23006KT 9999 CLR 31/20 A2972 RMK AO2 LTG DSNT S SLP060 T03080197
KQRU 012155Z AUTO 11004KT 9999 CLR 21/14 A2995 RMK AO2 SLP991 T02110142
KQRY 011955Z AUTO 15003KT 9999 23/12 A2999 RMK AO2 SLP011 T02260115 PWINO PNO TSNO $
KQSA 012158Z AUTO VRB04KT 9999 CLR 26/00 A2978 RMK AO2 SLP975 T02600002 $
KQSN 012155Z 10002KT 9999 CLR 21/11 A3000 RMK AO2A SLP009 WND DATA ESTMD ALSTG/SLP ESTMD T02140107
KQTH 012155Z AUTO 17017KT 9999 CLR 27/20 A2964 RMK AO2 SLP004 T02660203 $
KQTZ 012155Z VRB03KT 9000 HZ CLR 34/05 A2947 RMK SLP974 WND DATA ESTMD ALSTG/SLP ESTMD
KQUD 011832Z AUTO 27001KT 7SM CLR 20/16 A3019 RMK AO2 SLP177
KQVF 012155Z AUTO VRB05KT 9999 FEW021 24/21 A3006 RMK AO2 SLP178 T02420209
KQWM 012155Z 29009KT 9999 CLR 36/03 A2951 RMK SLP981 QNH999
KQXT 012155Z 26007KT 1600 DU SKC 28/M08 A2954 RMK SLP935 T02781078 PA2776 DA4889
KRAC 012153Z AUTO 17012KT 10SM CLR 26/15 A3007 RMK AO2 LTG DSNT N AND NW SLP180 T02560150
KRAL 012153Z 27011G17KT 10SM CLR 37/16 A2986 RMK AO2 LTG DSNT E SLP091 T03670161
KRAP 012152Z 14005KT 10SM CLR 26/11 A3007 RMK AO2 LTG DSNT NE SLP164 T02610106
KRAS 012215Z AUTO 14009KT 10SM CLR 30/26 A2991 RMK AO2 LTG DSNT NW T02980256 PWINO
KRBD 012153Z AUTO 03007KT 10SM FEW027 OVC036 26/18 A3003 RMK AO2 SLP160 T02610183 TSNO
KRBG 012153Z AUTO 35008KT 300V030 10SM CLR 34/14 A2992 RMK AO2 SLP127 T03390139
KRBL 012154Z AUTO 15011G15KT 10SM CLR 41/06 A2980 RMK AO2 SLP085 T04110056
KRBW 012215Z AUTO 26004KT 10SM -RA SCT010 SCT022 BKN043 26/ A3001 RMK AO2 LTG DSNT N S AND W
KRCA 012158Z AUTO 19008KT 10SM FEW120 29/09 A3008 RMK AO2 SLP165 T02870091 $
KRCE 012215Z AUTO 00000KT CLR 28/18 A3007 RMK AO2
KRCM 012155Z AUTO 00000KT 10SM SCT095 28/15 A3006 RMK AO2
KRCR 012215Z AUTO 12005KT 7SM CLR 26/13 A3008 RMK AO2 LTG DSNT SW
KRCX 012215Z AUTO 36005KT 10SM CLR 26/13 A3009 RMK AO2 T02570133
KRCZ 012214Z AUTO 03006KT 10SM -DZ 21/21 A3005 RMK AO2
KRDD 012153Z 14010KT 10SM CLR 41/01 A2979 RMK AO2 SLP078 T04110011
KRDG 012154Z AUTO 04003KT 10SM FEW033 SCT065 OVC120 23/18 A3018 RMK AO2 RAB03E16 SLP223 P0000 T02330178
KRDK 012215Z AUTO 07005KT 10SM BKN049 BKN060 28/17 A3007 RMK AO2
KRDM 012156Z 33007KT 10SM CLR 33/06 A3002 RMK AO2 LTG DSNT S SLP131 T03330061
KRDR 012158Z AUTO VRB01KT 10SM CLR 27/16 A3007 RMK AO2 SLP185 T02720160
KRDU 012151Z 04011KT 2SM -RA BR BKN009 BKN012 OVC020 18/16 A3010 RMK AO2 SFC VIS 2 1/2 SLP189 P0012 T01830161
KREO 012152Z AUTO 28006KT 34/04 A3006 RMK AO1 SLP128 T03390039
KRFD 012154Z 00000KT 10SM SCT055TCU SCT090 28/15 A3006 RMK AO2 TSB19E54 SLP175 TCU SE CB DSNT NE T02780150
KRFI 012215Z AUTO 36005KT 10SM OVC011 22/20 A3001 RMK AO2 T02200204
KRGK 012215Z AUTO 27004KT 10SM CLR 29/13 A3003 RMK AO2
KRHI 012153Z AUTO VRB05KT 10SM CLR 24/11 A3008 RMK AO2 SLP186 T02440111
KRHP 012215Z AUTO 27008G14KT 10SM BKN041 BKN047 OVC060 23/19 A3008 RMK AO2 T02280188
KRHV 012159Z 31013KT 10SM SKC 31/16 A2990
KRIC 012154Z 07003KT 5SM -RA BR FEW025 BKN080 OVC120 22/19 A3015 RMK AO2 SLP213 P0003 T02220194
KRIL 012153Z AUTO 33008KT 10SM CLR 25/08 A3021 RMK AO2 LTG DSNT NE AND E AND SW SLP162 T02500078
KRIV 012158Z 30010KT 10SM FEW110 SCT200 38/15 A2990 RMK AO2A LTG DSNT NE SLP108 T03790151
KRIW 012153Z AUTO VRB05KT 10SM CLR 29/M01 A3022 RMK AO2 LTG DSNT N SLP165 T02941006
KRKD 012215Z AUTO 20006KT 10SM CLR 21/18 A3020 RMK AO1
KRKP 012153Z AUTO 15010KT 10SM CLR 32/24 A2990 RMK AO2 LTG DSNT W-NE SLP126 T03220239
KRKR 012215Z AUTO 00000KT 10SM OVC060 25/18 A3004 RMK AO2 T02520182
KRKS 012154Z AUTO 13004KT 10SM CLR 28/M02 A3028 RMK AO2 SLP165 T02831022
KRME 012153Z VRB03KT 10SM CLR 28/16 A3013 RMK AO2 SLP200 T02780156
KRMG 012153Z AUTO 10008KT 10SM SCT060 BKN070 OVC110 26/19 A3001 RMK AO2 SLP153 T02610194
KRMN 012215Z AUTO 09003KT 10SM CLR 24/19 A3019 RMK AO2 T02370188
KRMY 012214Z AUTO 28009G17KT 10SM CLR 25/16 A3007 RMK AO2 T02450155
KRNC 012215Z AUTO 32003KT 10SM CLR 28/19 A3004 RMK
KRND 012158Z AUTO VRB01KT 9SM CLR 33/18 A2995 RMK AO2 SLP133 T03310176
KRNH 012215Z AUTO 26003KT 10SM CLR 28/12 A3005 RMK AO2 T02760124
KRNM 012153Z 28010KT 10SM CLR 34/16 A2993 RMK AO2 SLP116 T03390161
KRNO 012155Z VRB03KT 10SM FEW110TCU BKN140 BKN200 33/06 A3007 RMK AO2 SLP117 TCU E-SE NW-N T03280061
KRNP 012214Z AUTO 27003KT 5SM -RA SCT070 OVC090 17/16 A3010 RMK AO2 T01720163
KRNT 012153Z 32011G18KT 10SM -RA SCT032 SCT075 BKN095 26/14 A2996 RMK AO2 LTG DSNT E AND SE RAB51 SLP150 P0000 T02560144
KRNV 012215Z AUTO 00000KT 10SM BKN090 26/20 A3000 RMK AO2 T02640204
KROA 012154Z 01004KT 6SM -RA FEW026 BKN046 OVC110 20/17 A3018 RMK AO2 SLP213 P0002 T02000172
KROC 012225Z 36006KT 5SM -TSRA BKN020CB BKN040 BKN060 21/17 A3012 RMK AO2 TSE10B25RAB25 OCNL LTGICCCCG OHD TS OHD MOV NE P0000
KROG 012157Z 14008KT 10SM CLR 27/16 A3008 RMK AO2 SLP172 T02720156
KROS 012215Z AUTO 00000KT 10SM CLR 28/14 A3005 RMK AO2 T02750138
KROW 012151Z 21005KT 10SM FEW031 BKN075 25/17 A3016 RMK AO2 SLP157 T02500172
KROX 012214Z AUTO 00000KT 10SM CLR 27/12 A3006 RMK AO2
KRPD 012215Z AUTO 00000KT 10SM CLR 26/13 A3007 RMK AO2 T02610131
KRPH 012215Z AUTO 02005KT 10SM SCT047 SCT050 29/16 A3003 RMK AO2 T02920160
KRPJ 012215Z AUTO 25003KT 10SM SCT055 28/13 A3006 RMK AO2 LTG DSNT N AND E T02780131
KRQB 012214Z AUTO 00000KT 7SM CLR 25/12 A3007 RMK AO2 T02500120
KRQE 012153Z AUTO 04007KT 10SM SCT080 27/10 A3026 RMK AO2 SLP121 T02720100 TSNO
KRRL 012215Z AUTO 24005KT 10SM CLR 25/17 A3006 RMK AO2 T02510170
KRRT 012214Z AUTO 12004KT 10SM CLR 25/14 A3008 RMK AO2
KRSL 012153Z AUTO 36009KT 10SM FEW090 33/11 A3005 RMK AO2 PK WND 03026/2127 SLP158 T03280106
KRSN 012215Z AUTO 04005KT 2 1/2SM BR BKN003 OVC007 21/21 A3001 RMK AO2 T02130213
KRSP 012154Z AUTO 18006KT 10SM BKN080 21/16 A3022 RMK AO2 SLP228 T02060161 $
KRST 012154Z 9SM CLR 27/15 A3009 RMK AO2 SLP186 T02670150
KRSV 012215Z AUTO 00000KT 10SM CLR 29/16 A3006 RMK AO2 T02870158
KRSW 012153Z 33006KT 10SM CLR 32/23 A2992 RMK AO2 LTG DSNT NE AND E SLP128 T03170228
KRTN 012153Z AUTO 11011KT 4SM RA BR FEW038 BKN055 OVC075 14/13 A3032 RMK AO2 WSHFT 2040 SLP205 P0017 T01440128 TSNO
KRTS 012215Z AUTO 35008KT 10SM -RA BKN110 28/10 A3013 RMK AO2
KRUE 012153Z AUTO 02003KT 10SM BKN050 OVC065 27/18 A3004 RMK AO2 SLP165 T02670178 $
KRUG 012215Z AUTO 11003KT 10SM CLR 25/17 A3008 RMK AO2
KRUQ 012215Z AUTO 36004KT 2SM -RA BKN008 OVC060 20/19 A3010 RMK AO2 P0003 T01950191
KRUT 012215Z 21003KT 10SM CLR 26/15 A3016 RMK AO1
KRVS 012153Z 12005KT 10SM BKN045 28/18 A3004 RMK AO2 SLP176 T02830178
KRWF 012153Z AUTO 31005KT 10SM CLR 29/14 A3006 RMK AO2 LTG DSNT NW SLP175 T02940144
KRWI 012224Z AUTO 04008KT 3SM -RA BR BKN010 OVC014 20/19 A3007 RMK AO2 CIG 006V012 P0002 T02000189
KRWL 012153Z AUTO 07008G21KT 040V110 10SM CLR 27/M03 A3030 RMK AO2 PK WND 05028/2057 SLP169 T02721028
KRWV 012215Z AUTO 35011G14KT 040V010 10SM SCT044 SCT050 29/19 A3000 RMK AO2
KRXE 012153Z AUTO 24010KT 10SM CLR 31/03 A3016 RMK AO2 SLP163 T03110033
KRYN 012159Z 30005KT 10SM CLR 33/12 A2998
KRYT 012153Z AUTO 00000KT 10SM SCT085 SCT110 23/17 A3017 RMK AO2 SLP208 T02330167 $
KRYV 012215Z AUTO 36008KT 10SM TS SCT060 25/16 A3005 RMK AO2 LTG DSNT ALQS T02490163
KRYW 012215Z AUTO 01008KT 10SM SCT042 30/17 A3001 RMK AO2 T03000167
KRYY 012147Z 13007KT 10SM SCT038 28/19 A3005
KRZL 012215Z AUTO 16004KT 10SM BKN120 22/16 A3011 RMK AO2 LTG DSNT SW
KRZN 012210Z AUTO 00000KT 10SM CLR 27/12 A3005 RMK AO2 T02710117
KRZR 012215Z AUTO 01004KT 10SM BKN110 28/17 A3003 RMK
KS25 012155Z AUTO 07004KT 10SM CLR 28/14 A3008 RMK AO2
KSAA 012215Z AUTO 29004KT 10SM CLR 26/M02 A3030 RMK AO2
KSAC 012153Z 22006KT 10SM CLR 38/11 A2981 RMK AO2 SLP095 T03830106
KSAD 012151Z AUTO 23003KT 10SM CLR 34/12 A2998 RMK AO2 SLP095 T03390117
KSAF 012153Z 11012KT 10SM FEW049 SCT060 OVC085 21/12 A3028 RMK AO2 WSHFT 2115 LTG DSNT S RAB38E47 SLP167 P0000 T02110117 $
KSAN 012151Z 29008KT 10SM FEW015 SCT090 SCT200 25/17 A2992 RMK AO2 SLP131 CB DSNT NE-SE T02500172
KSAR 012215Z AUTO 11003KT 10SM BKN090 BKN110 27/16 A3004 RMK AO2
KSAT 012151Z VRB03KT 10SM FEW055 BKN250 33/19 A2996 RMK AO2 SLP124 T03330189
KSAV 012153Z 08008KT 10SM FEW018 SCT065 BKN180 OVC220 28/23 A2998 RMK AO2 SLP152 T02830233
KSAW 012155Z 04011KT 10SM SKC 19/11 A3009
KSAZ 012214Z AUTO 32005KT 10SM SCT065 28/11 A3006 RMK AO2
KSBA 012153Z 26008KT 10SM CLR 22/16 A2991 RMK AO2 SLP126 T02170156
KSBD 012152Z 25009KT 10SM FEW120 38/12 A2987
KSBM 012200Z AUTO VRB03KT 10SM CLR 23/16 A3006 RMK AO2 LTG DSNT SE AND S T02280161
KSBN 012154Z 27008KT 10SM FEW120 22/15 A3008 RMK AO2 RAB10E19 SLP184 P0000 T02170150
KSBO 012215Z AUTO 08006KT 10SM CLR 31/22 A2999 RMK AO2 LTG DSNT SE THRU SW
KSBP 012156Z 29008KT 10SM CLR 26/15 A2991 RMK AO2 SLP127 T02560150 $
KSBS 012214Z AUTO 35011KT 10SM SCT048 BKN070 OVC110 23/08 A3028 RMK AO1 T02250084
KSBY 012154Z 06004KT 10SM -RA FEW060 SCT100 BKN120 24/21 A3016 RMK AO2 RAE2059B25 SLP214 P0000 T02440206
KSCD 012215Z AUTO 06003KT 10SM BKN085 31/19 A3000 RMK AO2 T03070190
KSCF 012215Z AUTO 07003KT 10SM CLR 29/23 A2995 RMK A01
KSCK 012155Z 28013KT 10SM CLR 39/02 A2982 RMK AO2 SLP096 T03940022
KSDA 012215Z AUTO 06006KT 10SM SCT046 SCT095 28/18 A3008 RMK AO2
KSDB 012148Z AUTO 16016G22KT 10SM CLR 35/07 A3013 RMK AO2 SLP127 T03500067
KSDF 012156Z 00000KT 10SM FEW050 FEW070 29/12 A3003 RMK AO2 SLP163 T02940122
KSDL 012153Z VRB06KT 10SM CLR 36/16 A2990 RMK AO2 SLP096 T03610161
KSDM 012153Z 30006KT 10SM CLR 26/18 A2991 RMK AO2 SLP124 T02610178 $
KSDY 012215Z AUTO 15003KT 10SM CLR 31/12 A3008 RMK AO1
KSEA 012204Z 01012G22KT 10SM FEW030 SCT090 BKN200 28/11 A2999 RMK AO2 RAE2155 P0000
KSEE 012215Z AUTO 23008KT 9SM CLR 33/17 A2990 RMK AO2
KSEG 012153Z AUTO 16004KT 7SM BKN110 23/17 A3016 RMK AO2 LTG DSNT NE SLP209 T02330172
KSEM 012215Z AUTO 11005KT 10SM FEW080 27/21 A2997 RMK AO2
KSEP 012215Z AUTO 01007KT 340V040 10SM BKN050 29/15 A3006 RMK AO2 T02910153
KSET 012154Z AUTO 06006KT 10SM FEW065 SCT080 26/19 A3005 RMK AO1 LTG DSNT NE SLP172 T02610194
KSEZ 012215Z AUTO 02003KT 10SM CLR 31/10 A3012 RMK AO2 LTG DSNT W THRU N
KSFB 012153Z 10011KT 10SM CLR 31/24 A2994 RMK AO2 LTG DSNT N SLP137 T03060244
KSFF 012153Z 00000KT 10SM CLR 34/06 A2999 RMK AO2 SLP138 T03440056
KSFM 012215Z AUTO 18003KT 10SM CLR 22/16 A3020 RMK AO1 LTG DSNT SE
KSFO 012156Z 30017KT 10SM FEW008 22/14 A2990 RMK AO2 SLP123 T02220144
KSFQ 012215Z AUTO 25013KT 5SM +RA BKN011 BKN017 OVC035 20/19 A3013 RMK AO2 LTG DSNT SE P0003 T02010190
KSFY 012215Z AUTO 30005KT 10SM SCT050 29/13 A3004 RMK AO2 LTG DSNT NE T02870128
KSFZ 012215Z 18005KT 10SM CLR 23/16 A3023 RMK AO1
KSGF 012152Z 18005KT 10SM FEW055 28/14 A3005 RMK AO2 SLP165 T02830139
KSGH 012156Z AUTO 00000KT 8SM SCT110 26/19 A3008 RMK AO2 T02550194 SLP182
KSGJ 012158Z 15011KT 10SM FEW060 32/23 A2995 RMK AO2 SLP141 T03220228 $
KSGR 012153Z AUTO 34008KT 10SM FEW034 OVC050 31/22 A2994 RMK AO2 SLP140 T03110222
KSGS 012211Z AUTO 13004KT 10SM SCT065 SCT110 29/13 A3003 RMK AO2 T02860133
KSGT 012215Z AUTO 03003KT 10SM OVC065 25/21 A3003 RMK AO1
KSGU 012215Z 24011G16KT 10SM CLR 38/11 A2995 RMK AO1
KSHD 012215Z AUTO 11004KT 10SM CLR 23/15 A3019 RMK AO2 T02260151
KSHL 012215Z AUTO 00000KT 10SM CLR 26/14 A3009 RMK AO2
KSHM 012156Z AUTO 11005KT 10SM FEW150 21/10 A3035 RMK AO2 LTG DSNT S SLP218 T02070101
KSHN 012153Z AUTO 26008KT 10SM CLR 27/13 A2999 RMK AO2 SLP155 T02670128 TSNO
KSHR 012153Z AUTO 23016G21KT 10SM CLR 31/05 A3014 RMK AO2 WSHFT 2049 SLP164 T03110050
KSHV 012203Z 03007KT 10SM OVC011 22/19 A2998 RMK AO2
KSIF 012215Z AUTO 02004KT 5SM -RA SCT014 BKN022 OVC029 20/20 A3012 RMK AO2 T02010195
KSIY 012153Z AUTO 24008KT 10SM CLR 36/02 A2995 RMK AO2 SLP121 T03610022
KSJC 012153Z 31009KT 10SM FEW160 27/16 A2989 RMK AO2 SLP119 T02670156
KSJN 012154Z AUTO 07007KT 010V090 10SM BKN085 31/08 A3016 RMK AO2 SLP108 T03060083
KSJS 012215Z AUTO 10004KT 10SM SCT041 SCT048 28/18 A3006 RMK AO2 T02770183
KSJT 012151Z 06011G14KT 10SM CLR 31/13 A3003 RMK AO2 SLP144 T03110133
KSJX 012216Z AUTO 32003KT 10SM CLR 24/14 A3008 RMK AO2 T02370137
KSKA 012158Z AUTO 03005KT 10SM BKN150 32/04 A3003 RMK AO2 SLP152 T03170043
KSKF 012158Z 07008KT 030V100 10SM FEW080 SCT180 34/19 A2994 RMK AO2A SLP130 T03350193 $
KSKX 012215Z AUTO 16013KT CLR 20/12 A3034 RMK AO1
KSLB 012215Z AUTO 00000KT 10SM CLR 25/16 A3010 RMK AO2
KSLC 012153Z 33008KT 10SM FEW080 FEW150 32/08 A3010 RMK AO2 SLP134 TCU DSNT NE-SE AND S-SW T03220083
KSLE 012156Z 02006KT 10SM CLR 31/13 A2993 RMK AO2 SLP132 T03110128
KSLG 012215Z AUTO 08005KT 10SM CLR 27/15 A3007 RMK AO1
KSLH 012215Z AUTO 04005KT 10SM SCT065 22/11 A3008 RMK AO2 T02250119
KSLI 012158Z 19007KT 10SM FEW060 26/19 A2988 RMK AO2A SLP121 T02610189
KSLK 012151Z AUTO 23007KT 9SM SCT075 SCT100 23/14 A3016 RMK AO2 SLP213 T02330139
KSLN 012153Z 01018KT 10SM CLR 34/08 A3003 RMK AO2 SLP154 T03390083
KSLO 012215Z AUTO 01004KT 10SM SCT050 29/18 A3006 RMK AO2 LTG DSNT N AND NE T02870180
KSLR 012215Z AUTO 01006KT 10SM SCT033 OVC045 25/20 A3004 RMK AO2 T02450195
KSME 012215Z AUTO 02004KT 10SM SCT110 27/16 A3005 RMK AO2 LTG DSNT NW
KSMF 012153Z 20004KT 10SM CLR 39/06 A2980 RMK AO2 SLP091 T03890056 $
KSMN 012215Z AUTO 03006KT 10SM SCT120 29/08 A3005 RMK AO1 LTG DSNT SW
KSMO 012151Z 23009KT 10SM CLR 24/17 A2990 RMK AO2 SLP123 T02390172
KSMQ 012153Z AUTO 00000KT 9SM BKN120 22/19 A3019 RMK AO2 RAE2054 SLP222 P0000 T02170194
KSMS 012215Z AUTO 36006G11KT 10SM VCTS FEW014 FEW049 26/23 A3002 RMK AO2 LTG DSNT SE AND S
KSMX 012151Z 29010KT 10SM CLR 24/15 A2993 RMK AO2 SLP136 T02390150
KSNA 012153Z 22011KT 10SM FEW010 SCT060 SCT080 SCT150 SCT250 26/17 A2988
KSNC 012215Z AUTO 18007KT 10SM CLR 23/19 A3024 RMK AO2
KSNH 012215Z AUTO 08003KT 10SM BKN100 29/18 A3002 RMK
KSNK 012215Z AUTO 09008KT 10SM CLR 30/13 A3008 RMK AO2 T02970127
KSNL 012215Z AUTO 14004KT 7SM CLR 28/21 A3008 RMK AO2
KSNS 012153Z 27013KT 10SM CLR 21/14 A2992 RMK AO2 SLP139 T02110144
KSNT 012151Z AUTO 31007KT 27/03 A3027 RMK AO1 SLP146 T02720033
KSNY 012153Z AUTO 12010KT 10SM BKN100 29/04 A3019 RMK AO2 SLP181 T02940039
KSOA 012215Z AUTO 02008KT 10SM CLR 31/13 A3007 RMK AO2
KSOP 012215Z AUTO 03007KT 8SM SCT006 OVC110 20/17 A3006 RMK AO1
KSOW 012215Z AUTO 09008KT 10SM SCT090 27/06 A3023 RMK AO2 LTG DSNT SW
KSPA 012215Z AUTO 03011KT 10SM OVC014 21/18 A3009 RMK AO2
KSPB 012153Z AUTO 02009KT 10SM CLR 32/14 A2992 RMK AO2 SLP133 T03170139
KSPD 012156Z AUTO 12009KT 27/09 A3019 RMK AO1 SLP166 T02720094
KSPF 012155Z AUTO 36008G14KT 040V010 10SM CLR 31/07 A3011 RMK AO2
KSPG 012153Z 35005KT 10SM CLR 32/20 A2992 RMK AO2 SLP130 T03220200
KSPI 012152Z 17007KT 10SM CLR 23/18 A3009 RMK AO2 LTG DSNT N SLP186 T02330178
KSPL 012215Z AUTO 11008KT CLR 32/26 A2990 RMK AO1
KSPR 012215Z AUTO 14005KT 10SM 31/24 A2995 RMK A01
KSPS 012152Z 07003KT 10SM FEW038 SCT045 27/19 A3004 RMK AO2 SLP161 T02720189
KSPW 012153Z AUTO 33005KT 10SM CLR 28/14 A3009 RMK AO2 SLP185 T02830139
KSQI 012215Z 10004KT 10SM FEW050 FEW100 26/18 A3006 RMK AO1
KSQL 012147Z 35009KT 10SM FEW150 23/15 A2991
KSRB 012215Z AUTO 00000KT 10SM SCT095 28/19 A3004 RMK
KSRC 012156Z AUTO 35004KT 10SM BKN060 26/20 A3005 RMK AO2 TSNO T02550200 BKN V SCT SLP177 $
KSRQ 012153Z AUTO 30009KT 10SM BKN090 33/21 A2992 RMK AO2 LTG DSNT E SLP131 T03280211
KSRR 012215Z AUTO 14007KT 020V020 10SM SCT014 BKN037 BKN050 17/14 A3035 RMK AO2
KSSC 012158Z AUTO 33007KT 10SM CLR 26/23 A2999 RMK AO2 SLP155 T02610231 $
KSSF 012153Z 01009KT 10SM CLR 34/19 A2993 RMK AO2 SLP119 T03440189
KSSI 012216Z AUTO 10011KT 10SM SCT018 BKN025 29/24 A2995 RMK AO2 T02940244
KSTC 012209Z 27007KT 10SM FEW090 28/14 A3005 RMK AO2 LTG DSNT E AND SE TSE03
KSTE 012215Z AUTO 22004KT 5SM RA SCT047 SCT065 OVC100 17/15 A3009 RMK AO2 LTG DSNT NE AND SW P0001 T01720150
KSTF 012215Z AUTO 00000KT 10SM SCT090 27/18 A2999 RMK AO2
KSTJ 012153Z AUTO 00000KT 10SM FEW049 BKN085 28/16 A3005 RMK AO2 SLP170 T02830161
KSTK 012210Z AUTO 20003KT 10SM CLR 31/11 A3017 RMK AO2
KSTL 012151Z 27004KT 7SM FEW050 BKN095 BKN150 OVC250 25/20 A3007 RMK AO2 RAB03E48 SLP174 P0000 T02500200
KSTP 012153Z VRB03KT 8SM BKN070 29/13 A3003 RMK AO2 SLP164 T02890133
KSTS 012153Z 18010KT 10SM CLR 30/14 A2986 RMK AO2 SLP105 T03000139
KSUA 012147Z 10010KT 7SM SCT020 BKN070 30/23 A2995
KSUE 012215Z AUTO 14005KT 10SM CLR 22/17 A3006 RMK AO1
KSUN 012150Z 05010G21KT 10SM SCT080 SCT100 BKN130 27/07 A3021
KSUS 012154Z 00000KT 8SM -RA FEW070 SCT100 BKN120 22/19 A3006 RMK AO2 SLP174 P0004 T02170194
KSUT 012215Z AUTO 18005KT 10SM CLR 26/22 A3002 RMK AO2 T02560215
KSUU 012158Z AUTO 23015KT 10SM CLR 37/14 A2980 RMK AO2 SLP097 T03690141 PWINO PNO $
KSUW 012215Z AUTO 05008KT 10SM CLR 19/12 A3005 RMK AO2 T01890122
KSUX 012152Z VRB03KT 10SM SCT080 29/16 A3008 RMK AO2 SLP180 T02890156
KSVC 012215Z AUTO 14006KT 10SM VCTS FEW032 BKN044 BKN050 23/15 A3023 RMK AO2 LTG DSNT SE AND S AND NW
KSVH 012215Z AUTO 01005KT 3SM DZ BKN004 OVC018 17/17 A3010 RMK AO2 P0001 T01720167
KSVN 012158Z AUTO 07003KT 10SM VCTS FEW065 SCT080 28/24 A2996 RMK AO2 LTG DSNT N SLP148 T02750241
KSWF 012145Z 12005KT 10SM SCT060 BKN100 23/19 A3021
KSWO 012153Z AUTO 00000KT 10SM SCT046 30/17 A3005 RMK AO2 SLP163 T03000172 TSNO
KSWW 012215Z AUTO 06009G14KT 10SM CLR 30/11 A3010 RMK AO2 T03040105
KSXS 012156Z AUTO VRB02KT 12SM CLR 29/19 A2999 RMK AO2 SLP154 T02940194
KSXT 012156Z AUTO 00000KT 10SM CLR 29/03 A3008 RMK AO2 SLP124 T02940033
KSYF 012215Z AUTO 00000KT 7SM SCT120 29/05 A3014 RMK AO2 T02900050
KSYI 012215Z AUTO 00000KT 10SM FEW110 29/19 A3003 RMK
KSYM 012210Z AUTO VRB04KT 10SM CLR 27/16 A3007 RMK AO2
KSYN 012211Z AUTO 25005KT 10SM CLR 28/14 A3004 RMK AO2 T02810137
KSYR 012154Z 14005KT 10SM FEW070 SCT230 OVC300 29/14 A3011 RMK AO2 PK WND 25032/2106 SLP189 OVC V BKN T02890139
KSZL 012158Z AUTO VRB03KT 10SM BKN100 28/08 A3006 RMK AO2 SLP176 T02780084
KSZT 012215Z AUTO 10003KT 10SM CLR 28/13 A3002 RMK AO2
KT20 012215Z AUTO 15004KT 10SM SCT055 33/20 A2992 RMK AO2 T03310200
KT35 012215Z AUTO 04006KT 10SM BKN036 BKN046 OVC060 28/20 A2998 RMK AO2 T02800197
KT65 012215Z AUTO 15010KT 7SM CLR 37/20 A2985 RMK AO2 T03700195
KT82 012215Z AUTO 35007KT 10SM SCT060 30/14 A3001 RMK AO2 T03040135
KTAD 012154Z AUTO 26012KT 10SM -RA FEW041 BKN090 OVC110 19/15 A3027 RMK AO2 WSHFT 2044 LTG DSNT NW-E TSE09 SLP186 P0004 T01940150
KTAN 012152Z AUTO 18009KT 10SM CLR 24/18 A3022 RMK AO2 SLP233 T02440178
KTAZ 012215Z AUTO 13007KT 10SM VCTS SCT033 SCT050 BKN120 18/17 A3010 RMK AO2 LTG DSNT SE
KTBN 012158Z AUTO 04007KT 10SM FEW110 28/16 A3005 RMK AO2 SLP170 T02790159
KTBR 012215Z AUTO 00000KT 10SM SCT060 OVC090 23/23 A3000 RMK AO2 LTG DSNT ALQS T02320232
KTBX 012215Z AUTO 09005KT 10SM RA SCT070 OVC085 22/00 A3045 RMK AO2
KTCC 012153Z AUTO 11007KT 080V150 10SM CLR 27/11 A3018 RMK AO2 SLP160 T02720111
KTCL 012153Z 35007KT 9SM CLR 30/18 A2997 RMK AO2 SLP147 T03000183
KTCM 012158Z AUTO 34007KT 310V020 10SM CLR 27/11 A3000 RMK AO2 SLP161 T02670108 $
KTCS 012153Z AUTO 10006KT 10SM CLR 27/14 A3015 RMK AO2 SLP133 T02670139 TSNO
KTDF 012215Z AUTO 10006KT 4SM RA SCT006 OVC020 18/18 A3014 RMK AO2 LTG DSNT S P0005
KTDR 012156Z AUTO 26008KT 12SM CLR 29/19 A2994 RMK AO2 SLP142 T02910190
KTDZ 012153Z AUTO 03004KT 10SM FEW060 26/14 A3008 RMK AO2 SLP182 T02610139 TSNO
KTEB 012151Z 19004KT 10SM -RA BKN120 25/19 A3019 RMK AO2 RAB28 SLP221 P0000 T02500189
KTEW 012215Z AUTO 34005KT 10SM SCT065 24/18 A3009 RMK AO2 T02430178
KTEX 012216Z AUTO 27007KT 10SM SCT110 19/08 A3042 RMK AO2 LTG DSNT N E AND S
KTFP 012215Z AUTO 15013KT 10SM SCT120 33/23 A2989 RMK AO2 LTG DSNT NW T03320231
KTHA 012215Z AUTO 33004KT 10SM SCT085 27/17 A3005 RMK
KTHV 012153Z AUTO 19004KT 10SM OVC110 24/18 A3017 RMK AO2 SLP215 T02440178
KTIF 012215Z 05007KT 010V090 10SM SCT120 33/10 A3010 RMK AO2 T03320096 PWINO
KTIK 012158Z AUTO 12004KT 10SM CLR 28/19 A3006 RMK AO2 SLP175 T02770189 $
KTIP 012215Z AUTO 00000KT 10SM CLR 22/16 A3011 RMK AO2 LTG DSNT SW AND NW T02230157
KTIW 012153Z 26008KT 10SM CLR 25/12 A3001 RMK AO2 RAE15 SLP159 P0000 T02500122
KTIX 012150Z 15008KT 7SM SCT050 BKN080 24/24 A2996
KTKC 012211Z AUTO 14003KT 10SM CLR 28/14 A3009 RMK AO2 T02770137
KTKI 012153Z 06008KT 10SM BKN034 OVC044 25/19 A3003 RMK AO2 SLP168 T02500194
KTKV 012215Z AUTO 00000KT 7SM SCT055 24/12 A3008 RMK AO2 T02370119
KTLH 012153Z 19006KT 10SM SCT060 BKN250 32/19 A2994 RMK AO2 SLP135 T03220189 $
KTMA 012210Z AUTO 06010G14KT 10SM BKN031 OVC043 28/21 A2997 RMK AO2 T02790209 TSNO
KTMB 012153Z 28006KT 10SM BKN047 29/23 A2995 RMK AO2 LTG DSNT N AND NW SLP142 T02890233
KTME 012215Z AUTO 35005KT 10SM FEW037 30/21 A2995 RMK AO2
KTMK 012215Z AUTO 31011KT 10SM CLR 20/15 A3003 RMK AO2
KTNB 012215Z AUTO 13004KT 10SM OVC013 16/16 A3020 RMK AO2 T01610155
KTNU 012215Z AUTO VRB04KT 10SM CLR 27/15 A3007 RMK AO2
KTOA 012047Z 30004KT 10SM SKC 27/19 A2990
KTOB 012214Z AUTO 24004KT 10SM CLR 27/14 A3008 RMK AO2
KTOC 012215Z AUTO 10005KT 10SM SCT027 27/19 A3006 RMK AO2 T02670191
KTOI 012153Z AUTO 04007KT 10SM CLR 28/21 A2999 RMK AO2 SLP150 T02780211
KTOL 012152Z 01004KT 8SM VCTS CLR 27/15 A3007 RMK AO2 LTG DSNT W AND NW TSB49 SLP179 T02670150
KTOP 012153Z 10011KT 10SM SCT065 33/16 A3001 RMK AO2 SLP153 T03280156
KTOR 012153Z AUTO 20009G17KT 10SM CLR 31/04 A3015 RMK AO2 SLP162 T03110044
KTPA 012153Z 32008KT 10SM FEW050 FEW230 OVC300 32/19 A2993 RMK AO2 SLP136 CB DSNT SE-S TCU DSNT E-SE T03220194
KTPH 012156Z AUTO 35004KT CLR 32/03 A3013 RMK AO2 SLP115 T03220033 $
KTPL 012215Z AUTO 36008KT 10SM OVC050 27/17 A2999 RMK AO1
KTQE 012154Z AUTO VRB04KT 10SM CLR 28/15 A3008 RMK AO2 SLP173 T02830150
KTQH 012215Z AUTO 12003KT 10SM SCT043 29/17 A3005 RMK AO2
KTRI 012153Z 11006KT 10SM SCT040 SCT085 25/16 A3009 RMK AO2 SLP165 T02500161
KTRK 012150Z 25007G19KT 180V310 10SM SCT060 30/02 A3021 RMK NOCB N-E
KTRL 012153Z AUTO 04009KT 10SM OVC033 26/19 A3003 RMK AO2 SLP163 T02560194
KTRM 012152Z AUTO 15007KT 10SM CLR 41/21 A2976 RMK AO2 SLP081 T04060206 TSNO
KTSP 012215Z AUTO 31012G21KT 10SM CLR 34/04 A3007 RMK AO2
KTTA 012215Z AUTO 02007KT 10SM 20/19 A3006 RMK AO2 T01950190
KTTD 012153Z 00000KT 10SM CLR 29/14 A2992 RMK AO2 SLP131 T02940139
KTTF 012214Z AUTO 00000KT 7SM CLR 23/19 A3006 RMK AO2
KTTN 012153Z 21004KT 8SM -RA OVC100 22/19 A3019 RMK AO2 SLP218 P0001 T02170194
KTTS 012158Z AUTO 14005KT 10SM SCT080 BKN110 24/24 A2995 RMK AO2 DZE2057 SLP145 T02420242
KTUL 012153Z VRB03KT 10SM FEW040 FEW250 29/17 A3003 RMK AO2 SLP163 T02890172
KTUP 012153Z AUTO 07005KT 10SM OVC070 29/18 A3000 RMK AO2 SLP153 T02890183
KTUS 012153Z 00000KT 10SM CLR 32/16 A3000 RMK AO2 LTG DSNT NE AND SE SLP109 T03170156
KTVC 012153Z 03007KT 10SM SCT070 25/12 A3005 RMK AO2 SLP172 T02500122
KTVF 012215Z AUTO 04005KT 9SM FEW060 26/12 A3008 RMK AO1
KTVI 012215Z AUTO 31003KT 10SM SCT070 OVC090 31/21 A2996 RMK AO2 LTG DSNT NE
KTVK 012215Z AUTO 12004KT 10SM CLR 27/17 A3008 RMK AO2
KTVL 012153Z AUTO VRB03KT 10SM CLR 30/M02 A3023 RMK AO2 SLP165 T03001017
KTVR 012153Z AUTO 15007KT 3SM -RA BR SCT015 BKN032 OVC050 23/22 A2999 RMK AO2 SLP160 P0005 T02330217 TSNO
KTWF 012153Z 02005KT 10SM CLR 33/07 A3010 RMK AO2 SLP128 T03330072
KTWM 012214Z AUTO 00000KT 10SM SCT070 23/12 A3005 RMK AO2 LTG DSNT E
KTXK 012153Z AUTO 06005KT 10SM FEW011 BKN017 OVC024 22/20 A3002 RMK AO2 SLP162 T02220200 TSNO
KTYQ 012215Z AUTO 31008KT 10SM -RA SCT034 SCT049 OVC110 20/16 A3011 RMK AO2 LTG DSNT NE S AND W T01980156
KTYR 012153Z 35005KT 9SM SCT013 BKN021 OVC027 24/19 A3001 RMK AO2 SLP156 T02390194
KTYS 012153Z 04007KT 10SM FEW055 SCT070 SCT100 28/17 A3002 RMK AO2 SLP154 T02780172
KTZR 012150Z 35004KT 10SM FEW070 28/17 A3007
KUAO 012153Z AUTO VRB03KT 10SM CLR 31/14 A2994 RMK AO2 SLP138 T03060139
KUBE 012215Z AUTO 00000KT 10SM CLR 25/12 A3007 RMK AO2
KUCP 012156Z AUTO 00000KT 10SM CLR 28/16 A3010 RMK AO2 TSNO T02770155 SLP201 $
KUCY 012215Z AUTO 00000KT 10SM SCT095 28/17 A3002 RMK
KUDG 012215Z AUTO 02009KT 10SM FEW015 BKN022 BKN031 26/22 A3002 RMK AO1 LTG DSNT SE
KUES 012145Z 23004KT 10SM SCT055 27/13 A3005
KUGN 012152Z 13009KT 9SM CLR 25/14 A3006 RMK AO2 SLP169 T02500144
KUIL 012153Z AUTO 23010KT 7SM CLR 23/14 A3003 RMK AO2 SLP168 T02330139
KUIN 012204Z AUTO 05009KT 10SM -RA BKN060 OVC110 24/18 A3007 RMK AO2 LTG DSNT SE-W P0000 T02390183
KUKF 012215Z AUTO 00000KT 3SM RA OVC021 17/17 A3020 RMK AO2 LTG DSNT S P0003
KUKI 012156Z AUTO 10SM CLR 40/M03 A2984 RMK AO2 SLP097 T04001028
KUKT 012210Z AUTO 00000KT 4SM FEW021 BKN048 OVC065 20/19 A3022 RMK AO1
KULM 012214Z AUTO 01003KT 10SM CLR 28/16 A3006 RMK AO2
KUNI 012215Z AUTO 15008KT 10SM SCT065 SCT075 BKN090 26/17 A3006 RMK AO2 T02620165
KUNO 012153Z AUTO 21003KT 10SM CLR 26/17 A3007 RMK AO2 SLP173 T02610167
KUNU 012215Z AUTO 33006KT 10SM VCTS CLR 25/11 A3007 RMK AO2 LTG DSNT SE S AND NW T02460112
KUNV 012153Z 00000KT 10SM BKN110 23/19 A3015
KUOX 012155Z AUTO 06003KT 9SM CLR 28/17 A3003 RMK AO2
KUSE 012215Z AUTO 07006KT 5SM -DZ CLR 20/17 A3009 RMK AO2
KUTA 012215Z AUTO 05003KT 10SM CLR 27/18 A3002 RMK AO2
KUTS 012153Z AUTO VRB06KT 10SM FEW022 SCT050 27/21 A2998 RMK AO2 SLP147 T02670206
KUUU 012153Z AUTO 19008KT 10SM CLR 23/19 A3023 RMK AO2 SLP235 T02280194
KUVA 012215Z AUTO 28005KT 10SM VCTS SCT095 31/22 A2995 RMK AO2 LTG DSNT S THRU W T03110217
KUXL 012215Z AUTO 29006KT 7SM SCT026 BKN070 31/23 A2992 RMK AO2 LTG DSNT E THRU SW T03090229
KUZA 012154Z AUTO 01008KT 7SM OVC012 21/19 A3008 RMK AO2 SLP176 T02110189
KVAD 012158Z AUTO 01011KT 10SM BKN060 BKN095 30/23 A2994 RMK AO2 SLP139 T03030231 $
KVAF 012215Z AUTO 00000KT 5SM HZ CLR 32/23 A2995 RMK A01
KVAY 012154Z AUTO 00000KT 7SM FEW080 SCT110 22/19 A3019 RMK AO2 RAE2057 SLP222 P0000 T02170194
KVBG 012155Z 30008G15KT 7SM FEW003 SCT006 BKN008 19/15 A2995 RMK AO2 SLP132 T01940150 $
KVBS 012215Z AUTO 29010KT 10SM CLR 30/24 A2991 RMK A01
KVBT 012215Z AUTO 05004KT 10SM FEW050 27/15 A3008 RMK AO1
KVCB 012153Z AUTO VRB06KT 10SM CLR 39/12 A2982 RMK AO2 SLP097 T03940122
KVCT 012214Z 04008KT 10SM VCTS BKN065 BKN120 35/22 A2990 RMK AO2 LTG DSNT S T03500222
KVCV 012215Z AUTO 19011G18KT 10SM CLR 39/04 A2995 RMK AO2
KVDF 012215Z AUTO 36003KT 10SM SCT080 31/25 A2993 RMK AO2
KVDI 012215Z AUTO 09007KT 10SM VCTS 27/23 A2998 RMK AO2 LTG DSNT SE AND W
KVEL 012153Z AUTO VRB06KT 10SM CLR 31/03 A3014 RMK AO2 SLP136 T03060033
KVER 012215Z AUTO 35003KT 10SM CLR 28/14 A3005 RMK AO2 T02770142
KVES 012215Z AUTO 10003KT 10SM BKN100 28/14 A3007 RMK AO2
KVGT 012153Z 00000KT 10SM CLR 39/09 A2988 RMK AO2 SLP102 T03890089
KVIH 012153Z AUTO 02007KT 10SM FEW100 27/16 A3005 RMK AO2 SLP167 T02720156
KVIS 012215Z AUTO 29008KT 10SM CLR 39/13 A2979 RMK AO1
KVJI 012215Z AUTO 14007KT 10SM SCT030 24/16 A3013 RMK AO2 T02370155
KVLD 012153Z 00000KT 10SM BKN070 OVC085 34/18 A2993 RMK AO2 SLP140 T03390183
KVLL 012215Z AUTO 26003KT 10SM CLR 27/14 A3009 RMK AO2 T02700140
KVNC 012215Z AUTO 32008KT 10SM SCT070 31/20 A2994 RMK AO2 LTG DSNT E AND SE AND W
KVNY 012151Z 16009KT 10SM CLR 34/15 A2987 RMK AO2 SLP104 T03390150
KVOA 012215Z AUTO 00000KT 10SM CLR 29/20 A2997 RMK A01
KVOK 012158Z AUTO 26007KT 10SM VCTS CLR 26/16 A3006 RMK AO2 LTG DSNT N AND SW SLP180 T02580164
KVPC 012153Z AUTO 01009KT 10SM FEW045 SCT060 OVC090 27/18 A3003 RMK AO2 SLP155 T02670183
KVPS 012157Z VRB03KT 10SM FEW130 SCT180 BKN250 30/20 A2996 RMK AO2A SLP151 T02970199 $
KVPZ 012153Z AUTO 09003KT 10SM FEW075 BKN100 BKN110 18/17 A3007 RMK AO2 RAE17 SLP181 P0000 T01830167 TSNO
KVQQ 012150Z VRB04KT 10SM CLR 32/18 A2994
KVQT 012215Z AUTO 00000KT 10SM 31/25 A2995 RMK A01
KVRB 012153Z 10011KT 10SM FEW100 30/24 A2995 RMK AO2 LTG DSNT W AND NW SLP140 T03000239
KVSF 012154Z AUTO 14007KT 10SM CLR 26/19 A3016 RMK AO2 SLP213 T02610194
KVSH 012215Z AUTO 14007KT 10SM CLR 31/18 A2996 RMK AO1
KVTA 012154Z AUTO 00000KT 10SM CLR 28/15 A3006 RMK AO2 SLP175 T02830150
KVTN 012152Z AUTO VRB03KT 10SM CLR 34/08 A3006 RMK AO2 SLP158 T03390078
KVTP 012213Z AUTO 06008KT 10SM SCT049 BKN055 OVC075 09/07 A3054 RMK AO2 LTG DSNT SE
KVUJ 012215Z AUTO 05008KT 10SM OVC011 21/20 A3012 RMK AO2 LTG DSNT E T02130200
KVUO 012153Z AUTO 36005G15KT 10SM CLR 30/14 A2993 RMK AO2 SLP135 T03000139
KVVV 012214Z AUTO 30005KT 10SM CLR 28/13 A3007 RMK AO2
KVWU 012214Z AUTO 00000KT 10SM CLR 26/08 A3007 RMK AO2
KVYS 012215Z AUTO 30003KT 10SM CLR 27/16 A3006 RMK AO2 LTG DSNT SW T02700159
KW29 012221Z AUTO 14007KT 10SM 24/17 A3017 RMK AO1
KW43 012215Z AUTO 10SM CLR 31/05 A3014 RMK AO2
KW99 012215Z AUTO 18003KT 10SM OVC070 24/15 A3015 RMK AO2 T02400153
KWAL 012154Z AUTO 09009KT 10SM SCT110 24/20 A3015 RMK AO2 RAB20E39 SLP205 P0000 T02440200
KWDG 012150Z 15010KT 10SM BKN150 BKN200 31/19 A3003
KWDR 012215Z AUTO 09003KT 10SM SCT029 27/21 A3008 RMK AO2 LTG DSNT SE T02670205
KWHP 012147Z 12010G15KT 10SM SKC 33/17 A2991
KWJF 012156Z 20010G18KT 170V230 10SM CLR 39/03 A2992 RMK AO2 SLP102 T03890033
KWLD 012154Z AUTO 18009KT 120V200 10SM FEW042 FEW050 29/19 A3005 RMK AO2 SLP164 T02940194
KWMC 012156Z AUTO VRB03KT 10SM CLR 33/03 A3007 RMK AO2 SLP128 T03330033
KWRB 012218Z AUTO VRB04KT 10SM OVC020 25/21 A3001 RMK AO2
KWRI 012158Z AUTO 13002KT 10SM CLR 23/21 A3018 RMK AO2 RAB2110E2127 SLP223 P0000 T02250213
KWRL 012210Z AUTO 08018G26KT 10SM CLR 32/04 A3013 RMK AO2 PK WND 07027/2154 WSHFT 2150 T03220039
KWST 012153Z AUTO 19006KT 10SM CLR 24/20 A3024 RMK AO2 SLP238 T02390200
KWVI 012153Z AUTO 20008KT 10SM CLR 22/14 A2993 RMK AO2 SLP133 T02170139
KWVL 012215Z 18006KT 10SM CLR 23/18 A3015 RMK AO1
KWWD 012215Z AUTO 12005KT 10SM FEW090 23/19 A3019 RMK AO1
KWWR 012215Z AUTO 03005KT 10SM BKN110 31/13 A3010 RMK AO2
KWYS 012210Z AUTO 12008KT 10SM SCT047 SCT050 BKN100 16/10 A3034 RMK AO2
KXBP 012215Z AUTO 04007KT 10SM BKN050 28/16 A3005 RMK AO2 T02770160
KXFL 012150Z 14010KT 7SM SCT050 30/24 A2994
KXIH 012215Z AUTO 26011KT 9SM CLR 30/24 A2992 RMK A01
KXLL 012215Z AUTO 26003KT 7SM VCTSRA SCT045 SCT050 OVC060 20/17 A3022 RMK AO2 P0002
KXMR 012205Z AUTO 19004KT 10SM CLR 25/24 A2995 RMK AO2
KXNA 012153Z 06003KT 10SM CLR 28/15 A3007 RMK AO2 SLP167 T02830150
KXPY 012215Z AUTO VRB06KT 10SM CLR 29/20 A2998 RMK A01
KXSA 012215Z AUTO 00000KT 7SM -RA SCT028 SCT033 BKN048 23/19 A3016 RMK AO2 T02250185
KXVG 012216Z AUTO 30003KT 10SM CLR 26/14 A3007 RMK AO2
KY19 012215Z AUTO 08008KT 060V120 10SM CLR 29/14 A3005 RMK AO2
KY23 012215Z AUTO 34004KT 10SM CLR 26/15 A3006 RMK AO2 T02640147
KY50 012156Z AUTO 29010KT 6SM -RA FEW034 BKN048 OVC065 19/16 A3009 RMK AO2 TSNO T01880155 BKN V SCT RAB24 P0001 SLP186
KY51 012215Z AUTO 29004KT 10SM CLR 26/14 A3008 RMK AO1 T02620143
KY63 012211Z AUTO 18005KT 10SM SCT050 26/17 A3006 RMK AO2 T02550169
KY70 012213Z AUTO 09012KT 10SM BKN050 BKN100 BKN120 21/14 A3008 RMK AO2 T02080144
KYIP 012153Z 19005KT 9SM CLR 29/16 A3007 RMK AO2 SLP176 T02890156
KYKM 012153Z 29005KT 10SM CLR 36/08 A2993 RMK AO2 SLP124 T03610078
KYKN 012215Z AUTO 16004KT 10SM CLR 27/13 A3009 RMK AO1
KYNG 012151Z 00000KT 10SM SCT040 SCT200 BKN250 25/18 A3010 RMK AO2 SLP186 TCU DSNT E-S T02500178 $
KZPH 012215Z AUTO 32007KT 10SM SCT048 32/19 A2994 RMK AO2 LTG DSNT E AND SE
KZZV 012153Z AUTO 13005KT 10SM CLR 27/15 A3008 RMK AO2 SLP178 T02720150